
Distance (Route):
Temperature : 19.4°C
Humidity : 48.8%
Pressure : 0hPa| Receiver | Frames | First received | Last received |
|---|---|---|---|
| IW2NTF | 835 | 2026-09-04 10:04:24 | 2026-09-04 12:10:04 |
| AUTORXJP | 121 | 2026-09-04 10:42:55 | 2026-09-04 11:55:26 |
| DO3MHA-12 | 75 | 2026-09-04 11:22:56 | 2026-09-04 11:49:35 |
| DB0UT-7 | 64 | 2026-09-04 11:09:31 | 2026-09-04 11:50:30 |
| OE5DXL-15 | 8 | 2026-09-04 11:40:50 | 2026-09-04 11:46:34 |
| Receiver | Date | Latitude | Longitude | Direction | Speed | Altitude | Climb | Temperature | Humidity | Pressure | Voltage | Killtimer | Uptime | BKT | XDATA |
|---|---|---|---|---|---|---|---|---|---|---|---|---|---|---|---|
| IW2NTF | 2026-09-04 12:10:04 | 44.26738 | 7.99642 | 345° | 7km/h | 2042m | -7.2m/s | 19.4°C | 48.8% | 0hPa | 2.7V | 08:06:34 | 02:33:55 | 00:00:00 | |
| IW2NTF | 2026-09-04 12:09:58 | 44.26728 | 7.99647 | 331° | 9km/h | 2084m | -7.6m/s | 20°C | 30.6% | 0hPa | 2.7V | 08:06:40 | 02:33:49 | 00:00:00 | |
| IW2NTF | 2026-09-04 12:09:43 | 44.26709 | 7.99646 | 20° | 7km/h | 2171m | -7.5m/s | 19.9°C | 22.3% | 0hPa | 2.7V | 08:06:52 | 02:33:37 | 00:00:00 | |
| IW2NTF | 2026-09-04 12:09:37 | 44.26702 | 7.99639 | 26° | 4km/h | 2215m | -7.4m/s | 19.6°C | 20% | 0hPa | 2.7V | 08:06:58 | 02:33:31 | 00:00:00 | |
| IW2NTF | 2026-09-04 12:09:32 | 44.26698 | 7.99632 | 71° | 4km/h | 2258m | -7.5m/s | 19.3°C | 20% | 0hPa | 2.7V | 08:07:04 | 02:33:25 | 00:00:00 | |
| IW2NTF | 2026-09-04 12:09:26 | 44.26696 | 7.99623 | 71° | 7km/h | 2302m | -7.1m/s | 19°C | 20.4% | 0hPa | 2.7V | 08:07:10 | 02:33:19 | 00:00:00 | |
| IW2NTF | 2026-09-04 12:09:21 | 44.26697 | 7.99607 | 101° | 7km/h | 2346m | -8.1m/s | 18.7°C | 21.3% | 0hPa | 2.7V | 08:07:16 | 02:33:13 | 00:00:00 | |
| IW2NTF | 2026-09-04 12:09:14 | 44.26698 | 7.99590 | 85° | 9km/h | 2392m | -8.1m/s | 18.4°C | 22.5% | 0hPa | 2.7V | 08:07:22 | 02:33:07 | 00:00:00 | |
| IW2NTF | 2026-09-04 12:09:09 | 44.26698 | 7.99569 | 96° | 11km/h | 2437m | -8.1m/s | 18.1°C | 21.8% | 0hPa | 2.7V | 08:07:28 | 02:33:01 | 00:00:00 | |
| IW2NTF | 2026-09-04 12:09:03 | 44.26701 | 7.99551 | 103° | 9km/h | 2482m | -7.7m/s | 17.9°C | 20.7% | 0hPa | 2.7V | 08:07:34 | 02:32:55 | 00:00:00 | |
| IW2NTF | 2026-09-04 12:08:58 | 44.26705 | 7.99533 | 111° | 9km/h | 2527m | -7.9m/s | 17.5°C | 20.9% | 0hPa | 2.7V | 08:07:40 | 02:32:49 | 00:00:00 | |
| IW2NTF | 2026-09-04 12:08:53 | 44.26712 | 7.99515 | 117° | 9km/h | 2571m | -7.3m/s | 17.2°C | 20.9% | 0hPa | 2.7V | 08:07:46 | 02:32:43 | 00:00:00 | |
| IW2NTF | 2026-09-04 12:08:45 | 44.26722 | 7.99498 | 132° | 11km/h | 2613m | -7.6m/s | 16.8°C | 21.2% | 0hPa | 2.7V | 08:07:52 | 02:32:37 | 00:00:00 | |
| IW2NTF | 2026-09-04 12:08:39 | 44.26733 | 7.99479 | 125° | 11km/h | 2656m | -7.8m/s | 16.4°C | 21.7% | 0hPa | 2.7V | 08:07:58 | 02:32:31 | 00:00:00 | |
| IW2NTF | 2026-09-04 12:08:34 | 44.26744 | 7.99459 | 123° | 13km/h | 2701m | -7.9m/s | 15.9°C | 22.1% | 0hPa | 2.6V | 08:08:04 | 02:32:25 | 00:00:00 | |
| IW2NTF | 2026-09-04 12:08:26 | 44.26760 | 7.99429 | 122° | 15km/h | 2760m | -7.9m/s | 15.4°C | 22.7% | 0hPa | 2.7V | 08:08:12 | 02:32:17 | 00:00:00 | |
| IW2NTF | 2026-09-04 12:08:19 | 44.26772 | 7.99404 | 118° | 15km/h | 2806m | -7.8m/s | 15.1°C | 23.1% | 0hPa | 2.7V | 08:08:18 | 02:32:11 | 00:00:00 | |
| IW2NTF | 2026-09-04 12:08:14 | 44.26785 | 7.99376 | 126° | 16km/h | 2851m | -8m/s | 14.9°C | 22.7% | 0hPa | 2.7V | 08:08:24 | 02:32:05 | 00:00:00 | |
| IW2NTF | 2026-09-04 12:08:03 | 44.26806 | 7.99337 | 126° | 18km/h | 2911m | -7.9m/s | 14.5°C | 22.3% | 0hPa | 2.7V | 08:08:32 | 02:31:57 | 00:00:00 | |
| IW2NTF | 2026-09-04 12:07:58 | 44.26826 | 7.99304 | 132° | 24km/h | 2955m | -7.7m/s | 14.3°C | 21.9% | 0hPa | 2.6V | 08:08:38 | 02:31:51 | 00:00:00 | |
| IW2NTF | 2026-09-04 12:07:53 | 44.26851 | 7.99266 | 131° | 26km/h | 3000m | -7.7m/s | 14.1°C | 21.8% | 0hPa | 2.6V | 08:08:44 | 02:31:45 | 00:00:00 | |
| IW2NTF | 2026-09-04 12:07:47 | 44.26878 | 7.99229 | 135° | 24km/h | 3043m | -7.4m/s | 13.7°C | 22.3% | 0hPa | 2.7V | 08:08:50 | 02:31:39 | 00:00:00 | |
| IW2NTF | 2026-09-04 12:07:42 | 44.26908 | 7.99193 | 136° | 27km/h | 3087m | -7.7m/s | 13.3°C | 22.7% | 0hPa | 2.7V | 08:08:56 | 02:31:33 | 00:00:00 | |
| IW2NTF | 2026-09-04 12:07:36 | 44.26937 | 7.99149 | 130° | 27km/h | 3130m | -7.2m/s | 12.9°C | 22.9% | 0hPa | 2.7V | 08:09:02 | 02:31:27 | 00:00:00 | |
| IW2NTF | 2026-09-04 12:07:30 | 44.26965 | 7.99111 | 141° | 27km/h | 3172m | -7.7m/s | 12.6°C | 23.5% | 0hPa | 2.6V | 08:09:08 | 02:31:21 | 00:00:00 | |
| IW2NTF | 2026-09-04 12:07:23 | 44.26998 | 7.99074 | 137° | 29km/h | 3214m | -6.8m/s | 12.2°C | 24% | 0hPa | 2.7V | 08:09:14 | 02:31:15 | 00:00:00 | |
| IW2NTF | 2026-09-04 12:07:18 | 44.27026 | 7.99032 | 129° | 27km/h | 3260m | -9m/s | 11.8°C | 24.3% | 0hPa | 2.7V | 08:09:20 | 02:31:09 | 00:00:00 | |
| IW2NTF | 2026-09-04 12:07:11 | 44.27052 | 7.98989 | 136° | 26km/h | 3313m | -10m/s | 11.3°C | 24.3% | 0hPa | 2.6V | 08:09:26 | 02:31:03 | 00:00:00 | |
| IW2NTF | 2026-09-04 12:07:06 | 44.27077 | 7.98947 | 128° | 26km/h | 3363m | -7.3m/s | 11°C | 23.6% | 0hPa | 2.7V | 08:09:32 | 02:30:57 | 00:00:00 | |
| IW2NTF | 2026-09-04 12:07:00 | 44.27100 | 7.98906 | 121° | 24km/h | 3405m | -7.9m/s | 10.7°C | 23.6% | 0hPa | 2.7V | 08:09:38 | 02:30:51 | 00:00:00 | |
| IW2NTF | 2026-09-04 12:06:53 | 44.27120 | 7.98866 | 123° | 24km/h | 3449m | -7.6m/s | 10.4°C | 23.8% | 0hPa | 2.6V | 08:09:44 | 02:30:45 | 00:00:00 | |
| IW2NTF | 2026-09-04 12:06:47 | 44.27142 | 7.98823 | 126° | 26km/h | 3492m | -8.4m/s | 10.2°C | 22.6% | 0hPa | 2.7V | 08:09:50 | 02:30:39 | 00:00:00 | |
| IW2NTF | 2026-09-04 12:06:42 | 44.27164 | 7.98784 | 125° | 24km/h | 3540m | -9.7m/s | 9.9°C | 20.2% | 0hPa | 2.7V | 08:09:56 | 02:30:33 | 00:00:00 | |
| IW2NTF | 2026-09-04 12:06:36 | 44.27186 | 7.98740 | 123° | 27km/h | 3596m | -10.4m/s | 9.6°C | 19.5% | 0hPa | 2.7V | 08:10:02 | 02:30:27 | 00:00:00 | |
| IW2NTF | 2026-09-04 12:06:30 | 44.27207 | 7.98692 | 124° | 26km/h | 3659m | -9.8m/s | 9.4°C | 16.6% | 0hPa | 2.7V | 08:10:08 | 02:30:21 | 00:00:00 | |
| IW2NTF | 2026-09-04 12:06:24 | 44.27230 | 7.98646 | 119° | 26km/h | 3723m | -11.7m/s | 9°C | 16.5% | 0hPa | 2.7V | 08:10:14 | 02:30:15 | 00:00:00 | |
| IW2NTF | 2026-09-04 12:06:18 | 44.27253 | 7.98604 | 131° | 24km/h | 3788m | -12.2m/s | 8.6°C | 14.9% | 0hPa | 2.6V | 08:10:20 | 02:30:09 | 00:00:00 | |
| IW2NTF | 2026-09-04 12:06:10 | 44.27279 | 7.98564 | 134° | 27km/h | 3853m | -12.8m/s | 8°C | 15.2% | 0hPa | 2.6V | 08:10:26 | 02:30:03 | 00:00:00 | |
| IW2NTF | 2026-09-04 12:06:03 | 44.27313 | 7.98517 | 131° | 26km/h | 3959m | -15.5m/s | 7.5°C | 15.9% | 0hPa | 2.7V | 08:10:34 | 02:29:55 | 00:00:00 | |
| IW2NTF | 2026-09-04 12:05:56 | 44.27349 | 7.98463 | 139° | 27km/h | 4069m | -13.6m/s | 6.5°C | 20.3% | 0hPa | 2.7V | 08:10:42 | 02:29:47 | 00:00:00 | |
| IW2NTF | 2026-09-04 12:05:50 | 44.27377 | 7.98417 | 124° | 27km/h | 4149m | -14.5m/s | 5.8°C | 21% | 0hPa | 2.7V | 08:10:48 | 02:29:41 | 00:00:00 | |
| IW2NTF | 2026-09-04 12:05:44 | 44.27402 | 7.98369 | 121° | 29km/h | 4229m | -14m/s | 5.1°C | 21.6% | 0hPa | 2.7V | 08:10:54 | 02:29:35 | 00:00:00 | |
| IW2NTF | 2026-09-04 12:05:39 | 44.27423 | 7.98331 | 129° | 27km/h | 4298m | -13.5m/s | 4.5°C | 22.7% | 0hPa | 2.6V | 08:10:59 | 02:29:30 | 00:00:00 | |
| IW2NTF | 2026-09-04 12:05:30 | 44.27455 | 7.98272 | 130° | 26km/h | 4399m | -13.6m/s | 3.5°C | 24.2% | 0hPa | 2.7V | 08:11:07 | 02:29:22 | 00:00:00 | |
| IW2NTF | 2026-09-04 12:05:25 | 44.27477 | 7.98230 | 128° | 24km/h | 4479m | -14.1m/s | 2.8°C | 23.3% | 0hPa | 2.7V | 08:11:13 | 02:29:16 | 00:00:00 | |
| IW2NTF | 2026-09-04 12:05:19 | 44.27497 | 7.98190 | 121° | 24km/h | 4559m | -14.2m/s | 2.2°C | 23.3% | 0hPa | 2.7V | 08:11:19 | 02:29:10 | 00:00:00 | |
| IW2NTF | 2026-09-04 12:05:13 | 44.27518 | 7.98154 | 133° | 22km/h | 4639m | -14.4m/s | 1.6°C | 25.6% | 0hPa | 2.7V | 08:11:25 | 02:29:04 | 00:00:00 | |
| IW2NTF | 2026-09-04 12:05:07 | 44.27541 | 7.98119 | 133° | 22km/h | 4720m | -13.6m/s | 0.9°C | 28.9% | 0hPa | 2.7V | 08:11:31 | 02:28:58 | 00:00:00 | |
| IW2NTF | 2026-09-04 12:05:00 | 44.27565 | 7.98082 | 127° | 22km/h | 4799m | -14.5m/s | 0.2°C | 29.3% | 0hPa | 2.7V | 08:11:37 | 02:28:52 | 00:00:00 | |
| IW2NTF | 2026-09-04 12:04:55 | 44.27586 | 7.98049 | 124° | 20km/h | 4880m | -14.9m/s | -0.4°C | 32.8% | 0hPa | 2.7V | 08:11:43 | 02:28:46 | 00:00:00 | |
| IW2NTF | 2026-09-04 12:04:49 | 44.27605 | 7.98013 | 122° | 22km/h | 4964m | -13.4m/s | -0.9°C | 29.3% | 0hPa | 2.7V | 08:11:49 | 02:28:40 | 00:00:00 | |
| IW2NTF | 2026-09-04 12:04:40 | 44.27623 | 7.97965 | 109° | 18km/h | 5073m | -14.6m/s | -1.7°C | 27.8% | 0hPa | 2.6V | 08:11:57 | 02:28:32 | 00:00:00 | |
| IW2NTF | 2026-09-04 12:04:30 | 44.27640 | 7.97903 | 116° | 20km/h | 5208m | -13.7m/s | -2.5°C | 25.7% | 0hPa | 2.6V | 08:12:07 | 02:28:22 | 00:00:00 | |
| IW2NTF | 2026-09-04 12:04:19 | 44.27668 | 7.97819 | 108° | 24km/h | 5365m | -13.7m/s | -3.5°C | 26.6% | 0hPa | 2.6V | 08:12:19 | 02:28:10 | 00:00:00 | |
| IW2NTF | 2026-09-04 12:04:10 | 44.27692 | 7.97730 | 109° | 31km/h | 5492m | -13.3m/s | -4.3°C | 23.8% | 0hPa | 2.7V | 08:12:29 | 02:28:00 | 00:00:00 | |
| IW2NTF | 2026-09-04 12:03:59 | 44.27715 | 7.97632 | 104° | 29km/h | 5620m | -13.3m/s | -5.4°C | 24.8% | 0hPa | 2.7V | 08:12:39 | 02:27:50 | 00:00:00 | |
| IW2NTF | 2026-09-04 12:03:49 | 44.27738 | 7.97536 | 113° | 27km/h | 5748m | -12.8m/s | -6.7°C | 27.9% | 0hPa | 2.7V | 08:12:49 | 02:27:40 | 00:00:00 | |
| IW2NTF | 2026-09-04 12:03:39 | 44.27765 | 7.97441 | 116° | 31km/h | 5875m | -13.3m/s | -7.8°C | 30.3% | 0hPa | 2.7V | 08:12:59 | 02:27:30 | 00:00:00 | |
| IW2NTF | 2026-09-04 12:03:29 | 44.27802 | 7.97337 | 120° | 35km/h | 6003m | -12.8m/s | -8.8°C | 31.5% | 0hPa | 2.7V | 08:13:09 | 02:27:20 | 00:00:00 | |
| IW2NTF | 2026-09-04 12:03:19 | 44.27846 | 7.97230 | 121° | 37km/h | 6129m | -13.5m/s | -9.7°C | 32.8% | 0hPa | 2.6V | 08:13:19 | 02:27:10 | 00:00:00 | |
| IW2NTF | 2026-09-04 12:03:09 | 44.27894 | 7.97129 | 127° | 33km/h | 6257m | -13.3m/s | -10.8°C | 36.2% | 0hPa | 2.6V | 08:13:29 | 02:27:00 | 00:00:00 | |
| IW2NTF | 2026-09-04 12:02:59 | 44.27946 | 7.97024 | 123° | 37km/h | 6384m | -13.2m/s | -11.9°C | 37.2% | 0hPa | 2.7V | 08:13:39 | 02:26:50 | 00:00:00 | |
| IW2NTF | 2026-09-04 12:02:49 | 44.28002 | 7.96926 | 132° | 33km/h | 6510m | -13.4m/s | -12.8°C | 35.8% | 0hPa | 2.7V | 08:13:49 | 02:26:40 | 00:00:00 | |
| IW2NTF | 2026-09-04 12:02:39 | 44.28068 | 7.96847 | 146° | 33km/h | 6637m | -13m/s | -13.8°C | 33.9% | 0hPa | 2.7V | 08:13:59 | 02:26:30 | 00:00:00 | |
| IW2NTF | 2026-09-04 12:02:29 | 44.28139 | 7.96782 | 142° | 35km/h | 6767m | -12.9m/s | -14.1°C | 23.5% | 0hPa | 2.7V | 08:14:09 | 02:26:20 | 00:00:00 | |
| IW2NTF | 2026-09-04 12:02:18 | 44.28202 | 7.96701 | 133° | 33km/h | 6895m | -13.4m/s | -14.4°C | 13% | 0hPa | 2.6V | 08:14:19 | 02:26:10 | 00:00:00 | |
| IW2NTF | 2026-09-04 12:02:09 | 44.28259 | 7.96607 | 126° | 35km/h | 7024m | -12.4m/s | -15.1°C | 11.8% | 0hPa | 2.6V | 08:14:29 | 02:26:00 | 00:00:00 | |
| IW2NTF | 2026-09-04 12:01:59 | 44.28316 | 7.96523 | 135° | 35km/h | 7148m | -13.1m/s | -16°C | 12.3% | 0hPa | 2.7V | 08:14:39 | 02:25:50 | 00:00:00 | |
| IW2NTF | 2026-09-04 12:01:47 | 44.28384 | 7.96412 | 130° | 29km/h | 7298m | -12.5m/s | -17°C | 12.2% | 0hPa | 2.6V | 08:14:51 | 02:25:38 | 00:00:00 | |
| IW2NTF | 2026-09-04 12:01:33 | 44.28446 | 7.96320 | 140° | 29km/h | 7443m | -13m/s | -18°C | 13% | 0hPa | 2.7V | 08:15:03 | 02:25:26 | 00:00:00 | |
| IW2NTF | 2026-09-04 12:01:23 | 44.28512 | 7.96246 | 135° | 37km/h | 7563m | -12.4m/s | -18.5°C | 12.5% | 0hPa | 2.7V | 08:15:13 | 02:25:16 | 00:00:00 | |
| IW2NTF | 2026-09-04 12:01:13 | 44.28559 | 7.96167 | 131° | 27km/h | 7684m | -13.5m/s | -19.4°C | 11.1% | 0hPa | 2.6V | 08:15:23 | 02:25:06 | 00:00:00 | |
| IW2NTF | 2026-09-04 12:01:01 | 44.28611 | 7.96115 | 144° | 27km/h | 7802m | -12.4m/s | -20.3°C | 13.7% | 0hPa | 2.7V | 08:15:33 | 02:24:56 | 00:00:00 | |
| IW2NTF | 2026-09-04 12:00:53 | 44.28679 | 7.96048 | 150° | 31km/h | 7970m | -14.1m/s | -21.4°C | 12.7% | 0hPa | 2.7V | 08:15:45 | 02:24:44 | 00:00:00 | |
| IW2NTF | 2026-09-04 12:00:43 | 44.28736 | 7.95973 | 127° | 33km/h | 8113m | -14.2m/s | -22.5°C | 13.9% | 0hPa | 2.7V | 08:15:55 | 02:24:34 | 00:00:00 | |
| IW2NTF | 2026-09-04 12:00:33 | 44.28790 | 7.95886 | 125° | 33km/h | 8249m | -14.8m/s | -23.7°C | 15.2% | 0hPa | 2.7V | 08:16:05 | 02:24:24 | 00:00:00 | |
| IW2NTF | 2026-09-04 12:00:24 | 44.28843 | 7.95797 | 131° | 31km/h | 8393m | -15.2m/s | -24.8°C | 14.9% | 0hPa | 2.7V | 08:16:15 | 02:24:14 | 00:00:00 | |
| IW2NTF | 2026-09-04 12:00:13 | 44.28891 | 7.95707 | 126° | 31km/h | 8540m | -15.4m/s | -26°C | 15.4% | 0hPa | 2.6V | 08:16:25 | 02:24:04 | 00:00:00 | |
| IW2NTF | 2026-09-04 12:00:02 | 44.28936 | 7.95616 | 125° | 31km/h | 8687m | -15.3m/s | -27.3°C | 16.2% | 0hPa | 2.7V | 08:16:35 | 02:23:54 | 00:00:00 | |
| IW2NTF | 2026-09-04 11:59:53 | 44.28977 | 7.95518 | 119° | 35km/h | 8836m | -15.3m/s | -28.6°C | 17% | 0hPa | 2.7V | 08:16:45 | 02:23:44 | 00:00:00 | |
| IW2NTF | 2026-09-04 11:59:40 | 44.29024 | 7.95410 | 122° | 38km/h | 8989m | -16.3m/s | -29.7°C | 14.5% | 0hPa | 2.6V | 08:16:55 | 02:23:34 | 00:00:00 | |
| IW2NTF | 2026-09-04 11:59:32 | 44.29089 | 7.95305 | 137° | 42km/h | 9140m | -16.6m/s | -30.8°C | 12.9% | 0hPa | 2.6V | 08:17:05 | 02:23:24 | 00:00:00 | |
| IW2NTF | 2026-09-04 11:59:21 | 44.29161 | 7.95200 | 130° | 44km/h | 9295m | -16m/s | -31.8°C | 12.7% | 0hPa | 2.6V | 08:17:15 | 02:23:14 | 00:00:00 | |
| IW2NTF | 2026-09-04 11:59:10 | 44.29233 | 7.95086 | 130° | 47km/h | 9451m | -16.8m/s | -33.1°C | 13.7% | 0hPa | 2.6V | 08:17:25 | 02:23:04 | 00:00:00 | |
| IW2NTF | 2026-09-04 11:59:03 | 44.29311 | 7.94958 | 131° | 51km/h | 9613m | -17.3m/s | -34.2°C | 11.2% | 0hPa | 2.7V | 08:17:35 | 02:22:54 | 00:00:00 | |
| IW2NTF | 2026-09-04 11:58:50 | 44.29396 | 7.94812 | 130° | 51km/h | 9780m | -17.2m/s | -34.9°C | 11.1% | 0hPa | 2.6V | 08:17:45 | 02:22:44 | 00:00:00 | |
| IW2NTF | 2026-09-04 11:58:40 | 44.29480 | 7.94677 | 132° | 47km/h | 9950m | -17.7m/s | -36.3°C | 12.8% | 0hPa | 2.6V | 08:17:55 | 02:22:34 | 00:00:00 | |
| IW2NTF | 2026-09-04 11:58:30 | 44.29565 | 7.94551 | 134° | 47km/h | 10119m | -17m/s | -37.7°C | 14.8% | 0hPa | 2.7V | 08:18:05 | 02:22:24 | 00:00:00 | |
| IW2NTF | 2026-09-04 11:58:20 | 44.29652 | 7.94428 | 136° | 47km/h | 10288m | -17.9m/s | -39.3°C | 16.4% | 0hPa | 2.7V | 08:18:15 | 02:22:14 | 00:00:00 | |
| IW2NTF | 2026-09-04 11:58:10 | 44.29736 | 7.94301 | 132° | 47km/h | 10460m | -17.9m/s | -40.7°C | 18.5% | 0hPa | 2.7V | 08:18:25 | 02:22:04 | 00:00:00 | |
| IW2NTF | 2026-09-04 11:58:00 | 44.29822 | 7.94168 | 130° | 53km/h | 10634m | -17.2m/s | -42.3°C | 21.1% | 0hPa | 2.6V | 08:18:35 | 02:21:54 | 00:00:00 | |
| IW2NTF | 2026-09-04 11:57:50 | 44.29908 | 7.94048 | 139° | 46km/h | 10790m | -16.6m/s | -43.6°C | 23.3% | 0hPa | 2.7V | 08:18:45 | 02:21:44 | 00:00:00 | |
| IW2NTF | 2026-09-04 11:57:40 | 44.29994 | 7.93936 | 136° | 44km/h | 10952m | -16.5m/s | -45.1°C | 26.4% | 0hPa | 2.6V | 08:18:55 | 02:21:34 | 00:00:00 | |
| IW2NTF | 2026-09-04 11:57:30 | 44.30077 | 7.93824 | 133° | 46km/h | 11114m | -17.2m/s | -46.6°C | 28.8% | 0hPa | 2.7V | 08:19:05 | 02:21:24 | 00:00:00 | |
| IW2NTF | 2026-09-04 11:57:20 | 44.30182 | 7.93690 | 141° | 46km/h | 11308m | -17.4m/s | -48°C | 29.3% | 0hPa | 2.7V | 08:19:17 | 02:21:12 | 00:00:00 | |
| IW2NTF | 2026-09-04 11:57:12 | 44.30273 | 7.93584 | 137° | 47km/h | 11481m | -17.8m/s | -49.4°C | 32.5% | 0hPa | 2.6V | 08:19:27 | 02:21:02 | 00:00:00 | |
| IW2NTF | 2026-09-04 11:57:01 | 44.30370 | 7.93473 | 140° | 47km/h | 11652m | -18.7m/s | -50.9°C | 35.8% | 0hPa | 2.7V | 08:19:37 | 02:20:52 | 00:00:00 | |
| IW2NTF | 2026-09-04 11:56:51 | 44.30467 | 7.93388 | 150° | 44km/h | 11845m | -19.9m/s | -52.3°C | 37.6% | 0hPa | 2.6V | 08:19:47 | 02:20:42 | 00:00:00 | |
| IW2NTF | 2026-09-04 11:56:40 | 44.30565 | 7.93319 | 149° | 46km/h | 12041m | -21.1m/s | -54°C | 40.9% | 0hPa | 2.6V | 08:19:57 | 02:20:32 | 00:00:00 | |
| IW2NTF | 2026-09-04 11:56:31 | 44.30666 | 7.93242 | 150° | 46km/h | 12247m | -20.8m/s | -55.7°C | 43.7% | 0hPa | 2.7V | 08:20:07 | 02:20:22 | 00:00:00 | |
| IW2NTF | 2026-09-04 11:56:21 | 44.30770 | 7.93158 | 148° | 46km/h | 12451m | -21.1m/s | -57.4°C | 44.6% | 0hPa | 2.6V | 08:20:17 | 02:20:12 | 00:00:00 | |
| IW2NTF | 2026-09-04 11:56:12 | 44.30869 | 7.93089 | 158° | 40km/h | 12661m | -21.8m/s | -59°C | 43.5% | 0hPa | 2.7V | 08:20:27 | 02:20:02 | 00:00:00 | |
| IW2NTF | 2026-09-04 11:56:01 | 44.30971 | 7.93036 | 160° | 46km/h | 12876m | -21.9m/s | -60.4°C | 42.2% | 0hPa | 2.6V | 08:20:37 | 02:19:52 | 00:00:00 | |
| IW2NTF | 2026-09-04 11:55:51 | 44.31079 | 7.92975 | 153° | 44km/h | 13093m | -22.9m/s | -61.9°C | 40.1% | 0hPa | 2.7V | 08:20:47 | 02:19:42 | 00:00:00 | |
| IW2NTF | 2026-09-04 11:55:38 | 44.31181 | 7.92909 | 155° | 44km/h | 13315m | -22.7m/s | -63.4°C | 37.4% | 0hPa | 2.6V | 08:20:57 | 02:19:32 | 00:00:00 | |
| IW2NTF | 2026-09-04 11:55:31 | 44.31281 | 7.92819 | 141° | 53km/h | 13538m | -23m/s | -64.6°C | 33.5% | 0hPa | 2.7V | 08:21:07 | 02:19:22 | 00:00:00 | |
| AUTORXJP | 2026-09-04 11:55:26 | 44.31301 | 7.92796 | 138° | 53km/h | 13583m | -23.0m/s | -64.8°C | 24.7% | -1.0hPa | 2.7V | 00:00:00 | 00:00:00 | 00:00:00 | |
| IW2NTF | 2026-09-04 11:55:17 | 44.31378 | 7.92707 | 137° | 47km/h | 13765m | -23.2m/s | -65.5°C | 29.8% | 0hPa | 2.7V | 08:21:17 | 02:19:12 | 00:00:00 | |
| IW2NTF | 2026-09-04 11:55:11 | 44.31458 | 7.92593 | 126° | 46km/h | 13996m | -23.8m/s | -66.3°C | 27.5% | 0hPa | 2.6V | 08:21:27 | 02:19:02 | 00:00:00 | |
| IW2NTF | 2026-09-04 11:54:58 | 44.31532 | 7.92475 | 130° | 37km/h | 14230m | -23.9m/s | -66.5°C | 24.4% | 0hPa | 2.6V | 08:21:37 | 02:18:52 | 00:00:00 | |
| AUTORXJP | 2026-09-04 11:54:55 | 44.31538 | 7.92466 | 133° | 38km/h | 14253m | -23.8m/s | -66.7°C | 16.7% | -1.0hPa | 2.6V | 00:00:00 | 00:00:00 | 00:00:00 | |
| IW2NTF | 2026-09-04 11:54:51 | 44.31586 | 7.92387 | 119° | 33km/h | 14467m | -24m/s | -66.1°C | 19.3% | 0hPa | 2.6V | 08:21:47 | 02:18:42 | 00:00:00 | |
| IW2NTF | 2026-09-04 11:54:37 | 44.31641 | 7.92243 | 117° | 53km/h | 14710m | -24.5m/s | -66.4°C | 15.8% | 0hPa | 2.6V | 08:21:57 | 02:18:32 | 00:00:00 | |
| IW2NTF | 2026-09-04 11:54:31 | 44.31722 | 7.92092 | 137° | 51km/h | 14954m | -25.5m/s | -67.4°C | 14.8% | 0hPa | 2.6V | 08:22:07 | 02:18:22 | 00:00:00 | |
| AUTORXJP | 2026-09-04 11:54:24 | 44.31749 | 7.92057 | 138° | 44km/h | 15029m | -25.5m/s | -67.6°C | 7.6% | -1.0hPa | 2.7V | 00:00:00 | 00:00:00 | 00:00:00 | |
| IW2NTF | 2026-09-04 11:54:21 | 44.31799 | 7.91975 | 124° | 44km/h | 15209m | -26.2m/s | -66.2°C | 11.5% | 0hPa | 2.7V | 08:22:17 | 02:18:12 | 00:00:00 | |
| IW2NTF | 2026-09-04 11:54:11 | 44.31863 | 7.91862 | 131° | 35km/h | 15469m | -26.8m/s | -64.9°C | 9.7% | 0hPa | 2.7V | 08:22:27 | 02:18:02 | 00:00:00 | |
| IW2NTF | 2026-09-04 11:54:01 | 44.31908 | 7.91783 | 127° | 18km/h | 15733m | -27.1m/s | -62.3°C | 7.3% | 0hPa | 2.6V | 08:22:37 | 02:17:52 | 00:00:00 | |
| AUTORXJP | 2026-09-04 11:53:53 | 44.31920 | 7.91765 | 130° | 16km/h | 15839m | -26.6m/s | -61.8°C | 3.0% | -1.0hPa | 2.7V | 00:00:00 | 00:00:00 | 00:00:00 | |
| IW2NTF | 2026-09-04 11:53:52 | 44.31934 | 7.91739 | 122° | 18km/h | 16000m | -27.1m/s | -61.8°C | 7.1% | 0hPa | 2.7V | 08:22:47 | 02:17:42 | 00:00:00 | |
| IW2NTF | 2026-09-04 11:53:41 | 44.31963 | 7.91675 | 123° | 26km/h | 16272m | -27.9m/s | -61.5°C | 7% | 0hPa | 2.7V | 08:22:57 | 02:17:32 | 00:00:00 | |
| IW2NTF | 2026-09-04 11:53:31 | 44.31996 | 7.91559 | 104° | 46km/h | 16544m | -28.2m/s | -60.2°C | 5.6% | 0hPa | 2.6V | 08:23:07 | 02:17:22 | 00:00:00 | |
| AUTORXJP | 2026-09-04 11:53:22 | 44.32015 | 7.91476 | 106° | 47km/h | 16681m | -27.3m/s | -60.0°C | 2.0% | -1.0hPa | 2.7V | 00:00:00 | 00:00:00 | 00:00:00 | |
| IW2NTF | 2026-09-04 11:53:21 | 44.32031 | 7.91395 | 106° | 46km/h | 16819m | -28.2m/s | -60.6°C | 5.8% | 0hPa | 2.7V | 08:23:17 | 02:17:12 | 00:00:00 | |
| IW2NTF | 2026-09-04 11:53:11 | 44.32085 | 7.91278 | 139° | 31km/h | 17100m | -29.5m/s | -61.2°C | 6% | 0hPa | 2.7V | 08:23:27 | 02:17:02 | 00:00:00 | |
| IW2NTF | 2026-09-04 11:53:00 | 44.32130 | 7.91210 | 117° | 16km/h | 17384m | -28.1m/s | -60.4°C | 5.5% | 0hPa | 2.6V | 08:23:37 | 02:16:52 | 00:00:00 | |
| IW2NTF | 2026-09-04 11:52:51 | 44.32129 | 7.91155 | 70° | 24km/h | 17675m | -30.5m/s | -60.5°C | 5.6% | 0hPa | 2.7V | 08:23:47 | 02:16:42 | 00:00:00 | |
| AUTORXJP | 2026-09-04 11:52:51 | 44.32134 | 7.91179 | 83° | 16km/h | 17556m | -30.4m/s | -60.2°C | 1.5% | -1.0hPa | 2.6V | 00:00:00 | 00:00:00 | 00:00:00 | |
| IW2NTF | 2026-09-04 11:52:36 | 44.32113 | 7.91052 | 92° | 31km/h | 17976m | -30.3m/s | -61.4°C | 5.6% | 0hPa | 2.6V | 08:23:57 | 02:16:32 | 00:00:00 | |
| IW2NTF | 2026-09-04 11:52:31 | 44.32140 | 7.90958 | 122° | 22km/h | 18279m | -32.3m/s | -60.9°C | 5.8% | 0hPa | 2.7V | 08:24:07 | 02:16:22 | 00:00:00 | |
| AUTORXJP | 2026-09-04 11:52:19 | 44.32156 | 7.90928 | 109° | 11km/h | 18498m | -30.9m/s | -61.2°C | 1.8% | -1.0hPa | 2.6V | 00:00:00 | 00:00:00 | 00:00:00 | |
| IW2NTF | 2026-09-04 11:52:17 | 44.32164 | 7.90915 | 136° | 16km/h | 18587m | -30.5m/s | -60.8°C | 5.9% | 0hPa | 2.6V | 08:24:17 | 02:16:12 | 00:00:00 | |
| IW2NTF | 2026-09-04 11:52:11 | 44.32206 | 7.90895 | 163° | 18km/h | 18899m | -31.7m/s | -58.9°C | 5.3% | 0hPa | 2.6V | 08:24:27 | 02:16:02 | 00:00:00 | |
| IW2NTF | 2026-09-04 11:51:56 | 44.32233 | 7.90889 | 175° | 9km/h | 19209m | -29.2m/s | -58.2°C | 4.9% | 0hPa | 2.6V | 08:24:37 | 02:15:52 | 00:00:00 | |
| IW2NTF | 2026-09-04 11:51:48 | 44.32252 | 7.90909 | 296° | 11km/h | 19487m | -26.4m/s | -57°C | 4.6% | 0hPa | 2.6V | 08:24:47 | 02:15:42 | 00:00:00 | |
| AUTORXJP | 2026-09-04 11:51:48 | 44.32253 | 7.90900 | 256° | 11km/h | 19432m | -28.0m/s | -57.0°C | 1.0% | -1.0hPa | 2.6V | 00:00:00 | 00:00:00 | 00:00:00 | |
| IW2NTF | 2026-09-04 11:51:41 | 44.32218 | 7.90899 | 59° | 27km/h | 19754m | -27m/s | -56.4°C | 4.3% | 0hPa | 2.6V | 08:24:57 | 02:15:32 | 00:00:00 | |
| IW2NTF | 2026-09-04 11:51:28 | 44.32221 | 7.90802 | 124° | 26km/h | 20026m | -28.4m/s | -56°C | 4.3% | 0hPa | 2.6V | 08:25:07 | 02:15:22 | 00:00:00 | |
| IW2NTF | 2026-09-04 11:51:21 | 44.32265 | 7.90763 | 186° | 18km/h | 20305m | -28.5m/s | -56.3°C | 4.8% | 0hPa | 2.7V | 08:25:17 | 02:15:12 | 00:00:00 | |
| AUTORXJP | 2026-09-04 11:51:17 | 44.32265 | 7.90763 | 186° | 18km/h | 20305m | -28.5m/s | -56.3°C | 1.3% | -1.0hPa | 2.7V | 00:00:00 | 00:00:00 | 00:00:00 | |
| IW2NTF | 2026-09-04 11:51:08 | 44.32297 | 7.90765 | 145° | 7km/h | 20597m | -29.7m/s | -54.7°C | 4% | 0hPa | 2.7V | 08:25:27 | 02:15:02 | 00:00:00 | |
| IW2NTF | 2026-09-04 11:51:01 | 44.32304 | 7.90768 | 279° | 7km/h | 20903m | -30.8m/s | -54.3°C | 3.9% | 0hPa | 2.7V | 08:25:37 | 02:14:52 | 00:00:00 | |
| IW2NTF | 2026-09-04 11:50:47 | 44.32285 | 7.90785 | 22° | 9km/h | 21209m | -31.1m/s | -55.5°C | 4.1% | 0hPa | 2.6V | 08:25:47 | 02:14:42 | 00:00:00 | |
| AUTORXJP | 2026-09-04 11:50:46 | 44.32285 | 7.90785 | 22° | 9km/h | 21210m | -31.1m/s | -55.5°C | 1.0% | -1.0hPa | 2.7V | 00:00:00 | 00:00:00 | 00:00:00 | |
| IW2NTF | 2026-09-04 11:50:42 | 44.32285 | 7.90806 | 243° | 18km/h | 21512m | -28.2m/s | -55.6°C | 4.4% | 0hPa | 2.7V | 08:25:57 | 02:14:32 | 00:00:00 | |
| IW2NTF | 2026-09-04 11:50:31 | 44.32312 | 7.90861 | 237° | 20km/h | 21819m | -31.5m/s | -55.7°C | 4.5% | 0hPa | 2.7V | 08:26:07 | 02:14:22 | 00:00:00 | |
| DB0UT-7 | 2026-09-04 11:50:30 | 44.32301 | 7.90840 | 234° | 11km/h | 21694m | -31.1m/s | -55.9°C | 4.6% | 0hPa | 2.6V | 00:00:00 | 00:00:00 | 00:00:00 | |
| IW2NTF | 2026-09-04 11:50:21 | 44.32320 | 7.90880 | 322° | 5km/h | 22135m | -32.8m/s | -54.5°C | 4.1% | 0hPa | 2.6V | 08:26:17 | 02:14:12 | 00:00:00 | |
| AUTORXJP | 2026-09-04 11:50:15 | 44.32319 | 7.90881 | 322° | 5km/h | 22167m | -32.8m/s | -54.3°C | 1.0% | -1.0hPa | 2.7V | 00:00:00 | 00:00:00 | 00:00:00 | |
| IW2NTF | 2026-09-04 11:50:11 | 44.32311 | 7.90899 | 302° | 13km/h | 22478m | -34.4m/s | -53.2°C | 3.6% | 0hPa | 2.7V | 08:26:27 | 02:14:02 | 00:00:00 | |
| IW2NTF | 2026-09-04 11:50:01 | 44.32273 | 7.90917 | 2° | 20km/h | 22821m | -34.9m/s | -52.9°C | 3.5% | 0hPa | 2.6V | 08:26:37 | 02:13:52 | 00:00:00 | |
| DB0UT-7 | 2026-09-04 11:50:00 | 44.32290 | 7.90916 | 350° | 13km/h | 22685m | -34.3m/s | -53.3°C | 3.6% | 0hPa | 2.7V | 00:00:00 | 02:13:56 | 00:00:00 | |
| IW2NTF | 2026-09-04 11:49:51 | 44.32254 | 7.90913 | 294° | 5km/h | 23176m | -35.5m/s | -53.5°C | 3.7% | 0hPa | 2.6V | 08:26:47 | 02:13:42 | 00:00:00 | |
| AUTORXJP | 2026-09-04 11:49:44 | 44.32252 | 7.90918 | 310° | 9km/h | 23248m | -36.0m/s | -53.4°C | 0.9% | -1.0hPa | 2.7V | 00:00:00 | 00:00:00 | 00:00:00 | |
| IW2NTF | 2026-09-04 11:49:41 | 44.32231 | 7.90925 | 20° | 16km/h | 23537m | -35.6m/s | -54°C | 3.9% | 0hPa | 2.7V | 08:26:57 | 02:13:32 | 00:00:00 | |
| DO3MHA-12 | 2026-09-04 11:49:35 | 44.32227 | 7.90922 | 43° | 11km/h | 23574m | -36.4m/s | -53.9°C | 4.1% | 0hPa | 2.6V | 00:00:00 | 02:13:31 | 00:00:00 | |
| IW2NTF | 2026-09-04 11:49:31 | 44.32219 | 7.90873 | 104° | 9km/h | 23913m | -39.6m/s | -52.9°C | 3.9% | 0hPa | 2.6V | 08:27:07 | 02:13:22 | 00:00:00 | |
| DB0UT-7 | 2026-09-04 11:49:30 | 44.32217 | 7.90895 | 80° | 9km/h | 23762m | -38.0m/s | -53.4°C | 3.9% | 0hPa | 2.7V | 00:00:00 | 00:00:00 | 00:00:00 | |
| IW2NTF | 2026-09-04 11:49:21 | 44.32218 | 7.90875 | 303° | 7km/h | 24300m | -38.7m/s | -51.9°C | 3.6% | 0hPa | 2.7V | 08:27:17 | 02:13:12 | 00:00:00 | |
| DO3MHA-12 | 2026-09-04 11:49:13 | 44.32215 | 7.90879 | 319° | 9km/h | 24418m | -40.7m/s | -51.5°C | 3.5% | 0hPa | 2.6V | 00:00:00 | 02:13:09 | 00:00:00 | |
| IW2NTF | 2026-09-04 11:49:11 | 44.32224 | 7.90875 | 173° | 15km/h | 24693m | -37.2m/s | -50.6°C | 3.2% | 0hPa | 2.6V | 08:27:27 | 02:13:02 | 00:00:00 | |
| DO3MHA-12 | 2026-09-04 11:49:03 | 44.32234 | 7.90876 | 204° | 16km/h | 24810m | -38.8m/s | -50.5°C | 3.4% | 0hPa | 2.7V | 00:00:00 | 02:12:59 | 00:00:00 | |
| IW2NTF | 2026-09-04 11:49:01 | 44.32249 | 7.90908 | 256° | 20km/h | 25084m | -39m/s | -50.9°C | 3.6% | 0hPa | 2.7V | 08:27:37 | 02:12:52 | 00:00:00 | |
| DB0UT-7 | 2026-09-04 11:48:55 | 44.32250 | 7.90914 | 256° | 16km/h | 25123m | -38.2m/s | -50.9°C | 3.7% | 0hPa | 2.6V | 00:00:00 | 02:12:51 | 00:00:00 | |
| DO3MHA-12 | 2026-09-04 11:48:53 | 44.32252 | 7.90928 | 262° | 15km/h | 25203m | -41.8m/s | -50.4°C | 3.4% | 0hPa | 2.6V | 00:00:00 | 02:12:49 | 00:00:00 | |
| IW2NTF | 2026-09-04 11:48:51 | 44.32244 | 7.90962 | 332° | 15km/h | 25486m | -40.5m/s | -50.1°C | 3.5% | 0hPa | 2.6V | 08:27:47 | 02:12:42 | 00:00:00 | |
| DO3MHA-12 | 2026-09-04 11:48:42 | 44.32230 | 7.90967 | 352° | 15km/h | 25646m | -41.2m/s | -49.2°C | 3.3% | 0hPa | 2.7V | 00:00:00 | 02:12:38 | 00:00:00 | |
| IW2NTF | 2026-09-04 11:48:41 | 44.32211 | 7.90983 | 295° | 15km/h | 25890m | -41m/s | -48.3°C | 3% | 0hPa | 2.7V | 08:27:57 | 02:12:32 | 00:00:00 | |
| IW2NTF | 2026-09-04 11:48:31 | 44.32188 | 7.91026 | 352° | 15km/h | 26306m | -43.3m/s | -47.9°C | 2.9% | 0hPa | 2.7V | 08:28:07 | 02:12:22 | 00:00:00 | |
| DB0UT-7 | 2026-09-04 11:48:25 | 44.32184 | 7.91026 | 18° | 18km/h | 26350m | -44.0m/s | -47.9°C | 2.8% | 0hPa | 2.6V | 00:00:00 | 00:00:00 | 00:00:00 | |
| IW2NTF | 2026-09-04 11:48:21 | 44.32143 | 7.90991 | 49° | 24km/h | 26741m | -45.2m/s | -48.4°C | 2.9% | 0hPa | 2.6V | 08:28:17 | 02:12:12 | 00:00:00 | |
| IW2NTF | 2026-09-04 11:48:11 | 44.32119 | 7.90943 | 115° | 13km/h | 27185m | -45.3m/s | -48.5°C | 3.2% | 0hPa | 2.7V | 08:28:27 | 02:12:02 | 00:00:00 | |
| AUTORXJP | 2026-09-04 11:48:11 | 44.32125 | 7.90964 | 57° | 15km/h | 26958m | -45.0m/s | -48.9°C | 0.7% | -1.0hPa | 2.6V | 00:00:00 | 00:00:00 | 00:00:00 | |
| DO3MHA-12 | 2026-09-04 11:48:04 | 44.32123 | 7.90933 | 126° | 13km/h | 27277m | -46.2m/s | -48.3°C | 3.2% | 0hPa | 2.6V | 00:00:00 | 02:12:00 | 00:00:00 | |
| IW2NTF | 2026-09-04 11:48:01 | 44.32145 | 7.90902 | 168° | 9km/h | 27646m | -45.7m/s | -47.8°C | 3.1% | 0hPa | 2.6V | 08:28:37 | 02:11:52 | 00:00:00 | |
| DB0UT-7 | 2026-09-04 11:47:55 | 44.32147 | 7.90901 | 172° | 13km/h | 27691m | -45.5m/s | -47.7°C | 3.1% | 0hPa | 2.7V | 00:00:00 | 02:11:51 | 00:00:00 | |
| DO3MHA-12 | 2026-09-04 11:47:54 | 44.32150 | 7.90901 | 201° | 11km/h | 27735m | -45.2m/s | -47.5°C | 3.1% | 0hPa | 2.7V | 00:00:00 | 02:11:50 | 00:00:00 | |
| IW2NTF | 2026-09-04 11:47:52 | 44.32165 | 7.90925 | 253° | 13km/h | 28104m | -49.3m/s | -46.2°C | 2.8% | 0hPa | 2.7V | 08:28:47 | 02:11:42 | 00:00:00 | |
| DO3MHA-12 | 2026-09-04 11:47:44 | 44.32168 | 7.90932 | 240° | 11km/h | 28200m | -46.4m/s | -46.2°C | 2.9% | 0hPa | 2.6V | 00:00:00 | 02:11:40 | 00:00:00 | |
| IW2NTF | 2026-09-04 11:47:41 | 44.32176 | 7.90951 | 228° | 11km/h | 28536m | -41.2m/s | -45.9°C | 3% | 0hPa | 2.6V | 08:28:57 | 02:11:32 | 00:00:00 | |
| AUTORXJP | 2026-09-04 11:47:40 | 44.32171 | 7.90942 | 226° | 5km/h | 28372m | -42.6m/s | -46.5°C | 0.6% | -1.0hPa | 2.7V | 00:00:00 | 00:00:00 | 00:00:00 | |
| IW2NTF | 2026-09-04 11:47:31 | 44.32153 | 7.91004 | 331° | 24km/h | 28973m | -44.1m/s | -43.9°C | 2.6% | 0hPa | 2.7V | 08:29:07 | 02:11:22 | 00:00:00 | |
| DB0UT-7 | 2026-09-04 11:47:25 | 44.32148 | 7.91008 | 329° | 13km/h | 29017m | -43.8m/s | -43.3°C | 2.6% | 0hPa | 2.7V | 00:00:00 | 00:00:00 | 00:00:00 | |
| IW2NTF | 2026-09-04 11:47:20 | 44.32122 | 7.91031 | 292° | 11km/h | 29426m | -49.5m/s | -43°C | 2.5% | 0hPa | 2.7V | 08:29:17 | 02:11:12 | 00:00:00 | |
| IW2NTF | 2026-09-04 11:47:12 | 44.32094 | 7.91068 | 346° | 11km/h | 29916m | -49m/s | -42°C | 2.3% | 0hPa | 2.6V | 08:29:27 | 02:11:02 | 00:00:00 | |
| AUTORXJP | 2026-09-04 11:47:09 | 44.32100 | 7.91064 | 327° | 15km/h | 29822m | -47.3m/s | -42.1°C | 0.4% | -1.0hPa | 2.6V | 00:00:00 | 00:00:00 | 00:00:00 | |
| DO3MHA-12 | 2026-09-04 11:47:06 | 44.32094 | 7.91068 | 347° | 7km/h | 29916m | -48.9m/s | -42.0°C | 2.3% | 0hPa | 2.6V | 00:00:00 | 02:11:02 | 08:30:00 | |
| IW2NTF | 2026-09-04 11:47:00 | 44.32086 | 7.91063 | 201° | 11km/h | 30391m | -50.5m/s | -40.7°C | 2.1% | 0hPa | 2.7V | 08:30:00 | 02:10:52 | 00:00:00 | |
| DB0UT-7 | 2026-09-04 11:46:55 | 44.32088 | 7.91065 | 223° | 11km/h | 30441m | -50.9m/s | -40.7°C | 2.1% | 0hPa | 2.7V | 00:00:00 | 02:10:51 | 08:30:00 | |
| IW2NTF | 2026-09-04 11:46:50 | 44.32094 | 7.91088 | 300° | 9km/h | 30832m | -38.7m/s | -40.3°C | 2.1% | 0hPa | 2.6V | 08:30:00 | 02:10:42 | 00:00:00 | |
| IW2NTF | 2026-09-04 11:46:40 | 44.32068 | 7.91074 | 39° | 16km/h | 31165m | -30.8m/s | -40.2°C | 2% | 0hPa | 2.7V | 08:30:00 | 02:10:32 | 00:00:00 | |
| AUTORXJP | 2026-09-04 11:46:38 | 44.32068 | 7.91074 | 39° | 15km/h | 31165m | -30.8m/s | -40.2°C | 0.3% | -1.0hPa | 2.6V | 00:00:00 | 00:00:00 | 00:00:00 | |
| OE5DXL-15 | 2026-09-04 11:46:34 | 44.32064 | 7.91068 | 52° | 9km/h | 31228m | -33.0m/s | -40.3°C | 2.1% | 0hPa | 2.6V | 00:00:00 | 00:00:00 | 00:00:00 | |
| IW2NTF | 2026-09-04 11:46:30 | 44.32072 | 7.91044 | 92° | 22km/h | 31451m | -28.1m/s | -39.7°C | 2% | 0hPa | 2.6V | 08:30:00 | 02:10:22 | 00:00:00 | |
| DB0UT-7 | 2026-09-04 11:46:25 | 44.32072 | 7.91036 | 83° | 20km/h | 31479m | -28.2m/s | -39.5°C | 1.9% | 0hPa | 2.7V | 00:00:00 | 00:00:00 | 00:00:00 | |
| IW2NTF | 2026-09-04 11:46:18 | 44.32078 | 7.91029 | 234° | 27km/h | 31758m | -32.6m/s | -39.7°C | 2.2% | 0hPa | 2.7V | 08:30:00 | 02:10:12 | 00:00:00 | |
| IW2NTF | 2026-09-04 11:46:11 | 44.32041 | 7.90991 | 50° | 57km/h | 32015m | -37.2m/s | -40.4°C | 2.2% | 0hPa | 2.7V | 08:30:00 | 02:10:02 | 00:00:00 | |
| AUTORXJP | 2026-09-04 11:46:06 | 44.32041 | 7.90991 | 50° | 57km/h | 32015m | -37.2m/s | -40.4°C | 0.6% | -1.0hPa | 2.6V | 00:00:00 | 00:00:00 | 00:00:00 | |
| OE5DXL-15 | 2026-09-04 11:46:04 | 44.32034 | 7.90985 | 267° | 13km/h | 32102m | -44.9m/s | -40.3°C | 1.8% | 0hPa | 2.6V | 00:00:00 | 00:00:00 | 00:00:00 | |
| IW2NTF | 2026-09-04 11:45:58 | 44.32048 | 7.91009 | 193° | 20km/h | 32220m | 6.4m/s | -40.2°C | 2.1% | 0hPa | 2.6V | 08:30:00 | 02:09:52 | 00:00:00 | |
| DO3MHA-12 | 2026-09-04 11:45:55 | 44.32053 | 7.91010 | 183° | 15km/h | 32214m | 5.5m/s | -40.1°C | 2.4% | 0hPa | 2.7V | 00:00:00 | 02:09:51 | 00:00:00 | |
| DB0UT-7 | 2026-09-04 11:45:54 | 44.32059 | 7.91010 | 179° | 15km/h | 32209m | 5.1m/s | -40.1°C | 2.4% | 0hPa | 2.7V | 00:00:00 | 02:09:50 | 00:00:00 | |
| IW2NTF | 2026-09-04 11:45:51 | 44.32056 | 7.91000 | 28° | 15km/h | 32162m | 5m/s | -40.4°C | 2.4% | 0hPa | 2.7V | 08:30:00 | 02:09:42 | 00:00:00 | |
| DO3MHA-12 | 2026-09-04 11:45:44 | 44.32051 | 7.90997 | 356° | 15km/h | 32150m | 6.3m/s | -40.3°C | 2.0% | 0hPa | 2.6V | 00:00:00 | 02:09:40 | 00:00:00 | |
| IW2NTF | 2026-09-04 11:45:38 | 44.32068 | 7.90972 | 92° | 18km/h | 32105m | 6.1m/s | -40.6°C | 2% | 0hPa | 2.6V | 08:30:00 | 02:09:32 | 00:00:00 | |
| AUTORXJP | 2026-09-04 11:45:36 | 44.32067 | 7.90966 | 58° | 15km/h | 32098m | 6.5m/s | -40.6°C | 0.6% | -1.0hPa | 2.7V | 00:00:00 | 00:00:00 | 00:00:00 | |
| DO3MHA-12 | 2026-09-04 11:45:34 | 44.32060 | 7.90959 | 20° | 15km/h | 32086m | 5.8m/s | -40.6°C | 2.4% | 0hPa | 2.7V | 00:00:00 | 02:09:29 | 00:00:00 | |
| IW2NTF | 2026-09-04 11:45:31 | 44.32047 | 7.90937 | 154° | 11km/h | 32043m | 5.9m/s | -40.4°C | 2.4% | 0hPa | 2.7V | 08:30:00 | 02:09:22 | 00:00:00 | |
| DB0UT-7 | 2026-09-04 11:45:25 | 44.32052 | 7.90932 | 133° | 16km/h | 32033m | 5.0m/s | -40.4°C | 1.9% | 0hPa | 2.7V | 00:00:00 | 00:00:00 | 00:00:00 | |
| DO3MHA-12 | 2026-09-04 11:45:23 | 44.32054 | 7.90927 | 108° | 13km/h | 32028m | 6.0m/s | -40.5°C | 2.1% | 0hPa | 2.6V | 00:00:00 | 02:09:19 | 00:00:00 | |
| IW2NTF | 2026-09-04 11:45:18 | 44.32023 | 7.90901 | 348° | 20km/h | 31987m | 4.1m/s | -40.6°C | 2.1% | 0hPa | 2.6V | 08:30:00 | 02:09:12 | 00:00:00 | |
| DO3MHA-12 | 2026-09-04 11:45:13 | 44.32018 | 7.90899 | 123° | 18km/h | 31970m | 7.0m/s | -40.4°C | 2.3% | 0hPa | 2.7V | 00:00:00 | 02:09:09 | 00:00:00 | |
| IW2NTF | 2026-09-04 11:45:11 | 44.32027 | 7.90876 | 355° | 13km/h | 31928m | 5.4m/s | -40°C | 1.8% | 0hPa | 2.7V | 08:30:00 | 02:09:02 | 00:00:00 | |
| AUTORXJP | 2026-09-04 11:45:04 | 44.32019 | 7.90876 | 10° | 20km/h | 31917m | 6.0m/s | -40.1°C | 0.3% | -1.0hPa | 2.7V | 00:00:00 | 00:00:00 | 00:00:00 | |
| DO3MHA-12 | 2026-09-04 11:45:02 | 44.32008 | 7.90869 | 33° | 26km/h | 31905m | 5.7m/s | -40.1°C | 2.4% | 0hPa | 2.7V | 00:00:00 | 02:08:58 | 00:00:00 | |
| IW2NTF | 2026-09-04 11:44:58 | 44.31993 | 7.90850 | 218° | 7km/h | 31870m | 5.7m/s | -39.8°C | 2.4% | 0hPa | 2.7V | 08:30:00 | 02:08:52 | 00:00:00 | |
| DB0UT-7 | 2026-09-04 11:44:54 | 44.31998 | 7.90854 | 197° | 15km/h | 31858m | 6.7m/s | -39.7°C | 1.9% | 0hPa | 2.6V | 00:00:00 | 02:08:50 | 00:00:00 | |
| DO3MHA-12 | 2026-09-04 11:44:52 | 44.32006 | 7.90856 | 188° | 13km/h | 31847m | 3.9m/s | -39.6°C | 1.8% | 0hPa | 2.6V | 00:00:00 | 02:08:48 | 00:00:00 | |
| IW2NTF | 2026-09-04 11:44:51 | 44.31988 | 7.90853 | 28° | 24km/h | 31811m | 6.1m/s | -39.7°C | 1.9% | 0hPa | 2.6V | 08:30:00 | 02:08:42 | 00:00:00 | |
| DO3MHA-12 | 2026-09-04 11:44:42 | 44.31982 | 7.90838 | 172° | 7km/h | 31790m | 6.3m/s | -39.6°C | 2.2% | 0hPa | 2.7V | 00:00:00 | 02:08:38 | 00:00:00 | |
| IW2NTF | 2026-09-04 11:44:38 | 44.31998 | 7.90862 | 214° | 7km/h | 31754m | 6m/s | -39.5°C | 2.2% | 0hPa | 2.7V | 08:30:00 | 02:08:32 | 00:00:00 | |
| AUTORXJP | 2026-09-04 11:44:33 | 44.31998 | 7.90857 | 52° | 15km/h | 31738m | 5.9m/s | -39.9°C | 0.1% | -1.0hPa | 2.7V | 00:00:00 | 00:00:00 | 00:00:00 | |
| IW2NTF | 2026-09-04 11:44:31 | 44.31990 | 7.90851 | 189° | 20km/h | 31697m | 6.8m/s | -39.5°C | 2.2% | 0hPa | 2.7V | 08:30:00 | 02:08:22 | 00:00:00 | |
| OE5DXL-15 | 2026-09-04 11:44:30 | 44.31988 | 7.90848 | 7° | 11km/h | 31721m | 4.2m/s | 0°C | 0% | 0hPa | 2.6V | 00:00:00 | 00:00:00 | 00:00:00 | |
| DO3MHA-12 | 2026-09-04 11:44:28 | 44.31984 | 7.90849 | 236° | 13km/h | 31711m | 5.7m/s | -39.6°C | 1.9% | 0hPa | 2.6V | 00:00:00 | 02:08:24 | 08:30:00 | |
| DB0UT-7 | 2026-09-04 11:44:24 | 44.32002 | 7.90853 | 188° | 16km/h | 31687m | 4.3m/s | -39.3°C | 1.9% | 0hPa | 2.6V | 00:00:00 | 00:00:00 | 00:00:00 | |
| IW2NTF | 2026-09-04 11:44:21 | 44.32001 | 7.90856 | 59° | 20km/h | 31640m | 6.2m/s | -39.6°C | 2% | 0hPa | 2.6V | 08:30:00 | 02:08:12 | 00:00:00 | |
| DO3MHA-12 | 2026-09-04 11:44:18 | 44.32008 | 7.90863 | 11° | 18km/h | 31653m | 5.3m/s | -39.3°C | 2.3% | 0hPa | 2.7V | 00:00:00 | 02:08:14 | 00:00:00 | |
| IW2NTF | 2026-09-04 11:44:11 | 44.32024 | 7.90838 | 115° | 9km/h | 31583m | 6.1m/s | -39.6°C | 2.2% | 0hPa | 2.7V | 08:30:00 | 02:08:02 | 00:00:00 | |
| DO3MHA-12 | 2026-09-04 11:44:08 | 44.32020 | 7.90840 | 198° | 13km/h | 31595m | 5.6m/s | -39.6°C | 1.9% | 0hPa | 2.6V | 00:00:00 | 02:08:04 | 00:00:00 | |
| AUTORXJP | 2026-09-04 11:44:02 | 44.32021 | 7.90815 | 63° | 18km/h | 31557m | 6.1m/s | -39.7°C | 0.4% | -1.0hPa | 2.6V | 00:00:00 | 00:00:00 | 00:00:00 | |
| IW2NTF | 2026-09-04 11:44:01 | 44.32016 | 7.90784 | 115° | 11km/h | 31522m | 5.5m/s | -39.9°C | 1.9% | 0hPa | 2.6V | 08:30:00 | 02:07:52 | 00:00:00 | |
| DO3MHA-12 | 2026-09-04 11:43:58 | 44.32014 | 7.90793 | 88° | 15km/h | 31534m | 6.7m/s | -39.6°C | 2.3% | 0hPa | 2.7V | 00:00:00 | 02:07:54 | 00:00:00 | |
| DB0UT-7 | 2026-09-04 11:43:54 | 44.32017 | 7.90781 | 171° | 9km/h | 31510m | 5.7m/s | -40.0°C | 2.1% | 0hPa | 2.7V | 00:00:00 | 02:07:50 | 00:00:00 | |
| IW2NTF | 2026-09-04 11:43:51 | 44.32011 | 7.90738 | 72° | 20km/h | 31463m | 6.2m/s | -41°C | 2.5% | 0hPa | 2.6V | 08:30:00 | 02:07:42 | 00:00:00 | |
| IW2NTF | 2026-09-04 11:43:41 | 44.32026 | 7.90683 | 107° | 13km/h | 31406m | 6.5m/s | -40.8°C | 1.9% | 0hPa | 2.6V | 08:30:00 | 02:07:32 | 00:00:00 | |
| OE5DXL-15 | 2026-09-04 11:43:34 | 44.32026 | 7.90677 | 51° | 11km/h | 31394m | 5.1m/s | 0°C | 0% | 0hPa | 2.7V | 00:00:00 | 00:00:00 | 00:00:00 | |
| IW2NTF | 2026-09-04 11:43:31 | 44.32014 | 7.90650 | 160° | 5km/h | 31344m | 5.6m/s | -40.8°C | 2.5% | 0hPa | 2.7V | 08:30:00 | 02:07:22 | 00:00:00 | |
| DB0UT-7 | 2026-09-04 11:43:23 | 44.32019 | 7.90647 | 111° | 13km/h | 31329m | 6.3m/s | -40.8°C | 2.1% | 0hPa | 2.6V | 00:00:00 | 00:00:00 | 00:00:00 | |
| IW2NTF | 2026-09-04 11:43:21 | 44.32000 | 7.90624 | 359° | 15km/h | 31286m | 5.5m/s | -40.7°C | 2.6% | 0hPa | 2.6V | 08:30:00 | 02:07:12 | 00:00:00 | |
| IW2NTF | 2026-09-04 11:43:11 | 44.31979 | 7.90614 | 35° | 18km/h | 31225m | 6.7m/s | -40.6°C | 1.9% | 0hPa | 2.7V | 08:30:00 | 02:07:02 | 00:00:00 | |
| OE5DXL-15 | 2026-09-04 11:43:04 | 44.31969 | 7.90605 | 26° | 15km/h | 31214m | 4.8m/s | 0°C | 0% | 0hPa | 2.6V | 00:00:00 | 00:00:00 | 00:00:00 | |
| IW2NTF | 2026-09-04 11:43:01 | 44.31943 | 7.90610 | 62° | 4km/h | 31165m | 5.9m/s | -40.3°C | 2.2% | 0hPa | 2.6V | 08:30:00 | 02:06:52 | 00:00:00 | |
| AUTORXJP | 2026-09-04 11:43:00 | 44.31949 | 7.90605 | 325° | 15km/h | 31190m | 5.1m/s | -40.1°C | 0.6% | -1.0hPa | 2.6V | 00:00:00 | 00:00:00 | 00:00:00 | |
| DB0UT-7 | 2026-09-04 11:42:53 | 44.31940 | 7.90606 | 3° | 15km/h | 31148m | 5.9m/s | -40.4°C | 2.1% | 0hPa | 2.6V | 00:00:00 | 02:06:49 | 00:00:00 | |
| IW2NTF | 2026-09-04 11:42:51 | 44.31907 | 7.90603 | 351° | 22km/h | 31106m | 6.5m/s | -40.7°C | 1.9% | 0hPa | 2.6V | 08:30:00 | 02:06:42 | 00:00:00 | |
| IW2NTF | 2026-09-04 11:42:41 | 44.31891 | 7.90607 | 354° | 5km/h | 31046m | 6.4m/s | -40.9°C | 2.5% | 0hPa | 2.7V | 08:30:00 | 02:06:32 | 00:00:00 | |
| OE5DXL-15 | 2026-09-04 11:42:34 | 44.31887 | 7.90612 | 311° | 15km/h | 31034m | 5.5m/s | 0°C | 0% | 0hPa | 2.6V | 00:00:00 | 00:00:00 | 00:00:00 | |
| IW2NTF | 2026-09-04 11:42:31 | 44.31864 | 7.90645 | 258° | 11km/h | 30986m | 5.3m/s | -40.8°C | 2.2% | 0hPa | 2.6V | 08:30:00 | 02:06:22 | 00:00:00 | |
| AUTORXJP | 2026-09-04 11:42:29 | 44.31868 | 7.90635 | 325° | 15km/h | 31005m | 5.4m/s | -41.0°C | 0.7% | -1.0hPa | 2.7V | 00:00:00 | 00:00:00 | 00:00:00 | |
| DB0UT-7 | 2026-09-04 11:42:23 | 44.31867 | 7.90652 | 202° | 15km/h | 30970m | 7.1m/s | -40.8°C | 2.0% | 0hPa | 2.7V | 00:00:00 | 00:00:00 | 08:30:00 | |
| IW2NTF | 2026-09-04 11:42:21 | 44.31866 | 7.90676 | 271° | 27km/h | 30927m | 5.1m/s | -41°C | 1.9% | 0hPa | 2.7V | 08:30:00 | 02:06:12 | 00:00:00 | |
| IW2NTF | 2026-09-04 11:42:11 | 44.31876 | 7.90710 | 234° | 18km/h | 30870m | 5.4m/s | -41.1°C | 2.4% | 0hPa | 2.7V | 08:30:00 | 02:06:02 | 00:00:00 | |
| OE5DXL-15 | 2026-09-04 11:42:04 | 44.31882 | 7.90722 | 232° | 13km/h | 30859m | 6.2m/s | 0°C | 0% | 0hPa | 2.6V | 00:00:00 | 02:06:00 | 00:00:00 | |
| IW2NTF | 2026-09-04 11:42:01 | 44.31920 | 7.90763 | 217° | 13km/h | 30813m | 7.1m/s | -41.3°C | 2.1% | 0hPa | 2.6V | 08:30:00 | 02:05:52 | 00:00:00 | |
| AUTORXJP | 2026-09-04 11:41:58 | 44.31912 | 7.90755 | 215° | 26km/h | 30825m | 4.6m/s | -41.2°C | 0.3% | -1.0hPa | 2.6V | 00:00:00 | 00:00:00 | 00:00:00 | |
| DB0UT-7 | 2026-09-04 11:41:53 | 44.31923 | 7.90764 | 146° | 13km/h | 30795m | 5.3m/s | -41.2°C | 2.3% | 0hPa | 2.6V | 00:00:00 | 02:05:49 | 00:00:00 | |
| IW2NTF | 2026-09-04 11:41:51 | 44.31952 | 7.90780 | 231° | 22km/h | 30754m | 6.4m/s | -41.3°C | 2.2% | 0hPa | 2.6V | 08:30:00 | 02:05:42 | 00:00:00 | |
| IW2NTF | 2026-09-04 11:41:41 | 44.31963 | 7.90801 | 164° | 5km/h | 30696m | 6m/s | -41.6°C | 2.4% | 0hPa | 2.7V | 08:30:00 | 02:05:32 | 00:00:00 | |
| IW2NTF | 2026-09-04 11:41:31 | 44.31989 | 7.90832 | 226° | 11km/h | 30639m | 6m/s | -41.8°C | 2.7% | 0hPa | 2.6V | 08:30:00 | 02:05:22 | 00:00:00 | |
| AUTORXJP | 2026-09-04 11:41:27 | 44.31989 | 7.90832 | 226° | 11km/h | 30639m | 6.0m/s | -41.8°C | 0.8% | -1.0hPa | 2.7V | 00:00:00 | 00:00:00 | 00:00:00 | |
| DB0UT-7 | 2026-09-04 11:41:23 | 44.31997 | 7.90839 | 201° | 7km/h | 30624m | 4.8m/s | -41.7°C | 2.5% | 0hPa | 2.7V | 00:00:00 | 00:00:00 | 00:00:00 | |
| IW2NTF | 2026-09-04 11:41:21 | 44.32004 | 7.90847 | 226° | 15km/h | 30582m | 5m/s | -42.1°C | 2.3% | 0hPa | 2.7V | 08:30:00 | 02:05:12 | 00:00:00 | |
| IW2NTF | 2026-09-04 11:41:11 | 44.32006 | 7.90866 | 182° | 4km/h | 30527m | 5.1m/s | -42.1°C | 2.4% | 0hPa | 2.7V | 08:30:00 | 02:05:02 | 00:00:00 | |
| IW2NTF | 2026-09-04 11:41:01 | 44.32004 | 7.90883 | 276° | 4km/h | 30472m | 5.5m/s | -42.2°C | 2.6% | 0hPa | 2.6V | 08:30:00 | 02:04:52 | 00:00:00 | |
| AUTORXJP | 2026-09-04 11:40:56 | 44.32003 | 7.90883 | 25° | 5km/h | 30467m | 6.9m/s | -42.1°C | 0.6% | -1.0hPa | 2.7V | 00:00:00 | 00:00:00 | 00:00:00 | |
| DB0UT-7 | 2026-09-04 11:40:53 | 44.31999 | 7.90878 | 43° | 13km/h | 30454m | 5.7m/s | -42.0°C | 2.2% | 0hPa | 2.7V | 00:00:00 | 02:04:49 | 00:00:00 | |
| IW2NTF | 2026-09-04 11:40:51 | 44.31986 | 7.90863 | 354° | 9km/h | 30414m | 6.2m/s | -41.8°C | 2.1% | 0hPa | 2.7V | 08:30:00 | 02:04:42 | 00:00:00 | |
| OE5DXL-15 | 2026-09-04 11:40:50 | 44.31992 | 7.90867 | 55° | 7km/h | 30437m | 4.9m/s | 0°C | 0% | 0hPa | 2.7V | 00:00:00 | 00:00:00 | 00:00:00 | |
| IW2NTF | 2026-09-04 11:40:41 | 44.31967 | 7.90866 | 35° | 22km/h | 30358m | 4.7m/s | -41.9°C | 2.5% | 0hPa | 2.7V | 08:30:00 | 02:04:32 | 00:00:00 | |
| IW2NTF | 2026-09-04 11:40:31 | 44.31939 | 7.90890 | 328° | 18km/h | 30302m | 5.7m/s | -42.2°C | 2.4% | 0hPa | 2.7V | 08:30:00 | 02:04:22 | 00:00:00 | |
| AUTORXJP | 2026-09-04 11:40:25 | 44.31931 | 7.90896 | 336° | 11km/h | 30290m | 5.9m/s | -42.4°C | 0.2% | -1.0hPa | 2.6V | 00:00:00 | 00:00:00 | 00:00:00 | |
| DB0UT-7 | 2026-09-04 11:40:23 | 44.31928 | 7.90897 | 345° | 16km/h | 30286m | 4.7m/s | -42.4°C | 2.2% | 0hPa | 2.6V | 00:00:00 | 00:00:00 | 00:00:00 | |
| IW2NTF | 2026-09-04 11:40:21 | 44.31900 | 7.90905 | 314° | 18km/h | 30247m | 6.5m/s | -42.6°C | 2.2% | 0hPa | 2.6V | 08:30:00 | 02:04:12 | 00:00:00 | |
| IW2NTF | 2026-09-04 11:40:11 | 44.31872 | 7.90930 | 34° | 7km/h | 30192m | 6.1m/s | -42.8°C | 2.4% | 0hPa | 2.7V | 08:30:00 | 02:04:02 | 00:00:00 | |
| IW2NTF | 2026-09-04 11:39:59 | 44.31842 | 7.90979 | 352° | 24km/h | 30126m | 5.9m/s | -43.2°C | 2.3% | 0hPa | 2.6V | 08:30:00 | 02:03:50 | 00:00:00 | |
| AUTORXJP | 2026-09-04 11:39:54 | 44.31837 | 7.90979 | 5° | 22km/h | 30120m | 4.7m/s | -43.1°C | 0.4% | -1.0hPa | 2.7V | 00:00:00 | 00:00:00 | 00:00:00 | |
| DB0UT-7 | 2026-09-04 11:39:53 | 44.31836 | 7.90979 | 6° | 22km/h | 30121m | 4.7m/s | -43.1°C | 2.3% | 0hPa | 2.7V | 00:00:00 | 02:03:49 | 00:00:00 | |
| IW2NTF | 2026-09-04 11:39:49 | 44.31814 | 7.91013 | 307° | 27km/h | 30070m | 5.4m/s | -43.3°C | 2.4% | 0hPa | 2.7V | 08:30:00 | 02:03:40 | 00:00:00 | |
| DO3MHA-12 | 2026-09-04 11:39:46 | 44.31820 | 7.90997 | 290° | 27km/h | 30082m | 6.5m/s | -43.3°C | 2.6% | 0hPa | 2.6V | 00:00:00 | 02:03:42 | 00:00:00 | |
| IW2NTF | 2026-09-04 11:39:39 | 44.31778 | 7.91051 | 290° | 16km/h | 30014m | 6.5m/s | -43.6°C | 2.7% | 0hPa | 2.6V | 08:30:00 | 02:03:30 | 00:00:00 | |
| IW2NTF | 2026-09-04 11:39:29 | 44.31753 | 7.91146 | 295° | 13km/h | 29958m | 5.1m/s | -43.4°C | 2.4% | 0hPa | 2.6V | 08:30:00 | 02:03:20 | 00:00:00 | |
| AUTORXJP | 2026-09-04 11:39:23 | 44.31750 | 7.91152 | 329° | 9km/h | 29946m | 6.6m/s | -43.4°C | 0.6% | -1.0hPa | 2.6V | 00:00:00 | 00:00:00 | 00:00:00 | |
| IW2NTF | 2026-09-04 11:39:20 | 44.31738 | 7.91194 | 296° | 26km/h | 29900m | 6.2m/s | -43.4°C | 2.4% | 0hPa | 2.6V | 08:30:00 | 02:03:10 | 00:00:00 | |
| IW2NTF | 2026-09-04 11:39:09 | 44.31715 | 7.91230 | 317° | 13km/h | 29844m | 5.1m/s | -43.6°C | 2.2% | 0hPa | 2.7V | 08:30:00 | 02:03:00 | 00:00:00 | |
| IW2NTF | 2026-09-04 11:38:59 | 44.31700 | 7.91260 | 334° | 13km/h | 29789m | 4.9m/s | -43.8°C | 2.8% | 0hPa | 2.7V | 08:30:00 | 02:02:50 | 00:00:00 | |
| AUTORXJP | 2026-09-04 11:38:52 | 44.31698 | 7.91269 | 240° | 11km/h | 29773m | 5.1m/s | -43.8°C | 0.3% | -1.0hPa | 2.7V | 00:00:00 | 00:00:00 | 00:00:00 | |
| IW2NTF | 2026-09-04 11:38:49 | 44.31689 | 7.91282 | 340° | 24km/h | 29734m | 6m/s | -43.8°C | 2.6% | 0hPa | 2.7V | 08:30:00 | 02:02:40 | 00:00:00 | |
| IW2NTF | 2026-09-04 11:38:39 | 44.31659 | 7.91305 | 10° | 9km/h | 29677m | 6.4m/s | -44.2°C | 2.9% | 0hPa | 2.6V | 08:30:00 | 02:02:30 | 00:00:00 | |
| IW2NTF | 2026-09-04 11:38:29 | 44.31608 | 7.91331 | 351° | 18km/h | 29619m | 5m/s | -44.3°C | 2.5% | 0hPa | 2.6V | 08:30:00 | 02:02:20 | 00:00:00 | |
| DB0UT-7 | 2026-09-04 11:38:23 | 44.31603 | 7.91331 | 7° | 29km/h | 29613m | 5.4m/s | -44.2°C | 2.7% | 0hPa | 2.7V | 00:00:00 | 00:00:00 | 00:00:00 | |
| AUTORXJP | 2026-09-04 11:38:20 | 44.31589 | 7.91322 | 30° | 22km/h | 29596m | 5.1m/s | -44.2°C | 0.4% | -1.0hPa | 2.7V | 00:00:00 | 00:00:00 | 00:00:00 | |
| IW2NTF | 2026-09-04 11:38:19 | 44.31554 | 7.91329 | 332° | 37km/h | 29560m | 6.6m/s | -43.9°C | 2.5% | 0hPa | 2.7V | 08:30:00 | 02:02:10 | 00:00:00 | |
| IW2NTF | 2026-09-04 11:38:09 | 44.31484 | 7.91352 | 12° | 29km/h | 29503m | 6.2m/s | -44.1°C | 2.4% | 0hPa | 2.6V | 08:30:00 | 02:02:00 | 00:00:00 | |
| IW2NTF | 2026-09-04 11:37:59 | 44.31406 | 7.91392 | 330° | 35km/h | 29446m | 5.2m/s | -43.9°C | 2.7% | 0hPa | 2.7V | 08:30:00 | 02:01:50 | 00:00:00 | |
| DB0UT-7 | 2026-09-04 11:37:53 | 44.31398 | 7.91398 | 334° | 35km/h | 29440m | 6.3m/s | -43.9°C | 2.7% | 0hPa | 2.7V | 00:00:00 | 02:01:49 | 08:30:00 | |
| DO3MHA-12 | 2026-09-04 11:37:51 | 44.31384 | 7.91407 | 338° | 33km/h | 29428m | 5.3m/s | -44.0°C | 2.2% | 0hPa | 2.7V | 00:00:00 | 02:01:47 | 00:00:00 | |
| IW2NTF | 2026-09-04 11:37:49 | 44.31333 | 7.91422 | 331° | 33km/h | 29387m | 7.3m/s | -44.2°C | 2.7% | 0hPa | 2.7V | 08:30:00 | 02:01:40 | 00:00:00 | |
| DO3MHA-12 | 2026-09-04 11:37:38 | 44.31292 | 7.91472 | 339° | 35km/h | 29352m | 5.7m/s | -43.9°C | 2.7% | 0hPa | 2.7V | 00:00:00 | 02:01:34 | 00:00:00 | |
| IW2NTF | 2026-09-04 11:37:35 | 44.31258 | 7.91484 | 340° | 33km/h | 29328m | 6.2m/s | -43.7°C | 2.7% | 0hPa | 2.7V | 08:30:00 | 02:01:30 | 00:00:00 | |
| IW2NTF | 2026-09-04 11:37:28 | 44.31184 | 7.91555 | 323° | 37km/h | 29269m | 5.9m/s | -43.4°C | 2.6% | 0hPa | 2.6V | 08:30:00 | 02:01:20 | 00:00:00 | |
| DO3MHA-12 | 2026-09-04 11:37:28 | 44.31213 | 7.91517 | 322° | 35km/h | 29293m | 6.3m/s | -43.6°C | 2.7% | 0hPa | 2.6V | 00:00:00 | 02:01:24 | 00:00:00 | |
| DB0UT-7 | 2026-09-04 11:37:23 | 44.31177 | 7.91561 | 337° | 24km/h | 29263m | 6.8m/s | -43.4°C | 2.6% | 0hPa | 2.6V | 00:00:00 | 00:00:00 | 00:00:00 | |
| IW2NTF | 2026-09-04 11:37:18 | 44.31115 | 7.91593 | 324° | 37km/h | 29208m | 6.1m/s | -43.4°C | 2.3% | 0hPa | 2.6V | 08:30:00 | 02:01:10 | 00:00:00 | |
| DO3MHA-12 | 2026-09-04 11:37:18 | 44.31141 | 7.91568 | 339° | 27km/h | 29233m | 6.0m/s | -43.1°C | 2.6% | 0hPa | 2.7V | 00:00:00 | 02:01:14 | 00:00:00 | |
| IW2NTF | 2026-09-04 11:37:08 | 44.31061 | 7.91651 | 344° | 27km/h | 29149m | 5.7m/s | -43.3°C | 2% | 0hPa | 2.7V | 08:30:00 | 02:01:00 | 00:00:00 | |
| DO3MHA-12 | 2026-09-04 11:37:08 | 44.31081 | 7.91635 | 307° | 11km/h | 29174m | 5.0m/s | -43.1°C | 2.3% | 0hPa | 2.6V | 00:00:00 | 02:01:04 | 08:30:00 | |
| IW2NTF | 2026-09-04 11:36:57 | 44.31030 | 7.91671 | 229° | 4km/h | 29088m | 7m/s | -43.7°C | 2.4% | 0hPa | 2.6V | 08:30:00 | 02:00:50 | 00:00:00 | |
| DO3MHA-12 | 2026-09-04 11:36:53 | 44.31030 | 7.91673 | 242° | 7km/h | 29082m | 5.3m/s | -43.7°C | 2.3% | 0hPa | 2.7V | 00:00:00 | 02:00:49 | 00:00:00 | |
| IW2NTF | 2026-09-04 11:36:47 | 44.31007 | 7.91695 | 309° | 7km/h | 29030m | 5.7m/s | -44.2°C | 2.4% | 0hPa | 2.7V | 08:30:00 | 02:00:40 | 00:00:00 | |
| AUTORXJP | 2026-09-04 11:36:47 | 44.31012 | 7.91689 | 321° | 15km/h | 29041m | 5.5m/s | -44.2°C | 0.6% | -1.0hPa | 2.7V | 00:00:00 | 00:00:00 | 00:00:00 | |
| IW2NTF | 2026-09-04 11:36:37 | 44.31009 | 7.91688 | 0° | 5km/h | 28969m | 6m/s | -44.7°C | 2.9% | 0hPa | 2.7V | 08:30:00 | 02:00:30 | 00:00:00 | |
| DO3MHA-12 | 2026-09-04 11:36:28 | 44.30996 | 7.91697 | 321° | 7km/h | 28933m | 5.6m/s | -44.9°C | 2.4% | 0hPa | 2.6V | 00:00:00 | 02:00:24 | 00:00:00 | |
| IW2NTF | 2026-09-04 11:36:27 | 44.30991 | 7.91693 | 62° | 5km/h | 28909m | 6.3m/s | -44.9°C | 2.9% | 0hPa | 2.7V | 08:30:00 | 02:00:20 | 00:00:00 | |
| DB0UT-7 | 2026-09-04 11:36:23 | 44.30990 | 7.91692 | 68° | 7km/h | 28903m | 6.6m/s | -44.8°C | 3.0% | 0hPa | 2.7V | 00:00:00 | 00:00:00 | 00:00:00 | |
| IW2NTF | 2026-09-04 11:36:17 | 44.30981 | 7.91709 | 287° | 9km/h | 28849m | 4.7m/s | -45.5°C | 2.8% | 0hPa | 2.7V | 08:30:00 | 02:00:10 | 00:00:00 | |
| AUTORXJP | 2026-09-04 11:36:16 | 44.30983 | 7.91701 | 291° | 11km/h | 28860m | 6.5m/s | -45.2°C | 0.4% | -1.0hPa | 2.7V | 00:00:00 | 00:00:00 | 00:00:00 | |
| DO3MHA-12 | 2026-09-04 11:36:15 | 44.30982 | 7.91705 | 286° | 11km/h | 28854m | 4.8m/s | -45.3°C | 2.9% | 0hPa | 2.7V | 00:00:00 | 02:00:11 | 00:00:00 | |
| IW2NTF | 2026-09-04 11:36:07 | 44.30978 | 7.91687 | 109° | 2km/h | 28790m | 6.7m/s | -45.3°C | 2.9% | 0hPa | 2.7V | 08:30:00 | 02:00:00 | 00:00:00 | |
| DO3MHA-12 | 2026-09-04 11:36:05 | 44.30977 | 7.91687 | 167° | 4km/h | 28797m | 6.0m/s | -45.3°C | 2.8% | 0hPa | 2.7V | 00:00:00 | 02:00:01 | 00:00:00 | |
| IW2NTF | 2026-09-04 11:35:57 | 44.30968 | 7.91688 | 29° | 15km/h | 28732m | 4.8m/s | -45.4°C | 2.9% | 0hPa | 2.7V | 08:30:00 | 01:59:50 | 00:00:00 | |
| DO3MHA-12 | 2026-09-04 11:35:55 | 44.30971 | 7.91690 | 26° | 9km/h | 28738m | 6.5m/s | -45.4°C | 3.0% | 0hPa | 2.6V | 00:00:00 | 01:59:51 | 00:00:00 | |
| DB0UT-7 | 2026-09-04 11:35:53 | 44.30965 | 7.91686 | 30° | 15km/h | 28727m | 4.6m/s | -45.2°C | 3.0% | 0hPa | 2.7V | 00:00:00 | 01:59:49 | 00:00:00 | |
| IW2NTF | 2026-09-04 11:35:50 | 44.30952 | 7.91702 | 320° | 16km/h | 28676m | 6.3m/s | -45.1°C | 2.8% | 0hPa | 2.7V | 08:30:00 | 01:59:40 | 00:00:00 | |
| IW2NTF | 2026-09-04 11:35:40 | 44.30912 | 7.91730 | 289° | 15km/h | 28619m | 5m/s | -45.3°C | 2.9% | 0hPa | 2.6V | 08:30:00 | 01:59:30 | 00:00:00 | |
| DO3MHA-12 | 2026-09-04 11:35:35 | 44.30914 | 7.91726 | 309° | 15km/h | 28625m | 5.9m/s | -45.2°C | 2.5% | 0hPa | 2.7V | 00:00:00 | 01:59:31 | 00:00:00 | |
| IW2NTF | 2026-09-04 11:35:28 | 44.30880 | 7.91765 | 282° | 9km/h | 28565m | 4.9m/s | -45.2°C | 2.8% | 0hPa | 2.7V | 08:30:00 | 01:59:20 | 00:00:00 | |
| DO3MHA-12 | 2026-09-04 11:35:25 | 44.30881 | 7.91762 | 308° | 15km/h | 28570m | 5.8m/s | -45.1°C | 2.9% | 0hPa | 2.6V | 00:00:00 | 01:59:21 | 08:30:00 | |
| DB0UT-7 | 2026-09-04 11:35:23 | 44.30880 | 7.91768 | 277° | 13km/h | 28560m | 4.8m/s | -45.1°C | 2.8% | 0hPa | 2.6V | 00:00:00 | 00:00:00 | 00:00:00 | |
| IW2NTF | 2026-09-04 11:35:17 | 44.30857 | 7.91803 | 281° | 15km/h | 28509m | 4.8m/s | -45.5°C | 2.7% | 0hPa | 2.6V | 08:30:00 | 01:59:10 | 00:00:00 | |
| DO3MHA-12 | 2026-09-04 11:35:15 | 44.30858 | 7.91797 | 291° | 9km/h | 28514m | 5.2m/s | -45.5°C | 2.6% | 0hPa | 2.6V | 00:00:00 | 01:59:11 | 00:00:00 | |
| AUTORXJP | 2026-09-04 11:35:14 | 44.30857 | 7.91803 | 281° | 15km/h | 28509m | 4.9m/s | -45.6°C | 0.6% | -1.0hPa | 2.6V | 00:00:00 | 00:00:00 | 00:00:00 | |
| IW2NTF | 2026-09-04 11:35:09 | 44.30852 | 7.91806 | 220° | 7km/h | 28453m | 6.3m/s | -46.1°C | 3% | 0hPa | 2.6V | 08:30:00 | 01:59:00 | 00:00:00 | |
| DO3MHA-12 | 2026-09-04 11:34:55 | 44.30850 | 7.91835 | 341° | 15km/h | 28402m | 5.4m/s | -46.1°C | 3.1% | 0hPa | 2.6V | 00:00:00 | 01:58:51 | 00:00:00 | |
| IW2NTF | 2026-09-04 11:34:53 | 44.30840 | 7.91843 | 267° | 11km/h | 28380m | 5m/s | -46.3°C | 2.7% | 0hPa | 2.6V | 08:30:00 | 01:58:47 | 00:00:00 | |
| DO3MHA-12 | 2026-09-04 11:34:45 | 44.30849 | 7.91878 | 231° | 9km/h | 28347m | 5.9m/s | -45.9°C | 2.5% | 0hPa | 2.6V | 00:00:00 | 01:58:41 | 00:00:00 | |
| IW2NTF | 2026-09-04 11:34:43 | 44.30863 | 7.91887 | 187° | 7km/h | 28325m | 6.1m/s | -46°C | 2.6% | 0hPa | 2.6V | 08:30:00 | 01:58:37 | 00:00:00 | |
| IW2NTF | 2026-09-04 11:34:33 | 44.30880 | 7.91894 | 206° | 16km/h | 28267m | 5.5m/s | -45.8°C | 2.5% | 0hPa | 2.7V | 08:30:00 | 01:58:27 | 00:00:00 | |
| DO3MHA-12 | 2026-09-04 11:34:25 | 44.30908 | 7.91897 | 163° | 11km/h | 28235m | 5.8m/s | -45.6°C | 2.9% | 0hPa | 2.7V | 00:00:00 | 01:58:21 | 00:00:00 | |
| IW2NTF | 2026-09-04 11:34:23 | 44.30913 | 7.91890 | 113° | 7km/h | 28210m | 6m/s | -45.8°C | 2.9% | 0hPa | 2.6V | 08:30:00 | 01:58:17 | 00:00:00 | |
| DB0UT-7 | 2026-09-04 11:34:23 | 44.30912 | 7.91893 | 133° | 9km/h | 28222m | 6.2m/s | -45.6°C | 2.7% | 0hPa | 2.6V | 00:00:00 | 00:00:00 | 00:00:00 | |
| DO3MHA-12 | 2026-09-04 11:34:15 | 44.30933 | 7.91875 | 171° | 15km/h | 28177m | 5.7m/s | -45.8°C | 2.9% | 0hPa | 2.6V | 00:00:00 | 01:58:11 | 00:00:00 | |
| IW2NTF | 2026-09-04 11:34:13 | 44.30952 | 7.91868 | 160° | 18km/h | 28154m | 4.1m/s | -45.9°C | 2.5% | 0hPa | 2.6V | 08:30:00 | 01:58:07 | 00:00:00 | |
| AUTORXJP | 2026-09-04 11:34:12 | 44.30952 | 7.91868 | 160° | 18km/h | 28155m | 4.1m/s | -45.9°C | 0.4% | -1.0hPa | 2.7V | 00:00:00 | 00:00:00 | 00:00:00 | |
| DO3MHA-12 | 2026-09-04 11:34:05 | 44.30967 | 7.91867 | 169° | 16km/h | 28120m | 5.5m/s | -46.0°C | 2.8% | 0hPa | 2.7V | 00:00:00 | 01:58:01 | 00:00:00 | |
| IW2NTF | 2026-09-04 11:34:04 | 44.30984 | 7.91865 | 188° | 18km/h | 28096m | 5.6m/s | -46°C | 3% | 0hPa | 2.7V | 08:30:00 | 01:57:57 | 00:00:00 | |
| IW2NTF | 2026-09-04 11:33:55 | 44.31009 | 7.91861 | 314° | 5km/h | 28043m | 4.8m/s | -46.1°C | 3% | 0hPa | 2.7V | 08:30:00 | 01:57:47 | 00:00:00 | |
| DO3MHA-12 | 2026-09-04 11:33:55 | 44.31009 | 7.91863 | 133° | 7km/h | 28066m | 4.1m/s | -46.0°C | 3.0% | 0hPa | 2.7V | 00:00:00 | 01:57:51 | 08:30:00 | |
| IW2NTF | 2026-09-04 11:33:45 | 44.31028 | 7.91839 | 121° | 15km/h | 27986m | 4.8m/s | -46.2°C | 2.9% | 0hPa | 2.7V | 08:30:00 | 01:57:37 | 00:00:00 | |
| DO3MHA-12 | 2026-09-04 11:33:45 | 44.31019 | 7.91854 | 144° | 9km/h | 28009m | 5.6m/s | -46.0°C | 2.5% | 0hPa | 2.7V | 00:00:00 | 01:57:41 | 00:00:00 | |
| AUTORXJP | 2026-09-04 11:33:41 | 44.31030 | 7.91835 | 114° | 11km/h | 27982m | 4.6m/s | -46.3°C | 0.8% | -1.0hPa | 2.7V | 00:00:00 | 00:00:00 | 00:00:00 | |
| IW2NTF | 2026-09-04 11:33:35 | 44.31038 | 7.91818 | 143° | 15km/h | 27932m | 5.7m/s | -46.5°C | 3% | 0hPa | 2.7V | 08:30:00 | 01:57:27 | 00:00:00 | |
| DO3MHA-12 | 2026-09-04 11:33:35 | 44.31029 | 7.91829 | 120° | 11km/h | 27954m | 6.1m/s | -46.4°C | 3.0% | 0hPa | 2.7V | 00:00:00 | 01:57:31 | 00:00:00 | |
| DB0UT-7 | 2026-09-04 11:33:31 | 44.31038 | 7.91818 | 144° | 15km/h | 27932m | 5.7m/s | -46.5°C | 3.0% | 0hPa | 2.7V | 00:00:00 | 01:57:27 | 00:00:00 | |
| DO3MHA-12 | 2026-09-04 11:33:25 | 44.31049 | 7.91800 | 128° | 9km/h | 27899m | 5.0m/s | 0°C | 0% | 0hPa | 2.7V | 00:00:00 | 01:57:21 | 00:00:00 | |
| IW2NTF | 2026-09-04 11:33:24 | 44.31057 | 7.91793 | 170° | 13km/h | 27866m | 6.4m/s | -47°C | 3.1% | 0hPa | 2.6V | 08:30:00 | 01:57:15 | 00:00:00 | |
| DO3MHA-12 | 2026-09-04 11:33:15 | 44.31071 | 7.91782 | 126° | 18km/h | 27846m | 6.0m/s | -47.0°C | 2.8% | 0hPa | 2.6V | 00:00:00 | 01:57:11 | 00:00:00 | |
| IW2NTF | 2026-09-04 11:33:14 | 44.31079 | 7.91741 | 117° | 20km/h | 27813m | 5m/s | -47.1°C | 2.9% | 0hPa | 2.6V | 08:30:00 | 01:57:05 | 00:00:00 | |
| AUTORXJP | 2026-09-04 11:33:10 | 44.31079 | 7.91741 | 117° | 20km/h | 27813m | 5.0m/s | -47.1°C | 0.7% | -1.0hPa | 2.6V | 00:00:00 | 00:00:00 | 00:00:00 | |
| DO3MHA-12 | 2026-09-04 11:33:05 | 44.31088 | 7.91726 | 149° | 15km/h | 27792m | 4.3m/s | -47.2°C | 3.0% | 0hPa | 2.6V | 00:00:00 | 01:57:01 | 00:00:00 | |
| IW2NTF | 2026-09-04 11:33:01 | 44.31110 | 7.91687 | 132° | 13km/h | 27745m | 5.1m/s | -47.3°C | 3.2% | 0hPa | 2.6V | 08:30:00 | 01:56:52 | 00:00:00 | |
| DO3MHA-12 | 2026-09-04 11:32:55 | 44.31113 | 7.91683 | 137° | 16km/h | 27740m | 6.2m/s | -47.2°C | 3.0% | 0hPa | 2.7V | 00:00:00 | 01:56:51 | 00:00:00 | |
| IW2NTF | 2026-09-04 11:32:51 | 44.31133 | 7.91641 | 126° | 16km/h | 27690m | 4.7m/s | -47.4°C | 2.8% | 0hPa | 2.6V | 08:30:00 | 01:56:42 | 00:00:00 | |
| DO3MHA-12 | 2026-09-04 11:32:45 | 44.31136 | 7.91637 | 133° | 15km/h | 27686m | 4.4m/s | -47.3°C | 3.4% | 0hPa | 2.6V | 00:00:00 | 01:56:41 | 00:00:00 | |
| IW2NTF | 2026-09-04 11:32:41 | 44.31157 | 7.91610 | 114° | 13km/h | 27637m | 6m/s | -47.5°C | 2.6% | 0hPa | 2.6V | 08:30:00 | 01:56:32 | 00:00:00 | |
| AUTORXJP | 2026-09-04 11:32:39 | 44.31153 | 7.91619 | 134° | 16km/h | 27647m | 4.5m/s | -47.5°C | 0.9% | -1.0hPa | 2.7V | 00:00:00 | 00:00:00 | 00:00:00 | |
| IW2NTF | 2026-09-04 11:32:32 | 44.31171 | 7.91576 | 153° | 15km/h | 27581m | 6.6m/s | -47.7°C | 3.2% | 0hPa | 2.7V | 08:30:00 | 01:56:22 | 00:00:00 | |
| IW2NTF | 2026-09-04 11:32:21 | 44.31191 | 7.91525 | 114° | 22km/h | 27526m | 4.9m/s | -47.7°C | 3.1% | 0hPa | 2.7V | 08:30:00 | 01:56:12 | 00:00:00 | |
| DB0UT-7 | 2026-09-04 11:32:13 | 44.31197 | 7.91509 | 131° | 20km/h | 27509m | 5.2m/s | -47.7°C | 2.7% | 0hPa | 2.6V | 00:00:00 | 00:00:00 | 08:30:00 | |
| IW2NTF | 2026-09-04 11:32:11 | 44.31213 | 7.91493 | 103° | 18km/h | 27470m | 5.4m/s | -48°C | 3.1% | 0hPa | 2.7V | 08:30:00 | 01:56:02 | 00:00:00 | |
| AUTORXJP | 2026-09-04 11:32:08 | 44.31211 | 7.91498 | 122° | 13km/h | 27476m | 6.2m/s | -48.0°C | 0.6% | -1.0hPa | 2.7V | 00:00:00 | 00:00:00 | 00:00:00 | |
| IW2NTF | 2026-09-04 11:32:01 | 44.31230 | 7.91415 | 141° | 15km/h | 27414m | 6.1m/s | -48.1°C | 3.2% | 0hPa | 2.7V | 08:30:00 | 01:55:52 | 00:00:00 | |
| IW2NTF | 2026-09-04 11:31:51 | 44.31236 | 7.91338 | 110° | 20km/h | 27361m | 5.2m/s | -48.2°C | 3.5% | 0hPa | 2.6V | 08:30:00 | 01:55:42 | 00:00:00 | |
| DB0UT-7 | 2026-09-04 11:31:43 | 44.31240 | 7.91330 | 218° | 22km/h | 27343m | 5.3m/s | -48.2°C | 3.0% | 0hPa | 2.6V | 00:00:00 | 01:55:39 | 00:00:00 | |
| IW2NTF | 2026-09-04 11:31:41 | 44.31242 | 7.91306 | 73° | 31km/h | 27305m | 7m/s | -48.5°C | 3.4% | 0hPa | 2.6V | 08:30:00 | 01:55:32 | 00:00:00 | |
| AUTORXJP | 2026-09-04 11:31:36 | 44.31243 | 7.91306 | 73° | 31km/h | 27305m | 7.0m/s | -48.6°C | 1.0% | -1.0hPa | 2.6V | 00:00:00 | 00:00:00 | 00:00:00 | |
| IW2NTF | 2026-09-04 11:31:31 | 44.31230 | 7.91233 | 70° | 15km/h | 27249m | 4.1m/s | -48.8°C | 3% | 0hPa | 2.6V | 08:30:00 | 01:55:22 | 00:00:00 | |
| IW2NTF | 2026-09-04 11:31:21 | 44.31199 | 7.91141 | 30° | 13km/h | 27193m | 6m/s | -49°C | 3% | 0hPa | 2.6V | 08:30:00 | 01:55:12 | 00:00:00 | |
| DB0UT-7 | 2026-09-04 11:31:13 | 44.31195 | 7.91134 | 73° | 16km/h | 27176m | 4.9m/s | -49.0°C | 3.3% | 0hPa | 2.7V | 00:00:00 | 00:00:00 | 00:00:00 | |
| IW2NTF | 2026-09-04 11:31:12 | 44.31172 | 7.91087 | 52° | 29km/h | 27135m | 4.5m/s | -49.5°C | 3.4% | 0hPa | 2.7V | 08:30:00 | 01:55:02 | 00:00:00 | |
| AUTORXJP | 2026-09-04 11:31:05 | 44.31167 | 7.91079 | 43° | 27km/h | 27130m | 6.2m/s | -49.6°C | 0.6% | -1.0hPa | 2.6V | 00:00:00 | 00:00:00 | 00:00:00 | |
| IW2NTF | 2026-09-04 11:31:01 | 44.31144 | 7.91063 | 31° | 11km/h | 27077m | 5.5m/s | -49.6°C | 2.9% | 0hPa | 2.6V | 08:30:00 | 01:54:52 | 00:00:00 | |
| IW2NTF | 2026-09-04 11:30:51 | 44.31112 | 7.91020 | 47° | 11km/h | 27019m | 6.5m/s | -49.4°C | 3.5% | 0hPa | 2.7V | 08:30:00 | 01:54:42 | 00:00:00 | |
| DB0UT-7 | 2026-09-04 11:30:43 | 44.31110 | 7.91013 | 73° | 16km/h | 27003m | 5.5m/s | -49.4°C | 3.5% | 0hPa | 2.6V | 00:00:00 | 01:54:39 | 00:00:00 | |
| IW2NTF | 2026-09-04 11:30:41 | 44.31094 | 7.90995 | 50° | 24km/h | 26962m | 5.2m/s | -49.2°C | 3.4% | 0hPa | 2.7V | 08:30:00 | 01:54:32 | 00:00:00 | |
| AUTORXJP | 2026-09-04 11:30:34 | 44.31085 | 7.90983 | 39° | 24km/h | 26950m | 5.9m/s | -49.3°C | 0.8% | -1.0hPa | 2.7V | 00:00:00 | 00:00:00 | 00:00:00 | |
| IW2NTF | 2026-09-04 11:30:31 | 44.31060 | 7.90957 | 14° | 15km/h | 26902m | 5.5m/s | -49.2°C | 3.4% | 0hPa | 2.7V | 08:30:00 | 01:54:22 | 00:00:00 | |
| IW2NTF | 2026-09-04 11:30:21 | 44.31021 | 7.90913 | 44° | 15km/h | 26846m | 4.3m/s | -49°C | 3.3% | 0hPa | 2.7V | 08:30:00 | 01:54:12 | 00:00:00 | |
| DB0UT-7 | 2026-09-04 11:30:13 | 44.31011 | 7.90906 | 13° | 24km/h | 26829m | 5.6m/s | -48.9°C | 3.6% | 0hPa | 2.6V | 00:00:00 | 00:00:00 | 00:00:00 | |
| IW2NTF | 2026-09-04 11:30:12 | 44.30978 | 7.90878 | 30° | 26km/h | 26790m | 6.3m/s | -48.8°C | 3.6% | 0hPa | 2.6V | 08:30:00 | 01:54:02 | 00:00:00 | |
| IW2NTF | 2026-09-04 11:30:01 | 44.30923 | 7.90846 | 32° | 24km/h | 26733m | 6.4m/s | -48.8°C | 3.3% | 0hPa | 2.7V | 08:30:00 | 01:53:52 | 00:00:00 | |
| IW2NTF | 2026-09-04 11:29:51 | 44.30875 | 7.90820 | 11° | 26km/h | 26677m | 6.4m/s | -48.5°C | 3.1% | 0hPa | 2.6V | 08:30:00 | 01:53:42 | 00:00:00 | |
| DB0UT-7 | 2026-09-04 11:29:43 | 44.30852 | 7.90814 | 10° | 20km/h | 26661m | 4.7m/s | -48.3°C | 3.2% | 0hPa | 2.7V | 00:00:00 | 01:53:39 | 00:00:00 | |
| IW2NTF | 2026-09-04 11:29:41 | 44.30817 | 7.90804 | 4° | 20km/h | 26621m | 5.6m/s | -48.2°C | 3.4% | 0hPa | 2.7V | 08:30:00 | 01:53:32 | 00:00:00 | |
| AUTORXJP | 2026-09-04 11:29:32 | 44.30790 | 7.90805 | 352° | 26km/h | 26593m | 5.8m/s | -48.1°C | 0.5% | -1.0hPa | 2.6V | 00:00:00 | 00:00:00 | 00:00:00 | |
| IW2NTF | 2026-09-04 11:29:31 | 44.30759 | 7.90811 | 351° | 15km/h | 26564m | 5.6m/s | -48.1°C | 2.9% | 0hPa | 2.6V | 08:30:00 | 01:53:22 | 00:00:00 | |
| IW2NTF | 2026-09-04 11:29:21 | 44.30723 | 7.90832 | 331° | 22km/h | 26508m | 6.2m/s | -48.1°C | 3.3% | 0hPa | 2.7V | 08:30:00 | 01:53:12 | 00:00:00 | |
| DB0UT-7 | 2026-09-04 11:29:13 | 44.30709 | 7.90845 | 321° | 16km/h | 26492m | 6.2m/s | -47.9°C | 2.9% | 0hPa | 2.6V | 00:00:00 | 00:00:00 | 00:00:00 | |
| IW2NTF | 2026-09-04 11:29:11 | 44.30687 | 7.90869 | 313° | 15km/h | 26451m | 5.9m/s | -48.1°C | 3.3% | 0hPa | 2.7V | 08:30:00 | 01:53:02 | 00:00:00 | |
| IW2NTF | 2026-09-04 11:29:01 | 44.30654 | 7.90924 | 284° | 13km/h | 26395m | 6.1m/s | -48°C | 2.8% | 0hPa | 2.7V | 08:30:00 | 01:52:52 | 00:00:00 | |
| AUTORXJP | 2026-09-04 11:29:01 | 44.30667 | 7.90894 | 320° | 27km/h | 26423m | 4.7m/s | -48.2°C | 1.0% | -1.0hPa | 2.7V | 00:00:00 | 00:00:00 | 00:00:00 | |
| IW2NTF | 2026-09-04 11:28:51 | 44.30635 | 7.90962 | 318° | 15km/h | 26338m | 6m/s | -47.9°C | 3.2% | 0hPa | 2.7V | 08:30:00 | 01:52:42 | 00:00:00 | |
| DB0UT-7 | 2026-09-04 11:28:43 | 44.30630 | 7.90975 | 286° | 9km/h | 26321m | 5.8m/s | -47.8°C | 3.0% | 0hPa | 2.6V | 00:00:00 | 01:52:39 | 00:00:00 | |
| IW2NTF | 2026-09-04 11:28:41 | 44.30627 | 7.90996 | 277° | 9km/h | 26280m | 6m/s | -48.1°C | 3.4% | 0hPa | 2.6V | 08:30:00 | 01:52:32 | 00:00:00 | |
| IW2NTF | 2026-09-04 11:28:31 | 44.30616 | 7.91023 | 7° | 4km/h | 26225m | 5.3m/s | -47.7°C | 3.2% | 0hPa | 2.7V | 08:30:00 | 01:52:22 | 00:00:00 | |
| AUTORXJP | 2026-09-04 11:28:30 | 44.30619 | 7.91014 | 282° | 13km/h | 26247m | 4.7m/s | -47.8°C | 1.0% | -1.0hPa | 2.6V | 00:00:00 | 00:00:00 | 00:00:00 | |
| DO3MHA-12 | 2026-09-04 11:28:25 | 44.30615 | 7.91023 | 28° | 9km/h | 26221m | 4.7m/s | -47.6°C | 3.3% | 0hPa | 2.6V | 00:00:00 | 01:52:21 | 00:00:00 | |
| IW2NTF | 2026-09-04 11:28:22 | 44.30599 | 7.91036 | 333° | 18km/h | 26170m | 6.1m/s | -47.5°C | 3.2% | 0hPa | 2.6V | 08:30:00 | 01:52:12 | 00:00:00 | |
| DO3MHA-12 | 2026-09-04 11:28:14 | 44.30592 | 7.91043 | 314° | 15km/h | 26158m | 5.1m/s | -47.5°C | 3.2% | 0hPa | 2.7V | 00:00:00 | 01:52:10 | 08:30:00 | |
| DB0UT-7 | 2026-09-04 11:28:13 | 44.30590 | 7.91047 | 314° | 20km/h | 26153m | 4.8m/s | -47.6°C | 3.1% | 0hPa | 2.6V | 00:00:00 | 00:00:00 | 00:00:00 | |
| IW2NTF | 2026-09-04 11:28:11 | 44.30571 | 7.91047 | 330° | 16km/h | 26113m | 5.1m/s | -47.5°C | 2.9% | 0hPa | 2.6V | 08:30:00 | 01:52:02 | 00:00:00 | |
| IW2NTF | 2026-09-04 11:27:59 | 44.30508 | 7.91053 | 4° | 16km/h | 26051m | 6m/s | -47.8°C | 3% | 0hPa | 2.7V | 08:30:00 | 01:51:50 | 00:00:00 | |
| AUTORXJP | 2026-09-04 11:27:59 | 44.30525 | 7.91060 | 15° | 22km/h | 26078m | 5.8m/s | -47.6°C | 0.9% | -1.0hPa | 2.7V | 00:00:00 | 00:00:00 | 00:00:00 | |
| IW2NTF | 2026-09-04 11:27:49 | 44.30456 | 7.91074 | 3° | 20km/h | 25996m | 5.3m/s | -48.4°C | 3.2% | 0hPa | 2.7V | 08:30:00 | 01:51:40 | 00:00:00 | |
| DB0UT-7 | 2026-09-04 11:27:43 | 44.30451 | 7.91074 | 1° | 20km/h | 25991m | 6.6m/s | -48.4°C | 3.2% | 0hPa | 2.7V | 00:00:00 | 01:51:39 | 08:30:00 | |
| IW2NTF | 2026-09-04 11:27:39 | 44.30412 | 7.91090 | 332° | 20km/h | 25939m | 4.5m/s | -48.8°C | 3.1% | 0hPa | 2.6V | 08:30:00 | 01:51:30 | 00:00:00 | |
| DO3MHA-12 | 2026-09-04 11:27:31 | 44.30397 | 7.91097 | 342° | 22km/h | 25923m | 4.8m/s | -48.7°C | 3.3% | 0hPa | 2.6V | 00:00:00 | 01:51:27 | 00:00:00 | |
| IW2NTF | 2026-09-04 11:27:29 | 44.30367 | 7.91128 | 320° | 29km/h | 25883m | 4.9m/s | -49°C | 3.2% | 0hPa | 2.6V | 08:30:00 | 01:51:20 | 00:00:00 | |
| AUTORXJP | 2026-09-04 11:27:28 | 44.30378 | 7.91116 | 323° | 24km/h | 25893m | 6.1m/s | -49.0°C | 0.6% | -1.0hPa | 2.7V | 00:00:00 | 00:00:00 | 00:00:00 | |
| DO3MHA-12 | 2026-09-04 11:27:21 | 44.30353 | 7.91147 | 307° | 20km/h | 25866m | 4.9m/s | -49.0°C | 3.2% | 0hPa | 2.7V | 00:00:00 | 01:51:17 | 00:00:00 | |
| IW2NTF | 2026-09-04 11:27:19 | 44.30332 | 7.91182 | 297° | 20km/h | 25826m | 5.3m/s | -49.1°C | 3.4% | 0hPa | 2.7V | 08:30:00 | 01:51:10 | 00:00:00 | |
| DB0UT-7 | 2026-09-04 11:27:13 | 44.30329 | 7.91189 | 302° | 16km/h | 25821m | 6.3m/s | -49.1°C | 3.1% | 0hPa | 2.6V | 00:00:00 | 00:00:00 | 00:00:00 | |
| DO3MHA-12 | 2026-09-04 11:27:11 | 44.30322 | 7.91203 | 307° | 16km/h | 25810m | 4.3m/s | -49.2°C | 3.1% | 0hPa | 2.6V | 00:00:00 | 01:51:07 | 00:00:00 | |
| IW2NTF | 2026-09-04 11:27:09 | 44.30310 | 7.91236 | 321° | 11km/h | 25771m | 5.1m/s | -49.4°C | 3.4% | 0hPa | 2.6V | 08:30:00 | 01:51:00 | 00:00:00 | |
| DO3MHA-12 | 2026-09-04 11:27:01 | 44.30305 | 7.91244 | 281° | 18km/h | 25755m | 5.9m/s | -49.6°C | 3.2% | 0hPa | 2.6V | 00:00:00 | 01:50:57 | 00:00:00 | |
| IW2NTF | 2026-09-04 11:26:59 | 44.30305 | 7.91296 | 257° | 20km/h | 25716m | 5.5m/s | -49.5°C | 3.2% | 0hPa | 2.6V | 08:30:00 | 01:50:50 | 00:00:00 | |
| AUTORXJP | 2026-09-04 11:26:57 | 44.30304 | 7.91280 | 272° | 26km/h | 25727m | 4.9m/s | -49.7°C | 0.9% | -1.0hPa | 2.7V | 00:00:00 | 00:00:00 | 00:00:00 | |
| DO3MHA-12 | 2026-09-04 11:26:51 | 44.30308 | 7.91311 | 262° | 9km/h | 25699m | 6.1m/s | -49.6°C | 3.3% | 0hPa | 2.7V | 00:00:00 | 01:50:47 | 00:00:00 | |
| IW2NTF | 2026-09-04 11:26:49 | 44.30315 | 7.91330 | 259° | 13km/h | 25659m | 6m/s | -49.7°C | 3.3% | 0hPa | 2.7V | 08:30:00 | 01:50:40 | 00:00:00 | |
| DB0UT-7 | 2026-09-04 11:26:43 | 44.30316 | 7.91335 | 262° | 11km/h | 25653m | 5.3m/s | -49.7°C | 3.6% | 0hPa | 2.6V | 00:00:00 | 01:50:39 | 00:00:00 | |
| DO3MHA-12 | 2026-09-04 11:26:41 | 44.30318 | 7.91344 | 244° | 7km/h | 25642m | 5.4m/s | -49.9°C | 3.5% | 0hPa | 2.6V | 00:00:00 | 01:50:37 | 00:00:00 | |
| IW2NTF | 2026-09-04 11:26:39 | 44.30321 | 7.91363 | 216° | 2km/h | 25602m | 5.1m/s | -50.4°C | 3.4% | 0hPa | 2.6V | 08:30:00 | 01:50:30 | 00:00:00 | |
| DO3MHA-12 | 2026-09-04 11:26:31 | 44.30320 | 7.91364 | 343° | 9km/h | 25586m | 6.0m/s | -50.3°C | 3.5% | 0hPa | 2.6V | 00:00:00 | 01:50:27 | 00:00:00 | |
| IW2NTF | 2026-09-04 11:26:29 | 44.30311 | 7.91379 | 316° | 13km/h | 25548m | 6.2m/s | -50.5°C | 3.4% | 0hPa | 2.6V | 08:30:00 | 01:50:20 | 00:00:00 | |
| AUTORXJP | 2026-09-04 11:26:26 | 44.30313 | 7.91376 | 301° | 9km/h | 25554m | 5.1m/s | -50.4°C | 0.6% | -1.0hPa | 2.7V | 00:00:00 | 00:00:00 | 00:00:00 | |
| IW2NTF | 2026-09-04 11:26:19 | 44.30286 | 7.91418 | 305° | 20km/h | 25493m | 5.2m/s | -50.6°C | 3.7% | 0hPa | 2.7V | 08:30:00 | 01:50:10 | 00:00:00 | |
| DB0UT-7 | 2026-09-04 11:26:13 | 44.30283 | 7.91424 | 303° | 27km/h | 25489m | 6.2m/s | -50.6°C | 3.3% | 0hPa | 2.6V | 00:00:00 | 00:00:00 | 00:00:00 | |
| DO3MHA-12 | 2026-09-04 11:26:11 | 44.30279 | 7.91433 | 307° | 20km/h | 25478m | 4.7m/s | -50.5°C | 3.6% | 0hPa | 2.6V | 00:00:00 | 01:50:07 | 08:30:00 | |
| IW2NTF | 2026-09-04 11:26:02 | 44.30250 | 7.91495 | 300° | 27km/h | 25422m | 4.5m/s | -50.6°C | 3.4% | 0hPa | 2.6V | 08:30:00 | 01:49:57 | 00:00:00 | |
| AUTORXJP | 2026-09-04 11:25:55 | 44.30227 | 7.91553 | 306° | 33km/h | 25386m | 4.9m/s | -50.7°C | 0.8% | -1.0hPa | 2.7V | 00:00:00 | 00:00:00 | 00:00:00 | |
| IW2NTF | 2026-09-04 11:25:52 | 44.30214 | 7.91585 | 287° | 33km/h | 25370m | 5.6m/s | -50.7°C | 3.7% | 0hPa | 2.7V | 08:30:00 | 01:49:47 | 00:00:00 | |
| DO3MHA-12 | 2026-09-04 11:25:51 | 44.30214 | 7.91585 | 288° | 27km/h | 25370m | 5.5m/s | -50.7°C | 3.7% | 0hPa | 2.6V | 00:00:00 | 01:49:47 | 00:00:00 | |
| IW2NTF | 2026-09-04 11:25:42 | 44.30195 | 7.91687 | 273° | 29km/h | 25313m | 5.5m/s | -50.8°C | 3.7% | 0hPa | 2.6V | 08:30:00 | 01:49:36 | 00:00:00 | |
| DO3MHA-12 | 2026-09-04 11:25:41 | 44.30195 | 7.91676 | 275° | 29km/h | 25319m | 5.2m/s | -50.9°C | 3.3% | 0hPa | 2.6V | 00:00:00 | 01:49:37 | 00:00:00 | |
| IW2NTF | 2026-09-04 11:25:32 | 44.30193 | 7.91782 | 259° | 22km/h | 25260m | 5m/s | -50.7°C | 3.7% | 0hPa | 2.7V | 08:30:00 | 01:49:26 | 00:00:00 | |
| DO3MHA-12 | 2026-09-04 11:25:31 | 44.30192 | 7.91774 | 263° | 24km/h | 25265m | 5.9m/s | -50.6°C | 3.6% | 0hPa | 2.7V | 00:00:00 | 01:49:27 | 00:00:00 | |
| AUTORXJP | 2026-09-04 11:25:23 | 44.30204 | 7.91840 | 243° | 22km/h | 25220m | 4.8m/s | -50.5°C | 0.6% | -1.0hPa | 2.7V | 00:00:00 | 00:00:00 | 00:00:00 | |
| IW2NTF | 2026-09-04 11:25:22 | 44.30213 | 7.91866 | 246° | 33km/h | 25204m | 5.4m/s | -50.6°C | 3.5% | 0hPa | 2.7V | 08:30:00 | 01:49:16 | 00:00:00 | |
| DO3MHA-12 | 2026-09-04 11:25:21 | 44.30210 | 7.91856 | 246° | 27km/h | 25209m | 6.3m/s | -50.5°C | 3.4% | 0hPa | 2.6V | 00:00:00 | 01:49:17 | 00:00:00 | |
| IW2NTF | 2026-09-04 11:25:12 | 44.30247 | 7.91941 | 215° | 22km/h | 25149m | 5.8m/s | -51.1°C | 3.7% | 0hPa | 2.6V | 08:30:00 | 01:49:06 | 00:00:00 | |
| DO3MHA-12 | 2026-09-04 11:25:11 | 44.30243 | 7.91936 | 224° | 29km/h | 25156m | 5.9m/s | -51.0°C | 3.3% | 0hPa | 2.6V | 00:00:00 | 01:49:07 | 00:00:00 | |
| IW2NTF | 2026-09-04 11:25:03 | 44.30304 | 7.92006 | 216° | 22km/h | 25095m | 5.8m/s | -51°C | 3.3% | 0hPa | 2.6V | 08:30:00 | 01:48:56 | 00:00:00 | |
| DO3MHA-12 | 2026-09-04 11:25:01 | 44.30299 | 7.92002 | 214° | 22km/h | 25101m | 5.8m/s | -50.9°C | 4.0% | 0hPa | 2.7V | 00:00:00 | 01:48:57 | 00:00:00 | |
| IW2NTF | 2026-09-04 11:24:52 | 44.30355 | 7.92043 | 216° | 26km/h | 25043m | 5.5m/s | -50.6°C | 3.5% | 0hPa | 2.7V | 08:30:00 | 01:48:46 | 00:00:00 | |
| DO3MHA-12 | 2026-09-04 11:24:51 | 44.30349 | 7.92037 | 218° | 22km/h | 25048m | 4.1m/s | -50.7°C | 3.6% | 0hPa | 2.6V | 00:00:00 | 01:48:47 | 00:00:00 | |
| IW2NTF | 2026-09-04 11:24:42 | 44.30408 | 7.92061 | 181° | 24km/h | 24988m | 5.8m/s | -50.3°C | 3.6% | 0hPa | 2.6V | 08:30:00 | 01:48:36 | 00:00:00 | |
| DO3MHA-12 | 2026-09-04 11:24:41 | 44.30402 | 7.92061 | 174° | 22km/h | 24993m | 4.4m/s | -50.3°C | 3.3% | 0hPa | 2.6V | 00:00:00 | 01:48:37 | 08:30:00 | |
| IW2NTF | 2026-09-04 11:24:32 | 44.30458 | 7.92085 | 176° | 20km/h | 24934m | 5.9m/s | -50.5°C | 3.2% | 0hPa | 2.6V | 08:30:00 | 01:48:26 | 00:00:00 | |
| DO3MHA-12 | 2026-09-04 11:24:31 | 44.30453 | 7.92084 | 196° | 24km/h | 24941m | 5.6m/s | 0°C | 0% | 0hPa | 2.7V | 00:00:00 | 01:48:27 | 00:00:00 | |
| IW2NTF | 2026-09-04 11:24:22 | 44.30514 | 7.92086 | 209° | 7km/h | 24882m | 5.8m/s | -51°C | 3.6% | 0hPa | 2.7V | 08:30:00 | 01:48:16 | 00:00:00 | |
| DO3MHA-12 | 2026-09-04 11:24:21 | 44.30512 | 7.92085 | 200° | 11km/h | 24888m | 6.0m/s | 0°C | 0% | 0hPa | 2.6V | 00:00:00 | 01:48:17 | 00:00:00 | |
| IW2NTF | 2026-09-04 11:24:12 | 44.30539 | 7.92071 | 185° | 16km/h | 24830m | 5.3m/s | -50.8°C | 3.7% | 0hPa | 2.6V | 08:30:00 | 01:48:06 | 00:00:00 | |
| DO3MHA-12 | 2026-09-04 11:24:11 | 44.30534 | 7.92071 | 168° | 16km/h | 24836m | 5.4m/s | 0°C | 0% | 0hPa | 2.6V | 00:00:00 | 01:48:07 | 00:00:00 | |
| IW2NTF | 2026-09-04 11:24:02 | 44.30555 | 7.92066 | 120° | 11km/h | 24776m | 5.8m/s | -50.5°C | 3.1% | 0hPa | 2.6V | 08:30:00 | 01:47:56 | 00:00:00 | |
| IW2NTF | 2026-09-04 11:23:52 | 44.30579 | 7.92065 | 342° | 4km/h | 24724m | 6.6m/s | -50.6°C | 3.5% | 0hPa | 2.7V | 08:30:00 | 01:47:46 | 00:00:00 | |
| AUTORXJP | 2026-09-04 11:23:50 | 44.30579 | 7.92065 | 342° | 2km/h | 24724m | 6.6m/s | -50.6°C | 1.0% | -1.0hPa | 2.6V | 00:00:00 | 00:00:00 | 00:00:00 | |
| DO3MHA-12 | 2026-09-04 11:23:49 | 44.30577 | 7.92065 | 358° | 7km/h | 24718m | 5.2m/s | 0°C | 0% | 0hPa | 2.6V | 00:00:00 | 01:47:45 | 00:00:00 | |
| IW2NTF | 2026-09-04 11:23:42 | 44.30578 | 7.92056 | 220° | 13km/h | 24671m | 5.8m/s | -50.7°C | 3.7% | 0hPa | 2.6V | 08:30:00 | 01:47:36 | 00:00:00 | |
| DB0UT-7 | 2026-09-04 11:23:41 | 44.30575 | 7.92053 | 222° | 9km/h | 24676m | 4.6m/s | -50.6°C | 3.5% | 0hPa | 2.6V | 00:00:00 | 01:47:37 | 00:00:00 | |
| DO3MHA-12 | 2026-09-04 11:23:36 | 44.30582 | 7.92064 | 311° | 5km/h | 24649m | 6.1m/s | 0°C | 0% | 0hPa | 2.6V | 00:00:00 | 01:47:32 | 00:00:00 | |
| IW2NTF | 2026-09-04 11:23:35 | 44.30567 | 7.92062 | 46° | 5km/h | 24617m | 5.9m/s | -51.1°C | 3.2% | 0hPa | 2.6V | 08:30:00 | 01:47:26 | 00:00:00 | |
| DO3MHA-12 | 2026-09-04 11:23:26 | 44.30570 | 7.92066 | 216° | 13km/h | 24595m | 6.5m/s | 0°C | 0% | 0hPa | 2.7V | 00:00:00 | 01:47:22 | 00:00:00 | |
| IW2NTF | 2026-09-04 11:23:20 | 44.30566 | 7.92090 | 343° | 13km/h | 24560m | 5.6m/s | -51.4°C | 3.9% | 0hPa | 2.7V | 08:30:00 | 01:47:15 | 00:00:00 | |
| AUTORXJP | 2026-09-04 11:23:19 | 44.30566 | 7.92090 | 343° | 13km/h | 24560m | 5.6m/s | -51.4°C | 1.2% | -1.0hPa | 2.7V | 00:00:00 | 00:00:00 | 00:00:00 | |
| DO3MHA-12 | 2026-09-04 11:23:16 | 44.30560 | 7.92089 | 82° | 7km/h | 24544m | 5.1m/s | 0°C | 0% | 0hPa | 2.7V | 00:00:00 | 01:47:12 | 00:00:00 | |
| IW2NTF | 2026-09-04 11:23:10 | 44.30566 | 7.92098 | 254° | 7km/h | 24507m | 5.4m/s | -51.6°C | 3.6% | 0hPa | 2.7V | 08:30:00 | 01:47:05 | 00:00:00 | |
| DO3MHA-12 | 2026-09-04 11:23:06 | 44.30566 | 7.92108 | 281° | 4km/h | 24492m | 4.6m/s | 0°C | 0% | 0hPa | 2.6V | 00:00:00 | 01:47:02 | 00:00:00 | |
| IW2NTF | 2026-09-04 11:23:00 | 44.30564 | 7.92113 | 74° | 2km/h | 24453m | 6.2m/s | -51.8°C | 3.8% | 0hPa | 2.6V | 08:30:00 | 01:46:55 | 00:00:00 | |
| DO3MHA-12 | 2026-09-04 11:22:56 | 44.30563 | 7.92110 | 315° | 2km/h | 24437m | 5.9m/s | 0°C | 0% | 0hPa | 2.7V | 00:00:00 | 01:46:52 | 00:00:00 | |
| IW2NTF | 2026-09-04 11:22:50 | 44.30561 | 7.92119 | 257° | 4km/h | 24401m | 6.2m/s | -52.2°C | 3.8% | 0hPa | 2.7V | 08:30:00 | 01:46:45 | 00:00:00 | |
| AUTORXJP | 2026-09-04 11:22:48 | 44.30561 | 7.92120 | 256° | 7km/h | 24395m | 5.3m/s | -52.3°C | 0.8% | -1.0hPa | 2.7V | 00:00:00 | 00:00:00 | 00:00:00 | |
| IW2NTF | 2026-09-04 11:22:40 | 44.30561 | 7.92129 | 184° | 2km/h | 24349m | 7.3m/s | -52.4°C | 3.8% | 0hPa | 2.7V | 08:30:00 | 01:46:35 | 00:00:00 | |
| IW2NTF | 2026-09-04 11:22:31 | 44.30560 | 7.92131 | 35° | 9km/h | 24292m | 5.7m/s | -52.4°C | 3.5% | 0hPa | 2.6V | 08:30:00 | 01:46:25 | 00:00:00 | |
| IW2NTF | 2026-09-04 11:22:20 | 44.30552 | 7.92108 | 106° | 7km/h | 24240m | 6.3m/s | -52.2°C | 3.9% | 0hPa | 2.7V | 08:30:00 | 01:46:15 | 00:00:00 | |
| AUTORXJP | 2026-09-04 11:22:17 | 44.30553 | 7.92102 | 89° | 9km/h | 24229m | 4.7m/s | -52.2°C | 1.2% | -1.0hPa | 2.7V | 00:00:00 | 00:00:00 | 00:00:00 | |
| IW2NTF | 2026-09-04 11:22:10 | 44.30538 | 7.92078 | 44° | 11km/h | 24187m | 6.4m/s | -52.4°C | 3.8% | 0hPa | 2.7V | 08:30:00 | 01:46:05 | 00:00:00 | |
| IW2NTF | 2026-09-04 11:22:00 | 44.30518 | 7.92063 | 22° | 15km/h | 24134m | 5.5m/s | -52.5°C | 3.8% | 0hPa | 2.6V | 08:30:00 | 01:45:55 | 00:00:00 | |
| IW2NTF | 2026-09-04 11:21:50 | 44.30496 | 7.92054 | 65° | 4km/h | 24082m | 5.5m/s | -52.6°C | 4.1% | 0hPa | 2.7V | 08:30:00 | 01:45:45 | 00:00:00 | |
| AUTORXJP | 2026-09-04 11:21:46 | 44.30495 | 7.92051 | 69° | 4km/h | 24066m | 4.0m/s | -52.5°C | 1.1% | -1.0hPa | 2.7V | 00:00:00 | 00:00:00 | 00:00:00 | |
| IW2NTF | 2026-09-04 11:21:40 | 44.30490 | 7.92031 | 85° | 5km/h | 24029m | 4.2m/s | -52.5°C | 3.9% | 0hPa | 2.7V | 08:30:00 | 01:45:35 | 00:00:00 | |
| IW2NTF | 2026-09-04 11:21:30 | 44.30499 | 7.91999 | 105° | 16km/h | 23975m | 5.8m/s | -52.7°C | 3.8% | 0hPa | 2.6V | 08:30:00 | 01:45:25 | 00:00:00 | |
| IW2NTF | 2026-09-04 11:21:20 | 44.30509 | 7.91945 | 100° | 16km/h | 23923m | 5.9m/s | -52.5°C | 4.2% | 0hPa | 2.7V | 08:30:00 | 01:45:15 | 00:00:00 | |
| AUTORXJP | 2026-09-04 11:21:15 | 44.30511 | 7.91919 | 87° | 18km/h | 23902m | 4.7m/s | -52.6°C | 1.0% | -1.0hPa | 2.7V | 00:00:00 | 00:00:00 | 00:00:00 | |
| IW2NTF | 2026-09-04 11:21:10 | 44.30509 | 7.91873 | 84° | 16km/h | 23870m | 5.6m/s | -52.6°C | 3.7% | 0hPa | 2.7V | 08:30:00 | 01:45:05 | 00:00:00 | |
| IW2NTF | 2026-09-04 11:21:00 | 44.30513 | 7.91820 | 93° | 16km/h | 23819m | 5.3m/s | -53°C | 3.9% | 0hPa | 2.6V | 08:30:00 | 01:44:55 | 00:00:00 | |
| IW2NTF | 2026-09-04 11:20:50 | 44.30490 | 7.91770 | 39° | 9km/h | 23769m | 5.8m/s | -53.6°C | 4.2% | 0hPa | 2.7V | 08:30:00 | 01:44:45 | 00:00:00 | |
| IW2NTF | 2026-09-04 11:20:44 | 44.30452 | 7.91725 | 41° | 29km/h | 23716m | 5.7m/s | -54.3°C | 4.1% | 0hPa | 2.7V | 08:30:00 | 01:44:35 | 00:00:00 | |
| AUTORXJP | 2026-09-04 11:20:44 | 44.30474 | 7.91750 | 43° | 24km/h | 23738m | 6.3m/s | -54.0°C | 1.1% | -1.0hPa | 2.6V | 00:00:00 | 00:00:00 | 00:00:00 | |
| DB0UT-7 | 2026-09-04 11:20:41 | 44.30464 | 7.91738 | 37° | 15km/h | 23727m | 4.5m/s | -54.1°C | 4.1% | 0hPa | 2.6V | 00:00:00 | 01:44:37 | 00:00:00 | |
| IW2NTF | 2026-09-04 11:20:34 | 44.30417 | 7.91705 | 6° | 9km/h | 23664m | 4.6m/s | -54.2°C | 3.9% | 0hPa | 2.6V | 08:30:00 | 01:44:25 | 00:00:00 | |
| IW2NTF | 2026-09-04 11:20:25 | 44.30395 | 7.91703 | 316° | 13km/h | 23612m | 5.4m/s | -54.5°C | 4.3% | 0hPa | 2.7V | 08:30:00 | 01:44:15 | 00:00:00 | |
| IW2NTF | 2026-09-04 11:20:14 | 44.30374 | 7.91719 | 291° | 13km/h | 23559m | 5.7m/s | -54.5°C | 4.3% | 0hPa | 2.7V | 08:30:00 | 01:44:05 | 00:00:00 | |
| AUTORXJP | 2026-09-04 11:20:13 | 44.30377 | 7.91714 | 350° | 5km/h | 23570m | 3.8m/s | -54.4°C | 1.4% | -1.0hPa | 2.6V | 00:00:00 | 00:00:00 | 00:00:00 | |
| DB0UT-7 | 2026-09-04 11:20:11 | 44.30377 | 7.91714 | 351° | 11km/h | 23570m | 3.8m/s | -54.4°C | 4.5% | 0hPa | 2.6V | 00:00:00 | 00:00:00 | 00:00:00 | |
| IW2NTF | 2026-09-04 11:20:04 | 44.30369 | 7.91764 | 331° | 5km/h | 23506m | 5.9m/s | -54.5°C | 4.4% | 0hPa | 2.6V | 08:30:00 | 01:43:55 | 00:00:00 | |
| IW2NTF | 2026-09-04 11:19:49 | 44.30360 | 7.91799 | 333° | 7km/h | 23439m | 4.8m/s | -54.1°C | 4.4% | 0hPa | 2.6V | 08:30:00 | 01:43:42 | 00:00:00 | |
| AUTORXJP | 2026-09-04 11:19:42 | 44.30353 | 7.91806 | 283° | 11km/h | 23411m | 6.1m/s | -54.2°C | 1.0% | -1.0hPa | 2.6V | 00:00:00 | 00:00:00 | 00:00:00 | |
| DB0UT-7 | 2026-09-04 11:19:41 | 44.30353 | 7.91806 | 284° | 7km/h | 23412m | 6.1m/s | -54.2°C | 4.0% | 0hPa | 2.6V | 00:00:00 | 01:43:37 | 00:00:00 | |
| IW2NTF | 2026-09-04 11:19:39 | 44.30357 | 7.91828 | 229° | 9km/h | 23385m | 4.5m/s | -54°C | 3.8% | 0hPa | 2.6V | 08:30:00 | 01:43:32 | 00:00:00 | |
| IW2NTF | 2026-09-04 11:19:29 | 44.30354 | 7.91840 | 288° | 11km/h | 23330m | 4.7m/s | -53.9°C | 4.2% | 0hPa | 2.7V | 08:30:00 | 01:43:22 | 00:00:00 | |
| IW2NTF | 2026-09-04 11:19:19 | 44.30357 | 7.91843 | 76° | 5km/h | 23274m | 4.8m/s | -53.4°C | 4.1% | 0hPa | 2.6V | 08:30:00 | 01:43:12 | 00:00:00 | |
| AUTORXJP | 2026-09-04 11:19:11 | 44.30352 | 7.91847 | 248° | 2km/h | 23241m | 5.0m/s | -53.4°C | 1.1% | -1.0hPa | 2.6V | 00:00:00 | 00:00:00 | 00:00:00 | |
| IW2NTF | 2026-09-04 11:19:09 | 44.30350 | 7.91844 | 70° | 9km/h | 23219m | 5.1m/s | -53.3°C | 3.9% | 0hPa | 2.6V | 08:30:00 | 01:43:02 | 00:00:00 | |
| IW2NTF | 2026-09-04 11:18:58 | 44.30347 | 7.91834 | 225° | 7km/h | 23164m | 4.5m/s | -53.4°C | 4.1% | 0hPa | 2.7V | 08:30:00 | 01:42:52 | 00:00:00 | |
| IW2NTF | 2026-09-04 11:18:48 | 44.30352 | 7.91821 | 35° | 9km/h | 23110m | 5.2m/s | -53.2°C | 4.1% | 0hPa | 2.6V | 08:30:00 | 01:42:42 | 00:00:00 | |
| DB0UT-7 | 2026-09-04 11:18:41 | 44.30343 | 7.91820 | 342° | 13km/h | 23084m | 4.6m/s | -53.0°C | 4.3% | 0hPa | 2.6V | 00:00:00 | 01:42:37 | 08:30:00 | |
| AUTORXJP | 2026-09-04 11:18:39 | 44.30339 | 7.91821 | 2° | 9km/h | 23072m | 5.9m/s | -53.1°C | 1.1% | -1.0hPa | 2.6V | 00:00:00 | 00:00:00 | 00:00:00 | |
| IW2NTF | 2026-09-04 11:18:38 | 44.30332 | 7.91820 | 10° | 7km/h | 23054m | 5.7m/s | -53°C | 3.6% | 0hPa | 2.6V | 08:30:00 | 01:42:32 | 00:00:00 | |
| IW2NTF | 2026-09-04 11:18:28 | 44.30296 | 7.91807 | 18° | 20km/h | 23001m | 5.9m/s | -53.1°C | 4% | 0hPa | 2.7V | 08:30:00 | 01:42:22 | 00:00:00 | |
| IW2NTF | 2026-09-04 11:18:18 | 44.30265 | 7.91807 | 6° | 16km/h | 22947m | 5.4m/s | -53.2°C | 4.2% | 0hPa | 2.7V | 08:30:00 | 01:42:12 | 00:00:00 | |
| DB0UT-7 | 2026-09-04 11:18:11 | 44.30240 | 7.91803 | 7° | 18km/h | 22920m | 5.3m/s | -53.1°C | 3.8% | 0hPa | 2.6V | 00:00:00 | 00:00:00 | 00:00:00 | |
| IW2NTF | 2026-09-04 11:18:08 | 44.30222 | 7.91800 | 357° | 15km/h | 22894m | 5m/s | -53°C | 4.1% | 0hPa | 2.6V | 08:30:00 | 01:42:02 | 00:00:00 | |
| IW2NTF | 2026-09-04 11:17:58 | 44.30183 | 7.91808 | 347° | 18km/h | 22842m | 4.1m/s | -52.9°C | 3.9% | 0hPa | 2.7V | 08:30:00 | 01:41:52 | 00:00:00 | |
| IW2NTF | 2026-09-04 11:17:48 | 44.30140 | 7.91833 | 329° | 18km/h | 22793m | 5.1m/s | -53.3°C | 4% | 0hPa | 2.6V | 08:30:00 | 01:41:42 | 00:00:00 | |
| IW2NTF | 2026-09-04 11:17:38 | 44.30103 | 7.91886 | 309° | 22km/h | 22741m | 6m/s | -53.4°C | 4% | 0hPa | 2.7V | 08:30:00 | 01:41:32 | 00:00:00 | |
| AUTORXJP | 2026-09-04 11:17:37 | 44.30103 | 7.91886 | 309° | 22km/h | 22741m | 6.0m/s | -53.4°C | 1.2% | -1.0hPa | 2.7V | 00:00:00 | 00:00:00 | 00:00:00 | |
| DB0UT-7 | 2026-09-04 11:17:31 | 44.30090 | 7.91907 | 317° | 20km/h | 22716m | 4.5m/s | -53.4°C | 4.2% | 0hPa | 2.7V | 00:00:00 | 01:41:27 | 00:00:00 | |
| IW2NTF | 2026-09-04 11:17:28 | 44.30082 | 7.91928 | 312° | 18km/h | 22690m | 6.1m/s | -53.7°C | 4.1% | 0hPa | 2.7V | 08:30:00 | 01:41:22 | 00:00:00 | |
| IW2NTF | 2026-09-04 11:17:18 | 44.30042 | 7.91978 | 307° | 16km/h | 22641m | 5.5m/s | -53.4°C | 4.1% | 0hPa | 2.6V | 08:30:00 | 01:41:12 | 00:00:00 | |
| IW2NTF | 2026-09-04 11:17:11 | 44.30009 | 7.92039 | 304° | 20km/h | 22591m | 5.6m/s | -53.7°C | 4% | 0hPa | 2.7V | 08:30:00 | 01:41:02 | 00:00:00 | |
| AUTORXJP | 2026-09-04 11:17:06 | 44.30009 | 7.92040 | 304° | 18km/h | 22591m | 5.6m/s | -53.7°C | 1.1% | -1.0hPa | 2.7V | 00:00:00 | 00:00:00 | 00:00:00 | |
| DB0UT-7 | 2026-09-04 11:17:01 | 44.30001 | 7.92067 | 271° | 13km/h | 22566m | 5.1m/s | -53.4°C | 4.3% | 0hPa | 2.7V | 00:00:00 | 00:00:00 | 00:00:00 | |
| IW2NTF | 2026-09-04 11:17:00 | 44.30001 | 7.92094 | 278° | 22km/h | 22540m | 4.9m/s | -53.4°C | 4% | 0hPa | 2.7V | 08:30:00 | 01:40:52 | 00:00:00 | |
| IW2NTF | 2026-09-04 11:16:48 | 44.29988 | 7.92145 | 257° | 5km/h | 22493m | 5.2m/s | -53.5°C | 4.1% | 0hPa | 2.6V | 08:30:00 | 01:40:42 | 00:00:00 | |
| IW2NTF | 2026-09-04 11:16:41 | 44.29997 | 7.92178 | 298° | 5km/h | 22444m | 5.1m/s | -53.3°C | 3.9% | 0hPa | 2.6V | 08:30:00 | 01:40:32 | 00:00:00 | |
| AUTORXJP | 2026-09-04 11:16:35 | 44.29997 | 7.92179 | 292° | 4km/h | 22439m | 4.2m/s | -53.3°C | 1.2% | -1.0hPa | 2.7V | 00:00:00 | 00:00:00 | 00:00:00 | |
| DB0UT-7 | 2026-09-04 11:16:31 | 44.29993 | 7.92185 | 311° | 11km/h | 22420m | 4.9m/s | -53.2°C | 4.1% | 0hPa | 2.7V | 00:00:00 | 01:40:27 | 00:00:00 | |
| IW2NTF | 2026-09-04 11:16:30 | 44.29993 | 7.92200 | 283° | 9km/h | 22395m | 5.3m/s | -53.2°C | 4.1% | 0hPa | 2.7V | 08:30:00 | 01:40:22 | 00:00:00 | |
| IW2NTF | 2026-09-04 11:16:18 | 44.29977 | 7.92213 | 316° | 9km/h | 22345m | 3.8m/s | -53.1°C | 3.9% | 0hPa | 2.6V | 08:30:00 | 01:40:12 | 00:00:00 | |
| IW2NTF | 2026-09-04 11:16:11 | 44.29961 | 7.92243 | 332° | 15km/h | 22296m | 4.6m/s | -53.3°C | 4% | 0hPa | 2.6V | 08:30:00 | 01:40:02 | 00:00:00 | |
| AUTORXJP | 2026-09-04 11:16:04 | 44.29955 | 7.92248 | 321° | 13km/h | 22286m | 5.0m/s | -53.5°C | 1.1% | -1.0hPa | 2.7V | 00:00:00 | 00:00:00 | 00:00:00 | |
| DB0UT-7 | 2026-09-04 11:16:01 | 44.29948 | 7.92258 | 311° | 18km/h | 22271m | 5.1m/s | -53.4°C | 3.8% | 0hPa | 2.7V | 00:00:00 | 00:00:00 | 00:00:00 | |
| IW2NTF | 2026-09-04 11:15:58 | 44.29946 | 7.92284 | 269° | 18km/h | 22246m | 5.1m/s | -54°C | 4.3% | 0hPa | 2.7V | 08:30:00 | 01:39:52 | 00:00:00 | |
| IW2NTF | 2026-09-04 11:15:51 | 44.29927 | 7.92332 | 294° | 18km/h | 22198m | 4.9m/s | -54.3°C | 4.2% | 0hPa | 2.7V | 08:30:00 | 01:39:42 | 00:00:00 | |
| IW2NTF | 2026-09-04 11:15:41 | 44.29931 | 7.92406 | 266° | 18km/h | 22150m | 5.5m/s | -54.1°C | 3.9% | 0hPa | 2.6V | 08:30:00 | 01:39:32 | 00:00:00 | |
| AUTORXJP | 2026-09-04 11:15:33 | 44.29930 | 7.92426 | 270° | 18km/h | 22134m | 5.7m/s | -54.3°C | 1.1% | -1.0hPa | 2.7V | 00:00:00 | 00:00:00 | 00:00:00 | |
| DB0UT-7 | 2026-09-04 11:15:31 | 44.29931 | 7.92440 | 260° | 16km/h | 22125m | 3.9m/s | -54.1°C | 4.1% | 0hPa | 2.7V | 00:00:00 | 01:39:27 | 00:00:00 | |
| IW2NTF | 2026-09-04 11:15:29 | 44.29939 | 7.92467 | 222° | 18km/h | 22099m | 4.5m/s | -54.5°C | 4.2% | 0hPa | 2.7V | 08:30:00 | 01:39:22 | 00:00:00 | |
| IW2NTF | 2026-09-04 11:15:17 | 44.29964 | 7.92524 | 228° | 13km/h | 22052m | 5.4m/s | -54.9°C | 4.4% | 0hPa | 2.6V | 08:30:00 | 01:39:12 | 00:00:00 | |
| IW2NTF | 2026-09-04 11:15:11 | 44.29995 | 7.92554 | 227° | 22km/h | 22003m | 4.8m/s | -54.7°C | 4.4% | 0hPa | 2.6V | 08:30:00 | 01:39:02 | 00:00:00 | |
| AUTORXJP | 2026-09-04 11:15:02 | 44.30008 | 7.92569 | 213° | 11km/h | 21985m | 5.0m/s | -54.7°C | 1.2% | -1.0hPa | 2.7V | 00:00:00 | 00:00:00 | 00:00:00 | |
| DB0UT-7 | 2026-09-04 11:15:01 | 44.30011 | 7.92571 | 207° | 11km/h | 21980m | 4.2m/s | -54.7°C | 4.1% | 0hPa | 2.7V | 00:00:00 | 00:00:00 | 00:00:00 | |
| IW2NTF | 2026-09-04 11:14:59 | 44.30027 | 7.92574 | 189° | 13km/h | 21956m | 5.8m/s | -54.6°C | 4.1% | 0hPa | 2.7V | 08:30:00 | 01:38:52 | 00:00:00 | |
| IW2NTF | 2026-09-04 11:14:47 | 44.30052 | 7.92598 | 194° | 11km/h | 21908m | 5.7m/s | -55.1°C | 4.5% | 0hPa | 2.6V | 08:30:00 | 01:38:42 | 00:00:00 | |
| IW2NTF | 2026-09-04 11:14:41 | 44.30071 | 7.92591 | 241° | 7km/h | 21857m | 5.3m/s | -55°C | 4.4% | 0hPa | 2.7V | 08:30:00 | 01:38:32 | 00:00:00 | |
| DB0UT-7 | 2026-09-04 11:14:31 | 44.30076 | 7.92599 | 137° | 11km/h | 21834m | 3.9m/s | -55.0°C | 4.4% | 0hPa | 2.6V | 00:00:00 | 01:38:27 | 00:00:00 | |
| IW2NTF | 2026-09-04 11:14:29 | 44.30081 | 7.92601 | 211° | 11km/h | 21809m | 4.4m/s | -54.9°C | 4.5% | 0hPa | 2.6V | 08:30:00 | 01:38:22 | 00:00:00 | |
| IW2NTF | 2026-09-04 11:14:17 | 44.30084 | 7.92641 | 268° | 7km/h | 21758m | 4.7m/s | -54.7°C | 4.3% | 0hPa | 2.6V | 08:30:00 | 01:38:12 | 00:00:00 | |
| IW2NTF | 2026-09-04 11:14:11 | 44.30102 | 7.92681 | 258° | 15km/h | 21708m | 4.6m/s | -55.2°C | 4.4% | 0hPa | 2.7V | 08:30:00 | 01:38:02 | 00:00:00 | |
| AUTORXJP | 2026-09-04 11:14:00 | 44.30110 | 7.92711 | 203° | 13km/h | 21672m | 4.8m/s | -55.2°C | 1.4% | -1.0hPa | 2.7V | 00:00:00 | 00:00:00 | 00:00:00 | |
| IW2NTF | 2026-09-04 11:13:59 | 44.30118 | 7.92720 | 242° | 13km/h | 21658m | 4.9m/s | -55.4°C | 4.4% | 0hPa | 2.7V | 08:30:00 | 01:37:52 | 00:00:00 | |
| IW2NTF | 2026-09-04 11:13:47 | 44.30110 | 7.92771 | 290° | 11km/h | 21607m | 6.1m/s | -55.2°C | 4.5% | 0hPa | 2.7V | 08:30:00 | 01:37:42 | 00:00:00 | |
| IW2NTF | 2026-09-04 11:13:41 | 44.30106 | 7.92804 | 276° | 15km/h | 21554m | 5.1m/s | -55°C | 4.3% | 0hPa | 2.7V | 08:30:00 | 01:37:32 | 00:00:00 | |
| DB0UT-7 | 2026-09-04 11:13:31 | 44.30107 | 7.92829 | 252° | 15km/h | 21528m | 5.9m/s | -54.8°C | 4.2% | 0hPa | 2.7V | 00:00:00 | 01:37:27 | 00:00:00 | |
| AUTORXJP | 2026-09-04 11:13:29 | 44.30109 | 7.92835 | 232° | 5km/h | 21512m | 5.6m/s | -54.8°C | 1.4% | -1.0hPa | 2.7V | 00:00:00 | 00:00:00 | 00:00:00 | |
| IW2NTF | 2026-09-04 11:13:27 | 44.30111 | 7.92839 | 239° | 9km/h | 21501m | 5.3m/s | -54.9°C | 4.2% | 0hPa | 2.7V | 08:30:00 | 01:37:22 | 00:00:00 | |
| IW2NTF | 2026-09-04 11:13:21 | 44.30134 | 7.92881 | 199° | 11km/h | 21452m | 5.8m/s | -55°C | 4.2% | 0hPa | 2.7V | 08:30:00 | 01:37:12 | 00:00:00 | |
| IW2NTF | 2026-09-04 11:13:09 | 44.30170 | 7.92899 | 212° | 22km/h | 21400m | 5.2m/s | -55.5°C | 4.4% | 0hPa | 2.6V | 08:30:00 | 01:37:02 | 00:00:00 | |
| AUTORXJP | 2026-09-04 11:12:58 | 44.30219 | 7.92892 | 170° | 20km/h | 21350m | 4.9m/s | -55.7°C | 1.3% | -1.0hPa | 2.7V | 00:00:00 | 00:00:00 | 00:00:00 | |
| IW2NTF | 2026-09-04 11:12:58 | 44.30219 | 7.92892 | 170° | 22km/h | 21349m | 4.9m/s | -55.7°C | 4.6% | 0hPa | 2.6V | 08:30:00 | 01:36:52 | 00:00:00 | |
| IW2NTF | 2026-09-04 11:12:51 | 44.30256 | 7.92882 | 159° | 15km/h | 21301m | 5.4m/s | -55.7°C | 4.4% | 0hPa | 2.7V | 08:30:00 | 01:36:42 | 00:00:00 | |
| IW2NTF | 2026-09-04 11:12:39 | 44.30266 | 7.92874 | 210° | 2km/h | 21250m | 4.6m/s | -55.4°C | 4.5% | 0hPa | 2.6V | 08:30:00 | 01:36:32 | 00:00:00 | |
| DB0UT-7 | 2026-09-04 11:12:31 | 44.30269 | 7.92879 | 203° | 7km/h | 21227m | 4.3m/s | -55.3°C | 4.4% | 0hPa | 2.6V | 00:00:00 | 01:36:27 | 00:00:00 | |
| IW2NTF | 2026-09-04 11:12:27 | 44.30282 | 7.92881 | 233° | 4km/h | 21197m | 4.8m/s | -55.3°C | 4.5% | 0hPa | 2.7V | 08:30:00 | 01:36:21 | 00:00:00 | |
| AUTORXJP | 2026-09-04 11:12:26 | 44.30281 | 7.92880 | 208° | 5km/h | 21202m | 4.6m/s | -55.4°C | 1.2% | -1.0hPa | 2.7V | 00:00:00 | 00:00:00 | 00:00:00 | |
| IW2NTF | 2026-09-04 11:12:20 | 44.30278 | 7.92885 | 236° | 5km/h | 21146m | 5.7m/s | -55°C | 4.5% | 0hPa | 2.7V | 08:30:00 | 01:36:11 | 00:00:00 | |
| IW2NTF | 2026-09-04 11:12:09 | 44.30268 | 7.92892 | 286° | 11km/h | 21099m | 4.3m/s | -54.5°C | 4.1% | 0hPa | 2.7V | 08:30:00 | 01:36:01 | 00:00:00 | |
| DB0UT-7 | 2026-09-04 11:12:01 | 44.30270 | 7.92906 | 239° | 9km/h | 21080m | 4.7m/s | -54.3°C | 4.2% | 0hPa | 2.7V | 00:00:00 | 00:00:00 | 00:00:00 | |
| IW2NTF | 2026-09-04 11:11:57 | 44.30266 | 7.92913 | 6° | 4km/h | 21049m | 5m/s | -54.3°C | 4.2% | 0hPa | 2.7V | 08:30:00 | 01:35:51 | 00:00:00 | |
| AUTORXJP | 2026-09-04 11:11:55 | 44.30266 | 7.92913 | 6° | 2km/h | 21049m | 5.0m/s | -54.3°C | 1.2% | -1.0hPa | 2.6V | 00:00:00 | 00:00:00 | 00:00:00 | |
| IW2NTF | 2026-09-04 11:11:51 | 44.30269 | 7.92944 | 247° | 20km/h | 20999m | 4.1m/s | -54.3°C | 4.1% | 0hPa | 2.6V | 08:30:00 | 01:35:41 | 00:00:00 | |
| IW2NTF | 2026-09-04 11:11:39 | 44.30280 | 7.92965 | 265° | 7km/h | 20953m | 5.6m/s | -54.4°C | 4.1% | 0hPa | 2.7V | 08:30:00 | 01:35:31 | 00:00:00 | |
| DB0UT-7 | 2026-09-04 11:11:31 | 44.30284 | 7.92981 | 239° | 9km/h | 20934m | 3.3m/s | -54.5°C | 4.1% | 0hPa | 2.7V | 00:00:00 | 01:35:27 | 00:00:00 | |
| IW2NTF | 2026-09-04 11:11:28 | 44.30301 | 7.92989 | 199° | 5km/h | 20904m | 4.7m/s | -54.5°C | 4.1% | 0hPa | 2.7V | 08:30:00 | 01:35:21 | 00:00:00 | |
| AUTORXJP | 2026-09-04 11:11:24 | 44.30301 | 7.92990 | 235° | 2km/h | 20900m | 4.2m/s | -54.5°C | 1.1% | -1.0hPa | 2.7V | 00:00:00 | 00:00:00 | 00:00:00 | |
| IW2NTF | 2026-09-04 11:11:20 | 44.30304 | 7.92975 | 124° | 16km/h | 20853m | 4.9m/s | -55.1°C | 4.3% | 0hPa | 2.7V | 08:30:00 | 01:35:11 | 00:00:00 | |
| IW2NTF | 2026-09-04 11:11:10 | 44.30308 | 7.92932 | 86° | 11km/h | 20805m | 5.5m/s | -55.5°C | 4.4% | 0hPa | 2.6V | 08:30:00 | 01:35:01 | 00:00:00 | |
| DB0UT-7 | 2026-09-04 11:11:01 | 44.30310 | 7.92917 | 105° | 9km/h | 20786m | 4.4m/s | -55.3°C | 4.2% | 0hPa | 2.6V | 00:00:00 | 00:00:00 | 00:00:00 | |
| IW2NTF | 2026-09-04 11:10:58 | 44.30308 | 7.92902 | 29° | 9km/h | 20757m | 5.4m/s | -55.4°C | 4.4% | 0hPa | 2.6V | 08:30:00 | 01:34:51 | 00:00:00 | |
| AUTORXJP | 2026-09-04 11:10:53 | 44.30304 | 7.92899 | 24° | 5km/h | 20747m | 5.3m/s | -55.4°C | 1.3% | -1.0hPa | 2.6V | 00:00:00 | 00:00:00 | 00:00:00 | |
| IW2NTF | 2026-09-04 11:10:46 | 44.30313 | 7.92901 | 202° | 7km/h | 20707m | 4.4m/s | -55.4°C | 4.5% | 0hPa | 2.6V | 08:30:00 | 01:34:41 | 00:00:00 | |
| IW2NTF | 2026-09-04 11:10:40 | 44.30329 | 7.92910 | 205° | 13km/h | 20658m | 4.1m/s | -55.4°C | 4.5% | 0hPa | 2.6V | 08:30:00 | 01:34:31 | 00:00:00 | |
| DB0UT-7 | 2026-09-04 11:10:31 | 44.30345 | 7.92919 | 191° | 20km/h | 20637m | 5.2m/s | -55.1°C | 4.3% | 0hPa | 2.6V | 00:00:00 | 01:34:27 | 00:00:00 | |
| IW2NTF | 2026-09-04 11:10:28 | 44.30373 | 7.92923 | 207° | 16km/h | 20606m | 5.3m/s | -55.3°C | 4.1% | 0hPa | 2.6V | 08:30:00 | 01:34:21 | 00:00:00 | |
| AUTORXJP | 2026-09-04 11:10:22 | 44.30385 | 7.92935 | 210° | 18km/h | 20587m | 5.8m/s | -55.5°C | 1.2% | -1.0hPa | 2.7V | 00:00:00 | 00:00:00 | 00:00:00 | |
| IW2NTF | 2026-09-04 11:10:16 | 44.30418 | 7.92941 | 168° | 22km/h | 20559m | 4.6m/s | -56.1°C | 4.5% | 0hPa | 2.7V | 08:30:00 | 01:34:11 | 00:00:00 | |
| IW2NTF | 2026-09-04 11:10:10 | 44.30464 | 7.92948 | 192° | 20km/h | 20510m | 4.9m/s | -56.6°C | 4.5% | 0hPa | 2.7V | 08:30:00 | 01:34:01 | 00:00:00 | |
| DB0UT-7 | 2026-09-04 11:10:01 | 44.30488 | 7.92955 | 195° | 22km/h | 20492m | 4.8m/s | 0°C | 0% | 0hPa | 2.7V | 00:00:00 | 00:00:00 | 00:00:00 | |
| IW2NTF | 2026-09-04 11:09:58 | 44.30521 | 7.92958 | 162° | 22km/h | 20463m | 4.8m/s | -57.1°C | 4.7% | 0hPa | 2.7V | 08:30:00 | 01:33:51 | 00:00:00 | |
| AUTORXJP | 2026-09-04 11:09:51 | 44.30541 | 7.92949 | 168° | 16km/h | 20444m | 4.2m/s | -57.3°C | 1.4% | -1.0hPa | 2.7V | 00:00:00 | 00:00:00 | 00:00:00 | |
| IW2NTF | 2026-09-04 11:09:46 | 44.30577 | 7.92939 | 171° | 24km/h | 20414m | 4.6m/s | -57.3°C | 4.8% | 0hPa | 2.7V | 08:30:00 | 01:33:41 | 00:00:00 | |
| IW2NTF | 2026-09-04 11:09:40 | 44.30622 | 7.92909 | 148° | 20km/h | 20366m | 4.3m/s | -57.7°C | 4.7% | 0hPa | 2.6V | 08:30:00 | 01:33:31 | 00:00:00 | |
| DB0UT-7 | 2026-09-04 11:09:31 | 44.30642 | 7.92894 | 148° | 26km/h | 20346m | 5.9m/s | 0°C | 0% | 0hPa | 2.7V | 00:00:00 | 01:33:27 | 00:00:00 | |
| IW2NTF | 2026-09-04 11:09:26 | 44.30668 | 7.92861 | 122° | 20km/h | 20318m | 5.6m/s | -58°C | 5% | 0hPa | 2.7V | 08:30:00 | 01:33:21 | 00:00:00 | |
| IW2NTF | 2026-09-04 11:09:21 | 44.30700 | 7.92803 | 126° | 18km/h | 20269m | 5.5m/s | -57.9°C | 5% | 0hPa | 2.6V | 08:30:00 | 01:33:11 | 00:00:00 | |
| AUTORXJP | 2026-09-04 11:09:20 | 44.30683 | 7.92829 | 128° | 16km/h | 20294m | 4.5m/s | -57.9°C | 1.5% | -1.0hPa | 2.6V | 00:00:00 | 00:00:00 | 00:00:00 | |
| IW2NTF | 2026-09-04 11:09:08 | 44.30717 | 7.92746 | 114° | 18km/h | 20220m | 4.4m/s | -57.6°C | 4.9% | 0hPa | 2.6V | 08:30:00 | 01:33:01 | 00:00:00 | |
| IW2NTF | 2026-09-04 11:08:57 | 44.30723 | 7.92700 | 80° | 13km/h | 20172m | 6.2m/s | -57.4°C | 5% | 0hPa | 2.6V | 08:30:00 | 01:32:51 | 00:00:00 | |
| IW2NTF | 2026-09-04 11:08:51 | 44.30722 | 7.92654 | 110° | 9km/h | 20116m | 3.9m/s | -57.1°C | 4.6% | 0hPa | 2.6V | 08:30:00 | 01:32:40 | 00:00:00 | |
| AUTORXJP | 2026-09-04 11:08:49 | 44.30719 | 7.92672 | 84° | 9km/h | 20142m | 5.4m/s | -57.4°C | 1.4% | -1.0hPa | 2.6V | 00:00:00 | 00:00:00 | 00:00:00 | |
| IW2NTF | 2026-09-04 11:08:38 | 44.30709 | 7.92619 | 45° | 11km/h | 20063m | 6.1m/s | -57.2°C | 4.7% | 0hPa | 2.6V | 08:30:00 | 01:32:30 | 00:00:00 | |
| IW2NTF | 2026-09-04 11:08:26 | 44.30698 | 7.92589 | 51° | 15km/h | 20014m | 6m/s | -58.1°C | 5% | 0hPa | 2.6V | 08:30:00 | 01:32:20 | 00:00:00 | |
| IW2NTF | 2026-09-04 11:08:19 | 44.30665 | 7.92574 | 200° | 0km/h | 19962m | 4.4m/s | -57.8°C | 5.1% | 0hPa | 2.7V | 08:30:00 | 01:32:10 | 00:00:00 | |
| AUTORXJP | 2026-09-04 11:08:18 | 44.30671 | 7.92573 | 356° | 15km/h | 19983m | 4.5m/s | -57.9°C | 1.5% | -1.0hPa | 2.6V | 00:00:00 | 00:00:00 | 00:00:00 | |
| IW2NTF | 2026-09-04 11:08:08 | 44.30622 | 7.92580 | 324° | 18km/h | 19912m | 4.8m/s | -57.3°C | 4.9% | 0hPa | 2.6V | 08:30:00 | 01:32:00 | 00:00:00 | |
| IW2NTF | 2026-09-04 11:07:56 | 44.30601 | 7.92599 | 345° | 11km/h | 19860m | 5.7m/s | -57.1°C | 4.8% | 0hPa | 2.7V | 08:30:00 | 01:31:50 | 00:00:00 | |
| IW2NTF | 2026-09-04 11:07:49 | 44.30581 | 7.92629 | 313° | 5km/h | 19811m | 5m/s | -56.8°C | 4.6% | 0hPa | 2.7V | 08:30:00 | 01:31:40 | 00:00:00 | |
| AUTORXJP | 2026-09-04 11:07:47 | 44.30582 | 7.92623 | 277° | 11km/h | 19821m | 4.4m/s | -56.8°C | 1.4% | -1.0hPa | 2.7V | 00:00:00 | 00:00:00 | 00:00:00 | |
| IW2NTF | 2026-09-04 11:07:38 | 44.30557 | 7.92635 | 271° | 9km/h | 19760m | 5.9m/s | -56.8°C | 4.7% | 0hPa | 2.7V | 08:30:00 | 01:31:30 | 00:00:00 | |
| IW2NTF | 2026-09-04 11:07:27 | 44.30548 | 7.92658 | 320° | 5km/h | 19710m | 5.3m/s | -57.1°C | 4.8% | 0hPa | 2.7V | 08:30:00 | 01:31:20 | 00:00:00 | |
| AUTORXJP | 2026-09-04 11:07:16 | 44.30567 | 7.92680 | 178° | 9km/h | 19663m | 4.1m/s | -56.6°C | 1.5% | -1.0hPa | 2.7V | 00:00:00 | 00:00:00 | 00:00:00 | |
| IW2NTF | 2026-09-04 11:07:14 | 44.30570 | 7.92679 | 161° | 4km/h | 19653m | 5.5m/s | -56.5°C | 4.7% | 0hPa | 2.7V | 08:30:00 | 01:31:09 | 00:00:00 | |
| IW2NTF | 2026-09-04 11:07:08 | 44.30587 | 7.92680 | 183° | 18km/h | 19602m | 4.9m/s | -56.6°C | 4.5% | 0hPa | 2.7V | 08:30:00 | 01:30:59 | 00:00:00 | |
| IW2NTF | 2026-09-04 11:06:56 | 44.30605 | 7.92662 | 105° | 5km/h | 19554m | 4m/s | -56.7°C | 4.4% | 0hPa | 2.6V | 08:30:00 | 01:30:49 | 00:00:00 | |
| AUTORXJP | 2026-09-04 11:06:45 | 44.30618 | 7.92643 | 97° | 9km/h | 19511m | 4.4m/s | -57.7°C | 1.5% | -1.0hPa | 2.6V | 00:00:00 | 00:00:00 | 00:00:00 | |
| IW2NTF | 2026-09-04 11:06:44 | 44.30618 | 7.92640 | 74° | 7km/h | 19506m | 5.7m/s | -57.8°C | 4.8% | 0hPa | 2.6V | 08:30:00 | 01:30:39 | 00:00:00 | |
| IW2NTF | 2026-09-04 11:06:38 | 44.30624 | 7.92627 | 134° | 15km/h | 19459m | 3.8m/s | -57.7°C | 4.7% | 0hPa | 2.6V | 08:30:00 | 01:30:29 | 00:00:00 | |
| IW2NTF | 2026-09-04 11:06:26 | 44.30657 | 7.92607 | 166° | 13km/h | 19410m | 3.6m/s | -58.5°C | 5% | 0hPa | 2.6V | 08:30:00 | 01:30:19 | 00:00:00 | |
| IW2NTF | 2026-09-04 11:06:14 | 44.30719 | 7.92552 | 133° | 27km/h | 19352m | 5.1m/s | -59°C | 5% | 0hPa | 2.6V | 08:30:00 | 01:30:07 | 00:00:00 | |
| AUTORXJP | 2026-09-04 11:06:14 | 44.30709 | 7.92565 | 141° | 26km/h | 19363m | 5.2m/s | -59.0°C | 1.6% | -1.0hPa | 2.7V | 00:00:00 | 00:00:00 | 00:00:00 | |
| IW2NTF | 2026-09-04 11:06:02 | 44.30772 | 7.92477 | 140° | 26km/h | 19303m | 3.9m/s | -59°C | 5.3% | 0hPa | 2.7V | 08:30:00 | 01:29:56 | 00:00:00 | |
| IW2NTF | 2026-09-04 11:05:55 | 44.30802 | 7.92417 | 115° | 18km/h | 19257m | 4.8m/s | -59.1°C | 5.1% | 0hPa | 2.6V | 08:30:00 | 01:29:46 | 00:00:00 | |
| IW2NTF | 2026-09-04 11:05:44 | 44.30827 | 7.92363 | 115° | 13km/h | 19211m | 4.2m/s | -59.1°C | 5.3% | 0hPa | 2.6V | 08:30:00 | 01:29:36 | 00:00:00 | |
| AUTORXJP | 2026-09-04 11:05:43 | 44.30823 | 7.92373 | 126° | 18km/h | 19220m | 5.4m/s | -59.1°C | 1.6% | -1.0hPa | 2.6V | 00:00:00 | 00:00:00 | 00:00:00 | |
| IW2NTF | 2026-09-04 11:05:32 | 44.30880 | 7.92308 | 142° | 18km/h | 19121m | 4.1m/s | -59.3°C | 5.3% | 0hPa | 2.6V | 08:30:00 | 01:29:16 | 00:00:00 | |
| IW2NTF | 2026-09-04 11:05:29 | 44.30898 | 7.92291 | 147° | 20km/h | 19103m | 5m/s | -59.3°C | 5.4% | 0hPa | 2.6V | 08:30:00 | 01:29:12 | 00:00:00 | |
| AUTORXJP | 2026-09-04 11:05:14 | 44.30921 | 7.92274 | 151° | 20km/h | 19081m | 3.9m/s | -59.3°C | 1.6% | -1.0hPa | 2.7V | 00:00:00 | 00:00:00 | 00:00:00 | |
| IW2NTF | 2026-09-04 11:05:12 | 44.30941 | 7.92256 | 153° | 22km/h | 19058m | 4.9m/s | -59.1°C | 5.1% | 0hPa | 2.7V | 08:30:00 | 01:29:02 | 00:00:00 | |
| IW2NTF | 2026-09-04 11:05:01 | 44.31006 | 7.92215 | 142° | 29km/h | 19010m | 5m/s | -59.9°C | 5.4% | 0hPa | 2.7V | 08:30:00 | 01:28:52 | 00:00:00 | |
| IW2NTF | 2026-09-04 11:04:50 | 44.31079 | 7.92133 | 140° | 44km/h | 18964m | 4.7m/s | -60.4°C | 5.4% | 0hPa | 2.7V | 08:30:00 | 01:28:42 | 00:00:00 | |
| AUTORXJP | 2026-09-04 11:04:40 | 44.31119 | 7.92071 | 125° | 33km/h | 18937m | 5.2m/s | -60.4°C | 1.7% | -1.0hPa | 2.7V | 00:00:00 | 00:00:00 | 00:00:00 | |
| IW2NTF | 2026-09-04 11:04:37 | 44.31137 | 7.92031 | 118° | 37km/h | 18918m | 5.1m/s | -60.4°C | 5.5% | 0hPa | 2.7V | 08:30:00 | 01:28:32 | 00:00:00 | |
| IW2NTF | 2026-09-04 11:04:30 | 44.31182 | 7.91939 | 123° | 27km/h | 18870m | 4.4m/s | -60.5°C | 5.7% | 0hPa | 2.6V | 08:30:00 | 01:28:22 | 00:00:00 | |
| IW2NTF | 2026-09-04 11:04:17 | 44.31219 | 7.91851 | 131° | 24km/h | 18824m | 4.6m/s | -60.6°C | 5.6% | 0hPa | 2.6V | 08:30:00 | 01:28:12 | 00:00:00 | |
| IW2NTF | 2026-09-04 11:04:11 | 44.31239 | 7.91791 | 112° | 20km/h | 18775m | 5.5m/s | -60.5°C | 5.7% | 0hPa | 2.6V | 08:30:00 | 01:28:02 | 00:00:00 | |
| AUTORXJP | 2026-09-04 11:04:09 | 44.31236 | 7.91811 | 103° | 20km/h | 18790m | 4.1m/s | -60.5°C | 1.7% | -1.0hPa | 2.6V | 00:00:00 | 00:00:00 | 00:00:00 | |
| IW2NTF | 2026-09-04 11:04:00 | 44.31258 | 7.91741 | 96° | 18km/h | 18726m | 5.5m/s | -60.5°C | 5.4% | 0hPa | 2.6V | 08:30:00 | 01:27:52 | 00:00:00 | |
| IW2NTF | 2026-09-04 11:03:47 | 44.31269 | 7.91707 | 134° | 9km/h | 18676m | 3.7m/s | -60.5°C | 5.8% | 0hPa | 2.6V | 08:30:00 | 01:27:42 | 00:00:00 | |
| IW2NTF | 2026-09-04 11:03:41 | 44.31268 | 7.91673 | 124° | 7km/h | 18629m | 4.3m/s | -60.3°C | 5.5% | 0hPa | 2.7V | 08:30:00 | 01:27:32 | 00:00:00 | |
| AUTORXJP | 2026-09-04 11:03:38 | 44.31267 | 7.91679 | 82° | 9km/h | 18638m | 6.0m/s | -60.3°C | 1.8% | -1.0hPa | 2.7V | 00:00:00 | 00:00:00 | 00:00:00 | |
| IW2NTF | 2026-09-04 11:03:30 | 44.31294 | 7.91636 | 110° | 22km/h | 18579m | 4.2m/s | -60.3°C | 5.5% | 0hPa | 2.7V | 08:30:00 | 01:27:22 | 00:00:00 | |
| IW2NTF | 2026-09-04 11:03:17 | 44.31322 | 7.91579 | 128° | 24km/h | 18530m | 5.2m/s | -60.6°C | 5.6% | 0hPa | 2.7V | 08:30:00 | 01:27:12 | 00:00:00 | |
| IW2NTF | 2026-09-04 11:03:11 | 44.31376 | 7.91502 | 124° | 31km/h | 18480m | 5.3m/s | -60.6°C | 5.8% | 0hPa | 2.7V | 08:30:00 | 01:27:02 | 00:00:00 | |
| AUTORXJP | 2026-09-04 11:03:07 | 44.31376 | 7.91502 | 124° | 29km/h | 18480m | 5.3m/s | -60.6°C | 1.9% | -1.0hPa | 2.6V | 00:00:00 | 00:00:00 | 00:00:00 | |
| IW2NTF | 2026-09-04 11:02:59 | 44.31409 | 7.91417 | 131° | 24km/h | 18431m | 3.4m/s | -60.4°C | 5.6% | 0hPa | 2.6V | 08:30:00 | 01:26:52 | 00:00:00 | |
| IW2NTF | 2026-09-04 11:02:48 | 44.31438 | 7.91351 | 102° | 22km/h | 18384m | 4.9m/s | -60.3°C | 5.6% | 0hPa | 2.7V | 08:30:00 | 01:26:42 | 00:00:00 | |
| IW2NTF | 2026-09-04 11:02:41 | 44.31464 | 7.91282 | 116° | 18km/h | 18337m | 4.9m/s | -60.3°C | 5.6% | 0hPa | 2.6V | 08:30:00 | 01:26:32 | 00:00:00 | |
| AUTORXJP | 2026-09-04 11:02:36 | 44.31464 | 7.91282 | 116° | 18km/h | 18337m | 4.9m/s | -60.3°C | 1.8% | -1.0hPa | 2.6V | 00:00:00 | 00:00:00 | 00:00:00 | |
| IW2NTF | 2026-09-04 11:02:30 | 44.31481 | 7.91213 | 117° | 26km/h | 18290m | 3.4m/s | -60.1°C | 5.6% | 0hPa | 2.6V | 08:30:00 | 01:26:22 | 00:00:00 | |
| IW2NTF | 2026-09-04 11:02:17 | 44.31503 | 7.91138 | 112° | 24km/h | 18242m | 5.4m/s | -60.1°C | 5.5% | 0hPa | 2.6V | 08:30:00 | 01:26:12 | 00:00:00 | |
| IW2NTF | 2026-09-04 11:02:12 | 44.31543 | 7.91058 | 121° | 27km/h | 18197m | 4.8m/s | -59.8°C | 5.6% | 0hPa | 2.6V | 08:30:00 | 01:26:02 | 00:00:00 | |
| AUTORXJP | 2026-09-04 11:02:05 | 44.31546 | 7.91050 | 119° | 27km/h | 18191m | 5.4m/s | -59.9°C | 1.8% | -1.0hPa | 2.7V | 00:00:00 | 00:00:00 | 00:00:00 | |
| IW2NTF | 2026-09-04 11:02:00 | 44.31575 | 7.90965 | 118° | 38km/h | 18150m | 4.4m/s | -59.8°C | 5.7% | 0hPa | 2.7V | 08:30:00 | 01:25:52 | 00:00:00 | |
| IW2NTF | 2026-09-04 11:01:52 | 44.31617 | 7.90852 | 109° | 35km/h | 18103m | 5.6m/s | -59.5°C | 5.5% | 0hPa | 2.6V | 08:30:00 | 01:25:42 | 00:00:00 | |
| IW2NTF | 2026-09-04 11:01:41 | 44.31645 | 7.90715 | 111° | 46km/h | 18055m | 4.2m/s | -59°C | 5.4% | 0hPa | 2.7V | 08:30:00 | 01:25:32 | 00:00:00 | |
| AUTORXJP | 2026-09-04 11:01:34 | 44.31652 | 7.90686 | 103° | 42km/h | 18046m | 3.7m/s | -58.9°C | 1.9% | -1.0hPa | 2.7V | 00:00:00 | 00:00:00 | 00:00:00 | |
| IW2NTF | 2026-09-04 11:01:31 | 44.31667 | 7.90564 | 107° | 40km/h | 18011m | 5.3m/s | -58.8°C | 5.2% | 0hPa | 2.7V | 08:30:00 | 01:25:22 | 00:00:00 | |
| IW2NTF | 2026-09-04 11:01:21 | 44.31702 | 7.90408 | 98° | 49km/h | 17965m | 5m/s | -58.5°C | 5.2% | 0hPa | 2.8V | 08:30:00 | 01:25:12 | 00:00:00 | |
| IW2NTF | 2026-09-04 11:01:11 | 44.31723 | 7.90250 | 106° | 51km/h | 17923m | 3.2m/s | -58.9°C | 5.2% | 0hPa | 2.7V | 08:30:00 | 01:25:02 | 00:00:00 | |
| AUTORXJP | 2026-09-04 11:01:03 | 44.31734 | 7.90201 | 109° | 44km/h | 17911m | 4.1m/s | -59.1°C | 1.7% | -1.0hPa | 2.7V | 00:00:00 | 00:00:00 | 00:00:00 | |
| IW2NTF | 2026-09-04 11:01:02 | 44.31750 | 7.90087 | 98° | 51km/h | 17878m | 4.3m/s | -59.8°C | 5.7% | 0hPa | 2.7V | 08:30:00 | 01:24:52 | 00:00:00 | |
| IW2NTF | 2026-09-04 11:00:52 | 44.31749 | 7.89942 | 85° | 38km/h | 17835m | 3.8m/s | -59.6°C | 5.5% | 0hPa | 2.6V | 08:30:00 | 01:24:42 | 00:00:00 | |
| IW2NTF | 2026-09-04 11:00:41 | 44.31742 | 7.89822 | 74° | 27km/h | 17792m | 5.4m/s | -59.4°C | 5.5% | 0hPa | 2.7V | 08:30:00 | 01:24:32 | 00:00:00 | |
| AUTORXJP | 2026-09-04 11:00:32 | 44.31733 | 7.89775 | 85° | 27km/h | 17771m | 3.2m/s | -59.3°C | 1.8% | -1.0hPa | 2.7V | 00:00:00 | 00:00:00 | 00:00:00 | |
| IW2NTF | 2026-09-04 11:00:31 | 44.31730 | 7.89722 | 86° | 29km/h | 17749m | 4m/s | -59.4°C | 5.3% | 0hPa | 2.7V | 08:30:00 | 01:24:22 | 00:00:00 | |
| IW2NTF | 2026-09-04 11:00:21 | 44.31715 | 7.89618 | 90° | 27km/h | 17705m | 5.1m/s | -59.7°C | 5.7% | 0hPa | 2.6V | 08:30:00 | 01:24:12 | 00:00:00 | |
| IW2NTF | 2026-09-04 11:00:11 | 44.31693 | 7.89554 | 59° | 20km/h | 17658m | 5.6m/s | -59.5°C | 5.4% | 0hPa | 2.7V | 08:30:00 | 01:24:02 | 00:00:00 | |
| IW2NTF | 2026-09-04 11:00:01 | 44.31682 | 7.89503 | 59° | 13km/h | 17606m | 5.1m/s | -59.4°C | 5.5% | 0hPa | 2.7V | 08:30:00 | 01:23:52 | 00:00:00 | |
| AUTORXJP | 2026-09-04 11:00:01 | 44.31686 | 7.89518 | 86° | 9km/h | 17627m | 4.7m/s | -59.5°C | 1.8% | -1.0hPa | 2.6V | 00:00:00 | 00:00:00 | 00:00:00 | |
| IW2NTF | 2026-09-04 10:59:49 | 44.31668 | 7.89478 | 56° | 11km/h | 17552m | 4.5m/s | -59.6°C | 5.6% | 0hPa | 2.6V | 08:30:00 | 01:23:40 | 00:00:00 | |
| IW2NTF | 2026-09-04 10:59:39 | 44.31668 | 7.89463 | 103° | 2km/h | 17507m | 5m/s | -59.2°C | 5.4% | 0hPa | 2.7V | 08:30:00 | 01:23:30 | 00:00:00 | |
| IW2NTF | 2026-09-04 10:59:30 | 44.31667 | 7.89464 | 173° | 9km/h | 17463m | 5.3m/s | -59.1°C | 5.5% | 0hPa | 2.8V | 08:30:00 | 01:23:20 | 00:00:00 | |
| IW2NTF | 2026-09-04 10:59:19 | 44.31685 | 7.89442 | 147° | 4km/h | 17418m | 4.9m/s | -59.3°C | 5.4% | 0hPa | 2.8V | 08:30:00 | 01:23:10 | 00:00:00 | |
| IW2NTF | 2026-09-04 10:59:09 | 44.31713 | 7.89441 | 163° | 20km/h | 17375m | 4.8m/s | -59.1°C | 5.5% | 0hPa | 2.8V | 08:30:00 | 01:23:00 | 00:00:00 | |
| IW2NTF | 2026-09-04 10:58:59 | 44.31748 | 7.89420 | 146° | 18km/h | 17328m | 4m/s | -59.3°C | 5.7% | 0hPa | 2.7V | 08:30:00 | 01:22:50 | 00:00:00 | |
| AUTORXJP | 2026-09-04 10:58:59 | 44.31736 | 7.89431 | 162° | 11km/h | 17346m | 4.2m/s | -59.2°C | 2.1% | -1.0hPa | 2.7V | 00:00:00 | 00:00:00 | 00:00:00 | |
| IW2NTF | 2026-09-04 10:58:49 | 44.31805 | 7.89393 | 170° | 18km/h | 17280m | 5.3m/s | -59.4°C | 5.5% | 0hPa | 2.7V | 08:30:00 | 01:22:40 | 00:00:00 | |
| IW2NTF | 2026-09-04 10:58:40 | 44.31863 | 7.89366 | 176° | 33km/h | 17233m | 3.4m/s | -60.2°C | 6.1% | 0hPa | 2.8V | 08:30:00 | 01:22:30 | 00:00:00 | |
| IW2NTF | 2026-09-04 10:58:29 | 44.31930 | 7.89331 | 145° | 29km/h | 17187m | 4.6m/s | -60.1°C | 6% | 0hPa | 2.7V | 08:30:00 | 01:22:20 | 00:00:00 | |
| AUTORXJP | 2026-09-04 10:58:28 | 44.31918 | 7.89342 | 145° | 27km/h | 17197m | 5.9m/s | -60.2°C | 2.2% | -1.0hPa | 2.8V | 00:00:00 | 00:00:00 | 00:00:00 | |
| IW2NTF | 2026-09-04 10:58:19 | 44.31992 | 7.89287 | 147° | 22km/h | 17142m | 4.3m/s | -60.2°C | 6.1% | 0hPa | 2.8V | 08:30:00 | 01:22:10 | 00:00:00 | |
| IW2NTF | 2026-09-04 10:58:09 | 44.32056 | 7.89239 | 152° | 38km/h | 17097m | 3.6m/s | -60.7°C | 6.4% | 0hPa | 2.8V | 08:30:00 | 01:22:00 | 00:00:00 | |
| IW2NTF | 2026-09-04 10:57:59 | 44.32125 | 7.89172 | 144° | 37km/h | 17052m | 5.3m/s | -60.6°C | 6.6% | 0hPa | 2.7V | 08:30:00 | 01:21:50 | 00:00:00 | |
| AUTORXJP | 2026-09-04 10:57:56 | 44.32112 | 7.89186 | 142° | 31km/h | 17061m | 4.7m/s | -60.5°C | 2.6% | -1.0hPa | 2.7V | 00:00:00 | 00:00:00 | 00:00:00 | |
| IW2NTF | 2026-09-04 10:57:49 | 44.32207 | 7.89086 | 133° | 37km/h | 17005m | 4.3m/s | -60.8°C | 6.8% | 0hPa | 2.7V | 08:30:00 | 01:21:40 | 00:00:00 | |
| IW2NTF | 2026-09-04 10:57:39 | 44.32269 | 7.88984 | 122° | 35km/h | 16958m | 5.6m/s | -61°C | 6.9% | 0hPa | 2.7V | 08:30:00 | 01:21:30 | 00:00:00 | |
| IW2NTF | 2026-09-04 10:57:29 | 44.32317 | 7.88883 | 126° | 38km/h | 16911m | 4.5m/s | -61°C | 6.9% | 0hPa | 2.7V | 08:30:00 | 01:21:20 | 00:00:00 | |
| AUTORXJP | 2026-09-04 10:57:25 | 44.32312 | 7.88894 | 127° | 37km/h | 16915m | 4.0m/s | -60.9°C | 2.9% | -1.0hPa | 2.8V | 00:00:00 | 00:00:00 | 00:00:00 | |
| IW2NTF | 2026-09-04 10:57:19 | 44.32368 | 7.88765 | 118° | 40km/h | 16864m | 4.9m/s | -60.9°C | 7.2% | 0hPa | 2.8V | 08:30:00 | 01:21:10 | 00:00:00 | |
| IW2NTF | 2026-09-04 10:57:10 | 44.32415 | 7.88641 | 110° | 35km/h | 16818m | 3.6m/s | -61.2°C | 7.3% | 0hPa | 2.7V | 08:30:00 | 01:21:00 | 00:00:00 | |
| IW2NTF | 2026-09-04 10:56:59 | 44.32447 | 7.88543 | 108° | 29km/h | 16771m | 4.7m/s | -61.9°C | 8.1% | 0hPa | 2.8V | 08:30:00 | 01:20:50 | 00:00:00 | |
| AUTORXJP | 2026-09-04 10:56:54 | 44.32447 | 7.88543 | 108° | 29km/h | 16771m | 4.7m/s | -61.9°C | 3.7% | -1.0hPa | 2.8V | 00:00:00 | 00:00:00 | 00:00:00 | |
| IW2NTF | 2026-09-04 10:56:50 | 44.32486 | 7.88446 | 123° | 38km/h | 16726m | 4.1m/s | -61.7°C | 7.9% | 0hPa | 2.8V | 08:30:00 | 01:20:40 | 00:00:00 | |
| IW2NTF | 2026-09-04 10:56:40 | 44.32531 | 7.88333 | 118° | 31km/h | 16678m | 3.7m/s | -61.9°C | 7.8% | 0hPa | 2.8V | 08:30:00 | 01:20:30 | 00:00:00 | |
| IW2NTF | 2026-09-04 10:56:26 | 44.32576 | 7.88218 | 103° | 22km/h | 16618m | 5.3m/s | -63.1°C | 8.5% | 0hPa | 2.7V | 08:30:00 | 01:20:17 | 00:00:00 | |
| AUTORXJP | 2026-09-04 10:56:23 | 44.32573 | 7.88232 | 111° | 20km/h | 16627m | 4.4m/s | -63.1°C | 4.1% | -1.0hPa | 2.7V | 00:00:00 | 00:00:00 | 00:00:00 | |
| IW2NTF | 2026-09-04 10:56:15 | 44.32610 | 7.88121 | 130° | 29km/h | 16567m | 4.6m/s | -63.4°C | 8.4% | 0hPa | 2.7V | 08:30:00 | 01:20:06 | 00:00:00 | |
| IW2NTF | 2026-09-04 10:56:05 | 44.32654 | 7.88024 | 125° | 35km/h | 16517m | 4.6m/s | -63.9°C | 8.8% | 0hPa | 2.7V | 08:30:00 | 01:19:55 | 00:00:00 | |
| IW2NTF | 2026-09-04 10:55:54 | 44.32695 | 7.87946 | 114° | 27km/h | 16472m | 4.4m/s | -64°C | 8.8% | 0hPa | 2.7V | 08:30:00 | 01:19:45 | 00:00:00 | |
| AUTORXJP | 2026-09-04 10:55:52 | 44.32690 | 7.87963 | 116° | 24km/h | 16481m | 3.6m/s | -64.0°C | 4.0% | -1.0hPa | 2.7V | 00:00:00 | 00:00:00 | 00:00:00 | |
| IW2NTF | 2026-09-04 10:55:43 | 44.32718 | 7.87835 | 101° | 31km/h | 16422m | 5m/s | -63.8°C | 8.7% | 0hPa | 2.7V | 08:30:00 | 01:19:34 | 00:00:00 | |
| IW2NTF | 2026-09-04 10:55:33 | 44.32720 | 7.87727 | 92° | 27km/h | 16375m | 4m/s | -63.5°C | 8.6% | 0hPa | 2.7V | 08:30:00 | 01:19:24 | 00:00:00 | |
| AUTORXJP | 2026-09-04 10:55:21 | 44.32715 | 7.87652 | 76° | 29km/h | 16345m | 5.4m/s | -63.3°C | 3.7% | -1.0hPa | 2.7V | 00:00:00 | 00:00:00 | 00:00:00 | |
| IW2NTF | 2026-09-04 10:55:20 | 44.32710 | 7.87598 | 90° | 26km/h | 16318m | 4.7m/s | -63.2°C | 8.3% | 0hPa | 2.7V | 08:30:00 | 01:19:11 | 00:00:00 | |
| IW2NTF | 2026-09-04 10:55:11 | 44.32698 | 7.87494 | 74° | 24km/h | 16275m | 3.5m/s | -63°C | 8.3% | 0hPa | 2.8V | 08:30:00 | 01:19:01 | 00:00:00 | |
| IW2NTF | 2026-09-04 10:55:02 | 44.32681 | 7.87407 | 79° | 24km/h | 16231m | 4m/s | -62.8°C | 8.1% | 0hPa | 2.8V | 08:30:00 | 01:18:51 | 00:00:00 | |
| IW2NTF | 2026-09-04 10:54:50 | 44.32689 | 7.87332 | 92° | 22km/h | 16188m | 4.5m/s | -62.6°C | 8.1% | 0hPa | 2.8V | 08:30:00 | 01:18:41 | 00:00:00 | |
| AUTORXJP | 2026-09-04 10:54:50 | 44.32681 | 7.87370 | 104° | 22km/h | 16209m | 5.3m/s | -62.8°C | 3.6% | -1.0hPa | 2.7V | 00:00:00 | 00:00:00 | 00:00:00 | |
| IW2NTF | 2026-09-04 10:54:40 | 44.32683 | 7.87264 | 100° | 16km/h | 16144m | 5.1m/s | -62.3°C | 8% | 0hPa | 2.7V | 08:30:00 | 01:18:31 | 00:00:00 | |
| IW2NTF | 2026-09-04 10:54:30 | 44.32681 | 7.87203 | 78° | 15km/h | 16097m | 4.9m/s | -62°C | 8% | 0hPa | 2.7V | 08:30:00 | 01:18:21 | 00:00:00 | |
| IW2NTF | 2026-09-04 10:54:20 | 44.32680 | 7.87152 | 71° | 18km/h | 16053m | 4.7m/s | -61.7°C | 8.1% | 0hPa | 2.7V | 08:30:00 | 01:18:11 | 00:00:00 | |
| AUTORXJP | 2026-09-04 10:54:19 | 44.32682 | 7.87174 | 94° | 15km/h | 16072m | 5.0m/s | -61.8°C | 3.7% | -1.0hPa | 2.8V | 00:00:00 | 00:00:00 | 00:00:00 | |
| IW2NTF | 2026-09-04 10:54:10 | 44.32681 | 7.87101 | 94° | 9km/h | 16007m | 3m/s | -61.5°C | 7.7% | 0hPa | 2.8V | 08:30:00 | 01:18:01 | 00:00:00 | |
| IW2NTF | 2026-09-04 10:54:00 | 44.32692 | 7.87041 | 109° | 22km/h | 15962m | 5.1m/s | -61.4°C | 8.4% | 0hPa | 2.7V | 08:30:00 | 01:17:51 | 00:00:00 | |
| IW2NTF | 2026-09-04 10:53:52 | 44.32710 | 7.86985 | 101° | 18km/h | 15917m | 4.1m/s | -61.7°C | 8.2% | 0hPa | 2.8V | 08:30:00 | 01:17:41 | 00:00:00 | |
| AUTORXJP | 2026-09-04 10:53:48 | 44.32708 | 7.86991 | 110° | 16km/h | 15921m | 4.5m/s | -61.7°C | 4.0% | -1.0hPa | 2.8V | 00:00:00 | 00:00:00 | 00:00:00 | |
| IW2NTF | 2026-09-04 10:53:40 | 44.32725 | 7.86922 | 113° | 18km/h | 15874m | 4.8m/s | -62.2°C | 9% | 0hPa | 2.8V | 08:30:00 | 01:17:31 | 00:00:00 | |
| IW2NTF | 2026-09-04 10:53:30 | 44.32747 | 7.86862 | 98° | 22km/h | 15830m | 4.6m/s | -62.8°C | 9.1% | 0hPa | 2.7V | 08:30:00 | 01:17:21 | 00:00:00 | |
| IW2NTF | 2026-09-04 10:53:20 | 44.32785 | 7.86803 | 139° | 29km/h | 15786m | 4.1m/s | -63°C | 10.1% | 0hPa | 2.8V | 08:30:00 | 01:17:11 | 00:00:00 | |
| AUTORXJP | 2026-09-04 10:53:17 | 44.32779 | 7.86809 | 146° | 29km/h | 15790m | 4.7m/s | -62.9°C | 5.2% | -1.0hPa | 2.7V | 00:00:00 | 00:00:00 | 00:00:00 | |
| IW2NTF | 2026-09-04 10:53:11 | 44.32831 | 7.86731 | 137° | 38km/h | 15743m | 4m/s | -62.8°C | 9.9% | 0hPa | 2.7V | 08:30:00 | 01:17:01 | 00:00:00 | |
| IW2NTF | 2026-09-04 10:53:00 | 44.32881 | 7.86639 | 129° | 27km/h | 15697m | 4m/s | -62.6°C | 10.5% | 0hPa | 2.8V | 08:30:00 | 01:16:51 | 00:00:00 | |
| IW2NTF | 2026-09-04 10:52:50 | 44.32935 | 7.86533 | 112° | 33km/h | 15653m | 5.5m/s | -62.7°C | 10.5% | 0hPa | 2.8V | 08:30:00 | 01:16:41 | 00:00:00 | |
| AUTORXJP | 2026-09-04 10:52:46 | 44.32934 | 7.86533 | 112° | 33km/h | 15653m | 5.5m/s | -62.7°C | 5.8% | -1.0hPa | 2.8V | 00:00:00 | 00:00:00 | 00:00:00 | |
| IW2NTF | 2026-09-04 10:52:40 | 44.32977 | 7.86433 | 125° | 40km/h | 15611m | 4.9m/s | -63.1°C | 11.6% | 0hPa | 2.8V | 08:30:00 | 01:16:31 | 00:00:00 | |
| IW2NTF | 2026-09-04 10:52:30 | 44.33017 | 7.86315 | 121° | 38km/h | 15566m | 5m/s | -63.5°C | 12.4% | 0hPa | 2.7V | 08:30:00 | 01:16:21 | 00:00:00 | |
| IW2NTF | 2026-09-04 10:52:21 | 44.33074 | 7.86193 | 123° | 37km/h | 15522m | 4.4m/s | -63.6°C | 13.2% | 0hPa | 2.8V | 08:30:00 | 01:16:11 | 00:00:00 | |
| AUTORXJP | 2026-09-04 10:52:15 | 44.33079 | 7.86182 | 124° | 37km/h | 15517m | 4.4m/s | -63.6°C | 7.8% | -1.0hPa | 2.8V | 00:00:00 | 00:00:00 | 00:00:00 | |
| IW2NTF | 2026-09-04 10:52:10 | 44.33144 | 7.86089 | 132° | 46km/h | 15479m | 4.4m/s | -63.7°C | 14.3% | 0hPa | 2.8V | 08:30:00 | 01:16:01 | 00:00:00 | |
| IW2NTF | 2026-09-04 10:52:00 | 44.33214 | 7.85972 | 134° | 42km/h | 15437m | 4.1m/s | -64.1°C | 14.8% | 0hPa | 2.7V | 08:30:00 | 01:15:51 | 00:00:00 | |
| IW2NTF | 2026-09-04 10:51:50 | 44.33289 | 7.85852 | 132° | 47km/h | 15395m | 5.4m/s | -64.2°C | 14.8% | 0hPa | 2.7V | 08:30:00 | 01:15:41 | 00:00:00 | |
| AUTORXJP | 2026-09-04 10:51:44 | 44.33307 | 7.85827 | 136° | 49km/h | 15386m | 4.3m/s | -64.4°C | 9.4% | -1.0hPa | 2.8V | 00:00:00 | 00:00:00 | 00:00:00 | |
| IW2NTF | 2026-09-04 10:51:40 | 44.33378 | 7.85740 | 128° | 42km/h | 15354m | 3.5m/s | -64.4°C | 16.5% | 0hPa | 2.8V | 08:30:00 | 01:15:31 | 00:00:00 | |
| IW2NTF | 2026-09-04 10:51:30 | 44.33455 | 7.85630 | 139° | 53km/h | 15313m | 5.2m/s | -64.8°C | 17.6% | 0hPa | 2.7V | 08:30:00 | 01:15:21 | 00:00:00 | |
| IW2NTF | 2026-09-04 10:51:21 | 44.33539 | 7.85507 | 131° | 44km/h | 15271m | 3.1m/s | -65°C | 18.4% | 0hPa | 2.7V | 08:30:00 | 01:15:11 | 00:00:00 | |
| AUTORXJP | 2026-09-04 10:51:12 | 44.33569 | 7.85459 | 131° | 44km/h | 15254m | 4.5m/s | -65.0°C | 13.1% | -1.0hPa | 2.8V | 00:00:00 | 00:00:00 | 00:00:00 | |
| IW2NTF | 2026-09-04 10:51:10 | 44.33609 | 7.85388 | 130° | 42km/h | 15231m | 4.7m/s | -65.2°C | 21.2% | 0hPa | 2.8V | 08:30:00 | 01:15:01 | 00:00:00 | |
| IW2NTF | 2026-09-04 10:51:01 | 44.33695 | 7.85257 | 127° | 51km/h | 15189m | 4.1m/s | -65.1°C | 22.6% | 0hPa | 2.7V | 08:30:00 | 01:14:51 | 00:00:00 | |
| IW2NTF | 2026-09-04 10:50:50 | 44.33771 | 7.85128 | 128° | 55km/h | 15146m | 4m/s | -65.4°C | 26.3% | 0hPa | 2.7V | 08:30:00 | 01:14:41 | 00:00:00 | |
| AUTORXJP | 2026-09-04 10:50:41 | 44.33805 | 7.85066 | 126° | 51km/h | 15130m | 3.8m/s | -65.5°C | 19.1% | -1.0hPa | 2.8V | 00:00:00 | 00:00:00 | 00:00:00 | |
| IW2NTF | 2026-09-04 10:50:39 | 44.33856 | 7.84972 | 131° | 47km/h | 15102m | 3.9m/s | -66.4°C | 29% | 0hPa | 2.8V | 08:30:00 | 01:14:30 | 00:00:00 | |
| IW2NTF | 2026-09-04 10:50:29 | 44.33943 | 7.84849 | 139° | 49km/h | 15057m | 5m/s | -66.5°C | 32% | 0hPa | 2.8V | 08:30:00 | 01:14:20 | 00:00:00 | |
| IW2NTF | 2026-09-04 10:50:19 | 44.34045 | 7.84735 | 139° | 51km/h | 15015m | 4.1m/s | -66.6°C | 33.3% | 0hPa | 2.8V | 08:30:00 | 01:14:10 | 00:00:00 | |
| IW2NTF | 2026-09-04 10:50:09 | 44.34149 | 7.84610 | 133° | 62km/h | 14968m | 5.7m/s | -66.7°C | 34.1% | 0hPa | 2.7V | 08:30:00 | 01:14:00 | 00:00:00 | |
| IW2NTF | 2026-09-04 10:49:59 | 44.34260 | 7.84472 | 147° | 62km/h | 14925m | 3.8m/s | -66.7°C | 36.6% | 0hPa | 2.7V | 08:30:00 | 01:13:50 | 00:00:00 | |
| IW2NTF | 2026-09-04 10:49:50 | 44.34389 | 7.84338 | 142° | 64km/h | 14879m | 5.2m/s | -67°C | 37.6% | 0hPa | 2.7V | 08:30:00 | 01:13:40 | 00:00:00 | |
| AUTORXJP | 2026-09-04 10:49:39 | 44.34465 | 7.84248 | 135° | 68km/h | 14850m | 5.0m/s | -66.8°C | 29.9% | -1.0hPa | 2.8V | 00:00:00 | 00:00:00 | 00:00:00 | |
| IW2NTF | 2026-09-04 10:49:35 | 44.34561 | 7.84111 | 133° | 68km/h | 14812m | 4.5m/s | -67.2°C | 42.1% | 0hPa | 2.8V | 08:30:00 | 01:13:26 | 00:00:00 | |
| IW2NTF | 2026-09-04 10:49:25 | 44.34669 | 7.83937 | 132° | 58km/h | 14765m | 4m/s | -67.2°C | 44.4% | 0hPa | 2.8V | 08:30:00 | 01:13:16 | 00:00:00 | |
| IW2NTF | 2026-09-04 10:49:16 | 44.34763 | 7.83791 | 128° | 49km/h | 14718m | 5.6m/s | -66.9°C | 44.7% | 0hPa | 2.8V | 08:30:00 | 01:13:06 | 00:00:00 | |
| AUTORXJP | 2026-09-04 10:49:08 | 44.34778 | 7.83765 | 130° | 46km/h | 14709m | 4.0m/s | -66.7°C | 34.8% | -1.0hPa | 2.7V | 00:00:00 | 00:00:00 | 00:00:00 | |
| IW2NTF | 2026-09-04 10:49:05 | 44.34843 | 7.83661 | 132° | 49km/h | 14673m | 5.1m/s | -66.9°C | 47% | 0hPa | 2.7V | 08:30:00 | 01:12:56 | 00:00:00 | |
| IW2NTF | 2026-09-04 10:48:55 | 44.34927 | 7.83542 | 135° | 44km/h | 14627m | 4.5m/s | -67°C | 48.6% | 0hPa | 2.7V | 08:30:00 | 01:12:46 | 00:00:00 | |
| IW2NTF | 2026-09-04 10:48:45 | 44.35000 | 7.83446 | 149° | 37km/h | 14583m | 3.4m/s | -67.3°C | 51.1% | 0hPa | 2.7V | 08:30:00 | 01:12:36 | 00:00:00 | |
| AUTORXJP | 2026-09-04 10:48:37 | 44.35023 | 7.83428 | 147° | 35km/h | 14570m | 4.9m/s | -67.3°C | 39.4% | -1.0hPa | 2.7V | 00:00:00 | 00:00:00 | 00:00:00 | |
| IW2NTF | 2026-09-04 10:48:35 | 44.35075 | 7.83372 | 144° | 38km/h | 14538m | 3m/s | -67.2°C | 49.7% | 0hPa | 2.7V | 08:30:00 | 01:12:26 | 00:00:00 | |
| IW2NTF | 2026-09-04 10:48:25 | 44.35147 | 7.83305 | 147° | 38km/h | 14494m | 3.3m/s | -67.3°C | 48% | 0hPa | 2.7V | 08:30:00 | 01:12:16 | 00:00:00 | |
| IW2NTF | 2026-09-04 10:48:15 | 44.35230 | 7.83248 | 152° | 38km/h | 14451m | 3.6m/s | -67.7°C | 49% | 0hPa | 2.7V | 08:30:00 | 01:12:06 | 00:00:00 | |
| AUTORXJP | 2026-09-04 10:48:06 | 44.35266 | 7.83225 | 157° | 38km/h | 14435m | 3.5m/s | -67.7°C | 38.0% | -1.0hPa | 2.7V | 00:00:00 | 00:00:00 | 00:00:00 | |
| IW2NTF | 2026-09-04 10:48:05 | 44.35325 | 7.83187 | 150° | 46km/h | 14409m | 4.6m/s | -68°C | 49.4% | 0hPa | 2.7V | 08:30:00 | 01:11:56 | 00:00:00 | |
| IW2NTF | 2026-09-04 10:47:55 | 44.35419 | 7.83101 | 143° | 44km/h | 14366m | 5.1m/s | -68.2°C | 50.6% | 0hPa | 2.7V | 08:30:00 | 01:11:46 | 00:00:00 | |
| IW2NTF | 2026-09-04 10:47:43 | 44.35530 | 7.82990 | 137° | 49km/h | 14316m | 3.8m/s | -68.2°C | 50% | 0hPa | 2.8V | 08:30:00 | 01:11:34 | 00:00:00 | |
| IW2NTF | 2026-09-04 10:47:33 | 44.35622 | 7.82870 | 132° | 51km/h | 14276m | 4.4m/s | -67.8°C | 48% | 0hPa | 2.7V | 08:30:00 | 01:11:24 | 00:00:00 | |
| IW2NTF | 2026-09-04 10:47:23 | 44.35706 | 7.82733 | 136° | 53km/h | 14233m | 4.6m/s | -67.9°C | 49.8% | 0hPa | 2.7V | 08:30:00 | 01:11:14 | 00:00:00 | |
| IW2NTF | 2026-09-04 10:47:13 | 44.35794 | 7.82582 | 127° | 49km/h | 14193m | 3.8m/s | -67.6°C | 47.2% | 0hPa | 2.8V | 08:30:00 | 01:11:04 | 00:00:00 | |
| AUTORXJP | 2026-09-04 10:47:04 | 44.35825 | 7.82529 | 129° | 49km/h | 14174m | 5.1m/s | -67.5°C | -1.0% | -1.0hPa | 2.8V | 00:00:00 | 00:00:00 | 00:00:00 | |
| IW2NTF | 2026-09-04 10:47:03 | 44.35872 | 7.82446 | 129° | 49km/h | 14148m | 4.1m/s | -67.3°C | 46.2% | 0hPa | 2.8V | 08:30:00 | 01:10:54 | 00:00:00 | |
| IW2NTF | 2026-09-04 10:46:53 | 44.35948 | 7.82313 | 130° | 44km/h | 14104m | 4.8m/s | -67.1°C | 45.8% | 0hPa | 2.8V | 08:30:00 | 01:10:44 | 00:00:00 | |
| IW2NTF | 2026-09-04 10:46:43 | 44.36019 | 7.82208 | 135° | 42km/h | 14061m | 4.3m/s | -66.7°C | 44.3% | 0hPa | 2.7V | 08:30:00 | 01:10:34 | 00:00:00 | |
| IW2NTF | 2026-09-04 10:46:33 | 44.36094 | 7.82092 | 132° | 49km/h | 14020m | 4.7m/s | -66.3°C | 44.5% | 0hPa | 2.8V | 08:30:00 | 01:10:24 | 00:00:00 | |
| IW2NTF | 2026-09-04 10:46:23 | 44.36171 | 7.81974 | 130° | 46km/h | 13979m | 3.2m/s | -66.2°C | 45.9% | 0hPa | 2.8V | 08:30:00 | 01:10:14 | 00:00:00 | |
| IW2NTF | 2026-09-04 10:46:13 | 44.36251 | 7.81849 | 130° | 44km/h | 13937m | 4.1m/s | -66°C | 44.2% | 0hPa | 2.8V | 08:30:00 | 01:10:04 | 00:00:00 | |
| IW2NTF | 2026-09-04 10:46:03 | 44.36333 | 7.81732 | 132° | 46km/h | 13894m | 4.1m/s | -65.9°C | 47.4% | 0hPa | 2.8V | 08:30:00 | 01:09:54 | 00:00:00 | |
| IW2NTF | 2026-09-04 10:45:53 | 44.36412 | 7.81623 | 140° | 40km/h | 13851m | 5.6m/s | -65.8°C | 47.1% | 0hPa | 2.8V | 08:30:00 | 01:09:44 | 00:00:00 | |
| IW2NTF | 2026-09-04 10:45:43 | 44.36492 | 7.81526 | 141° | 42km/h | 13810m | 3.4m/s | -65.4°C | 47.2% | 0hPa | 2.7V | 08:30:00 | 01:09:34 | 00:00:00 | |
| IW2NTF | 2026-09-04 10:45:33 | 44.36575 | 7.81455 | 141° | 40km/h | 13766m | 4.6m/s | -65.1°C | 48.6% | 0hPa | 2.8V | 08:30:00 | 01:09:24 | 00:00:00 | |
| IW2NTF | 2026-09-04 10:45:23 | 44.36654 | 7.81377 | 155° | 40km/h | 13724m | 4.1m/s | -65°C | 51.2% | 0hPa | 2.7V | 08:30:00 | 01:09:14 | 00:00:00 | |
| IW2NTF | 2026-09-04 10:45:13 | 44.36736 | 7.81300 | 150° | 42km/h | 13682m | 4.4m/s | -65°C | 53.4% | 0hPa | 2.8V | 08:30:00 | 01:09:04 | 00:00:00 | |
| IW2NTF | 2026-09-04 10:45:03 | 44.36837 | 7.81211 | 139° | 46km/h | 13637m | 3.7m/s | -65.1°C | 52.5% | 0hPa | 2.8V | 08:30:00 | 01:08:54 | 00:00:00 | |
| IW2NTF | 2026-09-04 10:44:53 | 44.36946 | 7.81104 | 141° | 57km/h | 13593m | 4.8m/s | -65°C | 54.4% | 0hPa | 2.7V | 08:30:00 | 01:08:44 | 00:00:00 | |
| IW2NTF | 2026-09-04 10:44:43 | 44.37060 | 7.80988 | 147° | 57km/h | 13551m | 4.5m/s | -64.9°C | 55.3% | 0hPa | 2.8V | 08:30:00 | 01:08:34 | 00:00:00 | |
| IW2NTF | 2026-09-04 10:44:33 | 44.37171 | 7.80873 | 142° | 51km/h | 13508m | 4m/s | -64.5°C | 52.6% | 0hPa | 2.8V | 08:30:00 | 01:08:24 | 00:00:00 | |
| IW2NTF | 2026-09-04 10:44:23 | 44.37290 | 7.80780 | 145° | 57km/h | 13466m | 5.2m/s | -64.3°C | 53.3% | 0hPa | 2.8V | 08:30:00 | 01:08:14 | 00:00:00 | |
| IW2NTF | 2026-09-04 10:44:13 | 44.37409 | 7.80690 | 149° | 49km/h | 13426m | 4.3m/s | -64.2°C | 53.9% | 0hPa | 2.9V | 08:30:00 | 01:08:04 | 00:00:00 | |
| IW2NTF | 2026-09-04 10:44:03 | 44.37522 | 7.80597 | 156° | 49km/h | 13381m | 3.9m/s | -63.9°C | 52.6% | 0hPa | 2.9V | 08:30:00 | 01:07:54 | 00:00:00 | |
| AUTORXJP | 2026-09-04 10:43:57 | 44.37533 | 7.80590 | 157° | 49km/h | 13377m | 4.7m/s | -63.9°C | -1.0% | -1.0hPa | 2.8V | 00:00:00 | 00:00:00 | 00:00:00 | |
| IW2NTF | 2026-09-04 10:43:53 | 44.37635 | 7.80523 | 153° | 47km/h | 13337m | 4.3m/s | -63.6°C | 53.9% | 0hPa | 2.8V | 08:30:00 | 01:07:44 | 00:00:00 | |
| IW2NTF | 2026-09-04 10:43:43 | 44.37752 | 7.80459 | 159° | 46km/h | 13296m | 5.1m/s | -63.4°C | 49.8% | 0hPa | 2.9V | 08:30:00 | 01:07:34 | 00:00:00 | |
| IW2NTF | 2026-09-04 10:43:33 | 44.37871 | 7.80394 | 160° | 51km/h | 13253m | 4.8m/s | -62.9°C | 51% | 0hPa | 2.8V | 08:30:00 | 01:07:24 | 00:00:00 | |
| AUTORXJP | 2026-09-04 10:43:27 | 44.37894 | 7.80383 | 161° | 46km/h | 13245m | 3.8m/s | -62.9°C | -1.0% | -1.0hPa | 2.8V | 00:00:00 | 00:00:00 | 00:00:00 | |
| IW2NTF | 2026-09-04 10:43:23 | 44.37985 | 7.80342 | 160° | 55km/h | 13213m | 3.1m/s | -62.6°C | 50.1% | 0hPa | 2.8V | 08:30:00 | 01:07:14 | 00:00:00 | |
| IW2NTF | 2026-09-04 10:43:13 | 44.38105 | 7.80283 | 164° | 49km/h | 13173m | 4.4m/s | -62.4°C | 50.2% | 0hPa | 2.8V | 08:30:00 | 01:07:04 | 00:00:00 | |
| IW2NTF | 2026-09-04 10:43:03 | 44.38230 | 7.80221 | 161° | 55km/h | 13132m | 3.8m/s | -62°C | 50.5% | 0hPa | 2.9V | 08:30:00 | 01:06:54 | 00:00:00 | |
| AUTORXJP | 2026-09-04 10:42:55 | 44.38267 | 7.80201 | 156° | 49km/h | 13119m | 4.4m/s | 0°C | -1.0% | -1.0hPa | 2.8V | 00:00:00 | 00:00:00 | 00:00:00 | |
| IW2NTF | 2026-09-04 10:42:53 | 44.38354 | 7.80158 | 164° | 57km/h | 13090m | 4.9m/s | -61.8°C | 46.3% | 0hPa | 2.8V | 08:30:00 | 01:06:44 | 00:00:00 | |
| IW2NTF | 2026-09-04 10:42:43 | 44.38485 | 7.80095 | 162° | 55km/h | 13048m | 5.3m/s | -61.3°C | 46.9% | 0hPa | 2.9V | 08:30:00 | 01:06:34 | 00:00:00 | |
| IW2NTF | 2026-09-04 10:42:33 | 44.38621 | 7.80028 | 159° | 53km/h | 13006m | 3.8m/s | -61.1°C | 46.3% | 0hPa | 2.9V | 08:30:00 | 01:06:24 | 00:00:00 | |
| IW2NTF | 2026-09-04 10:42:23 | 44.38755 | 7.79954 | 162° | 60km/h | 12966m | 5.2m/s | -60.6°C | 44.8% | 0hPa | 2.9V | 08:30:00 | 01:06:14 | 00:00:00 | |
| IW2NTF | 2026-09-04 10:42:13 | 44.38886 | 7.79885 | 158° | 58km/h | 12927m | 4.8m/s | -60.4°C | 43.1% | 0hPa | 2.9V | 08:30:00 | 01:06:04 | 00:00:00 | |
| IW2NTF | 2026-09-04 10:42:01 | 44.39051 | 7.79796 | 156° | 57km/h | 12880m | 3.9m/s | -60°C | 43.7% | 0hPa | 2.9V | 08:30:00 | 01:05:52 | 00:00:00 | |
| IW2NTF | 2026-09-04 10:41:51 | 44.39182 | 7.79741 | 161° | 55km/h | 12842m | 4.9m/s | -59.8°C | 42% | 0hPa | 2.9V | 08:30:00 | 01:05:42 | 00:00:00 | |
| IW2NTF | 2026-09-04 10:41:39 | 44.39339 | 7.79652 | 161° | 51km/h | 12794m | 4.6m/s | -59.4°C | 42.6% | 0hPa | 2.9V | 08:30:00 | 01:05:30 | 00:00:00 | |
| IW2NTF | 2026-09-04 10:41:29 | 44.39478 | 7.79586 | 163° | 53km/h | 12750m | 5.4m/s | -59°C | 42.4% | 0hPa | 2.9V | 08:30:00 | 01:05:19 | 00:00:00 | |
| IW2NTF | 2026-09-04 10:41:18 | 44.39600 | 7.79531 | 156° | 53km/h | 12712m | 5.8m/s | -58.8°C | 43.7% | 0hPa | 2.8V | 08:30:00 | 01:05:09 | 00:00:00 | |
| IW2NTF | 2026-09-04 10:41:00 | 44.39813 | 7.79426 | 157° | 51km/h | 12652m | 4.3m/s | -58.4°C | 45.6% | 0hPa | 2.9V | 08:30:00 | 01:04:51 | 00:00:00 | |
| IW2NTF | 2026-09-04 10:40:51 | 44.39929 | 7.79363 | 158° | 47km/h | 12627m | 3.8m/s | -58.2°C | 47% | 0hPa | 2.8V | 08:30:00 | 01:04:41 | 00:00:00 | |
| IW2NTF | 2026-09-04 10:40:39 | 44.40052 | 7.79287 | 160° | 46km/h | 12607m | 3.4m/s | -58.2°C | 45.4% | 0hPa | 2.8V | 08:30:00 | 01:04:30 | 00:00:00 | |
| IW2NTF | 2026-09-04 10:40:29 | 44.40163 | 7.79215 | 153° | 53km/h | 12613m | 3.9m/s | -57.9°C | 48.2% | 0hPa | 2.9V | 08:30:00 | 01:04:20 | 00:00:00 | |
| IW2NTF | 2026-09-04 10:40:19 | 44.40255 | 7.79157 | 155° | 44km/h | 12641m | 17.5m/s | -57.4°C | 44.6% | 0hPa | 2.9V | 08:30:00 | 01:04:10 | 00:00:00 | |
| IW2NTF | 2026-09-04 10:40:09 | 44.40371 | 7.79088 | 156° | 47km/h | 12418m | 4.2m/s | -57°C | 44% | 0hPa | 2.8V | 08:30:00 | 01:04:00 | 00:00:00 | |
| IW2NTF | 2026-09-04 10:39:59 | 44.40487 | 7.79019 | 155° | 46km/h | 12374m | 6m/s | -56.6°C | 43.5% | 0hPa | 2.9V | 08:30:00 | 01:03:50 | 00:00:00 | |
| IW2NTF | 2026-09-04 10:39:50 | 44.40599 | 7.78950 | 154° | 57km/h | 12324m | 4.9m/s | -56.3°C | 42.9% | 0hPa | 2.9V | 08:30:00 | 01:03:40 | 00:00:00 | |
| IW2NTF | 2026-09-04 10:39:39 | 44.40717 | 7.78864 | 150° | 49km/h | 12278m | 4.8m/s | -55.8°C | 42% | 0hPa | 2.8V | 08:30:00 | 01:03:30 | 00:00:00 | |
| IW2NTF | 2026-09-04 10:39:29 | 44.40833 | 7.78771 | 152° | 55km/h | 12236m | 4.8m/s | -55.5°C | 43.2% | 0hPa | 2.9V | 08:30:00 | 01:03:20 | 00:00:00 | |
| IW2NTF | 2026-09-04 10:39:19 | 44.40945 | 7.78681 | 150° | 55km/h | 12194m | 4.3m/s | -55.2°C | 42.1% | 0hPa | 2.9V | 08:30:00 | 01:03:10 | 00:00:00 | |
| IW2NTF | 2026-09-04 10:39:09 | 44.41064 | 7.78595 | 151° | 49km/h | 12155m | 4.6m/s | -54.9°C | 41.1% | 0hPa | 2.8V | 08:30:00 | 01:03:00 | 00:00:00 | |
| IW2NTF | 2026-09-04 10:38:59 | 44.41174 | 7.78513 | 153° | 49km/h | 12113m | 5.4m/s | -54.5°C | 40.1% | 0hPa | 2.9V | 08:30:00 | 01:02:50 | 00:00:00 | |
| IW2NTF | 2026-09-04 10:38:49 | 44.41283 | 7.78432 | 151° | 47km/h | 12072m | 5m/s | -54.2°C | 39.7% | 0hPa | 2.8V | 08:30:00 | 01:02:40 | 00:00:00 | |
| IW2NTF | 2026-09-04 10:38:39 | 44.41394 | 7.78349 | 145° | 51km/h | 12031m | 4.1m/s | -53.9°C | 39.8% | 0hPa | 2.9V | 08:30:00 | 01:02:30 | 00:00:00 | |
| IW2NTF | 2026-09-04 10:38:29 | 44.41501 | 7.78257 | 147° | 47km/h | 11989m | 4.5m/s | -53.5°C | 38.6% | 0hPa | 2.9V | 08:30:00 | 01:02:20 | 00:00:00 | |
| IW2NTF | 2026-09-04 10:38:19 | 44.41605 | 7.78166 | 151° | 51km/h | 11949m | 3.4m/s | -53.2°C | 37% | 0hPa | 2.9V | 08:30:00 | 01:02:10 | 00:00:00 | |
| IW2NTF | 2026-09-04 10:38:09 | 44.41704 | 7.78078 | 147° | 47km/h | 11910m | 4.3m/s | -52.8°C | 34.9% | 0hPa | 2.9V | 08:30:00 | 01:02:00 | 00:00:00 | |
| IW2NTF | 2026-09-04 10:37:59 | 44.41811 | 7.77988 | 147° | 47km/h | 11869m | 4.2m/s | -52.4°C | 33.5% | 0hPa | 2.9V | 08:30:00 | 01:01:50 | 00:00:00 | |
| IW2NTF | 2026-09-04 10:37:49 | 44.41909 | 7.77891 | 149° | 49km/h | 11827m | 4.6m/s | -52°C | 32.9% | 0hPa | 2.9V | 08:30:00 | 01:01:40 | 00:00:00 | |
| IW2NTF | 2026-09-04 10:37:40 | 44.42021 | 7.77807 | 150° | 53km/h | 11785m | 3.9m/s | -51.6°C | 31.7% | 0hPa | 2.9V | 08:30:00 | 01:01:30 | 00:00:00 | |
| IW2NTF | 2026-09-04 10:37:29 | 44.42128 | 7.77713 | 145° | 44km/h | 11743m | 3.8m/s | -51.2°C | 31.4% | 0hPa | 2.8V | 08:30:00 | 01:01:20 | 00:00:00 | |
| IW2NTF | 2026-09-04 10:37:20 | 44.42237 | 7.77624 | 151° | 57km/h | 11701m | 4.9m/s | -51°C | 30% | 0hPa | 2.9V | 08:30:00 | 01:01:10 | 00:00:00 | |
| IW2NTF | 2026-09-04 10:37:09 | 44.42353 | 7.77534 | 150° | 55km/h | 11657m | 2.5m/s | -50.5°C | 30.1% | 0hPa | 2.8V | 08:30:00 | 01:01:00 | 00:00:00 | |
| IW2NTF | 2026-09-04 10:36:59 | 44.42464 | 7.77447 | 144° | 46km/h | 11614m | 4.9m/s | -50.3°C | 30% | 0hPa | 2.9V | 08:30:00 | 01:00:50 | 00:00:00 | |
| IW2NTF | 2026-09-04 10:36:49 | 44.42587 | 7.77352 | 154° | 51km/h | 11572m | 4.3m/s | -49.9°C | 29.5% | 0hPa | 2.9V | 08:30:00 | 01:00:40 | 00:00:00 | |
| IW2NTF | 2026-09-04 10:36:40 | 44.42696 | 7.77246 | 147° | 58km/h | 11526m | 3.9m/s | -49.6°C | 28.3% | 0hPa | 2.8V | 08:30:00 | 01:00:30 | 00:00:00 | |
| IW2NTF | 2026-09-04 10:36:29 | 44.42811 | 7.77140 | 148° | 46km/h | 11480m | 3.9m/s | -49.4°C | 28.5% | 0hPa | 2.9V | 08:30:00 | 01:00:20 | 00:00:00 | |
| IW2NTF | 2026-09-04 10:36:19 | 44.42921 | 7.77039 | 147° | 51km/h | 11435m | 5.1m/s | -48.9°C | 28.6% | 0hPa | 2.9V | 08:30:00 | 01:00:10 | 00:00:00 | |
| IW2NTF | 2026-09-04 10:36:09 | 44.43033 | 7.76944 | 144° | 53km/h | 11384m | 7.6m/s | -48.5°C | 27.5% | 0hPa | 2.8V | 08:30:00 | 01:00:00 | 00:00:00 | |
| IW2NTF | 2026-09-04 10:35:59 | 44.43138 | 7.76854 | 149° | 53km/h | 11323m | 3.9m/s | -48°C | 26.1% | 0hPa | 2.9V | 08:30:00 | 00:59:50 | 00:00:00 | |
| IW2NTF | 2026-09-04 10:35:49 | 44.43249 | 7.76750 | 150° | 51km/h | 11266m | 4.7m/s | -47.5°C | 25.3% | 0hPa | 2.9V | 08:30:00 | 00:59:40 | 00:00:00 | |
| IW2NTF | 2026-09-04 10:35:39 | 44.43351 | 7.76660 | 145° | 51km/h | 11212m | 3.6m/s | -47°C | 23.7% | 0hPa | 2.8V | 08:30:00 | 00:59:30 | 00:00:00 | |
| IW2NTF | 2026-09-04 10:35:29 | 44.43452 | 7.76544 | 139° | 53km/h | 11156m | 5.4m/s | -46.5°C | 22.8% | 0hPa | 2.9V | 08:30:00 | 00:59:20 | 00:00:00 | |
| IW2NTF | 2026-09-04 10:35:19 | 44.43568 | 7.76430 | 143° | 53km/h | 11101m | 5.4m/s | -46°C | 22.1% | 0hPa | 2.9V | 08:30:00 | 00:59:10 | 00:00:00 | |
| IW2NTF | 2026-09-04 10:35:10 | 44.43666 | 7.76300 | 141° | 53km/h | 11047m | 4.9m/s | -45.5°C | 20.8% | 0hPa | 2.9V | 08:30:00 | 00:59:00 | 00:00:00 | |
| IW2NTF | 2026-09-04 10:34:59 | 44.43776 | 7.76171 | 135° | 60km/h | 10987m | 8.7m/s | -45°C | 20.3% | 0hPa | 2.9V | 08:30:00 | 00:58:50 | 00:00:00 | |
| IW2NTF | 2026-09-04 10:34:49 | 44.43870 | 7.76052 | 134° | 49km/h | 10933m | 8m/s | -44.4°C | 20.1% | 0hPa | 2.9V | 08:30:00 | 00:58:40 | 00:00:00 | |
| IW2NTF | 2026-09-04 10:34:37 | 44.43989 | 7.75892 | 133° | 51km/h | 10869m | 4.3m/s | -43.9°C | 19.9% | 0hPa | 2.9V | 08:30:00 | 00:58:28 | 00:00:00 | |
| IW2NTF | 2026-09-04 10:34:28 | 44.44086 | 7.75778 | 133° | 51km/h | 10815m | 6.1m/s | -43.5°C | 19.7% | 0hPa | 2.9V | 08:30:00 | 00:58:18 | 00:00:00 | |
| IW2NTF | 2026-09-04 10:34:15 | 44.44212 | 7.75640 | 139° | 53km/h | 10751m | 3.4m/s | -43°C | 20.4% | 0hPa | 2.9V | 08:30:00 | 00:58:06 | 00:00:00 | |
| IW2NTF | 2026-09-04 10:34:05 | 44.44306 | 7.75523 | 145° | 44km/h | 10697m | 7.2m/s | -42.7°C | 19.8% | 0hPa | 2.8V | 08:30:00 | 00:57:56 | 00:00:00 | |
| IW2NTF | 2026-09-04 10:33:55 | 44.44407 | 7.75398 | 140° | 53km/h | 10641m | 6.7m/s | -42.1°C | 19.2% | 0hPa | 2.9V | 08:30:00 | 00:57:46 | 00:00:00 | |
| IW2NTF | 2026-09-04 10:33:45 | 44.44506 | 7.75284 | 134° | 58km/h | 10586m | 3.8m/s | -41.6°C | 18.8% | 0hPa | 2.8V | 08:30:00 | 00:57:36 | 00:00:00 | |
| IW2NTF | 2026-09-04 10:33:35 | 44.44608 | 7.75144 | 138° | 55km/h | 10525m | 8.9m/s | -41.1°C | 17.5% | 0hPa | 2.8V | 08:30:00 | 00:57:26 | 00:00:00 | |
| IW2NTF | 2026-09-04 10:33:25 | 44.44714 | 7.75012 | 133° | 57km/h | 10468m | 5.4m/s | -40.6°C | 16.9% | 0hPa | 2.8V | 08:30:00 | 00:57:16 | 00:00:00 | |
| IW2NTF | 2026-09-04 10:33:15 | 44.44817 | 7.74868 | 142° | 58km/h | 10418m | 4.3m/s | -40.2°C | 16.6% | 0hPa | 2.9V | 08:30:00 | 00:57:06 | 00:00:00 | |
| IW2NTF | 2026-09-04 10:33:05 | 44.44916 | 7.74749 | 146° | 49km/h | 10360m | 5.6m/s | -39.7°C | 16% | 0hPa | 2.9V | 08:30:00 | 00:56:56 | 00:00:00 | |
| IW2NTF | 2026-09-04 10:32:55 | 44.45009 | 7.74635 | 124° | 49km/h | 10308m | 7.5m/s | -39.2°C | 15% | 0hPa | 2.9V | 08:30:00 | 00:56:46 | 00:00:00 | |
| IW2NTF | 2026-09-04 10:32:45 | 44.45107 | 7.74521 | 131° | 47km/h | 10259m | 3.2m/s | -38.7°C | 14.9% | 0hPa | 2.9V | 08:30:00 | 00:56:36 | 00:00:00 | |
| IW2NTF | 2026-09-04 10:32:35 | 44.45198 | 7.74407 | 146° | 51km/h | 10210m | 5.8m/s | -38.3°C | 14.3% | 0hPa | 2.8V | 08:30:00 | 00:56:26 | 00:00:00 | |
| IW2NTF | 2026-09-04 10:32:25 | 44.45282 | 7.74297 | 134° | 42km/h | 10161m | 6m/s | -38°C | 14.1% | 0hPa | 2.8V | 08:30:00 | 00:56:16 | 00:00:00 | |
| IW2NTF | 2026-09-04 10:32:15 | 44.45380 | 7.74172 | 132° | 55km/h | 10102m | 5.5m/s | -37.5°C | 13.6% | 0hPa | 2.8V | 08:30:00 | 00:56:06 | 00:00:00 | |
| IW2NTF | 2026-09-04 10:32:05 | 44.45472 | 7.74037 | 141° | 51km/h | 10048m | 6m/s | -37°C | 13.1% | 0hPa | 2.9V | 08:30:00 | 00:55:56 | 00:00:00 | |
| IW2NTF | 2026-09-04 10:31:55 | 44.45564 | 7.73907 | 139° | 46km/h | 9995m | 4.8m/s | -36.7°C | 13.1% | 0hPa | 2.9V | 08:30:00 | 00:55:46 | 00:00:00 | |
| IW2NTF | 2026-09-04 10:31:45 | 44.45659 | 7.73778 | 135° | 53km/h | 9941m | 6.1m/s | -36.3°C | 12.2% | 0hPa | 2.9V | 08:30:00 | 00:55:36 | 00:00:00 | |
| IW2NTF | 2026-09-04 10:31:35 | 44.45757 | 7.73644 | 129° | 58km/h | 9886m | 5.6m/s | -35.9°C | 11.9% | 0hPa | 2.9V | 08:30:00 | 00:55:26 | 00:00:00 | |
| IW2NTF | 2026-09-04 10:31:25 | 44.45845 | 7.73499 | 133° | 53km/h | 9832m | 5.3m/s | -35.4°C | 11.7% | 0hPa | 2.9V | 08:30:00 | 00:55:16 | 00:00:00 | |
| IW2NTF | 2026-09-04 10:31:16 | 44.45937 | 7.73359 | 134° | 57km/h | 9772m | 4.5m/s | -34.9°C | 11.5% | 0hPa | 2.9V | 08:30:00 | 00:55:06 | 00:00:00 | |
| IW2NTF | 2026-09-04 10:31:05 | 44.46029 | 7.73218 | 124° | 53km/h | 9722m | 5.8m/s | -34.5°C | 11.5% | 0hPa | 2.9V | 08:30:00 | 00:54:56 | 00:00:00 | |
| IW2NTF | 2026-09-04 10:30:55 | 44.46120 | 7.73086 | 132° | 47km/h | 9668m | 5.3m/s | -34°C | 11.6% | 0hPa | 2.9V | 08:30:00 | 00:54:46 | 00:00:00 | |
| IW2NTF | 2026-09-04 10:30:45 | 44.46208 | 7.72959 | 130° | 53km/h | 9606m | 3.3m/s | -33.5°C | 11% | 0hPa | 2.9V | 08:30:00 | 00:54:36 | 00:00:00 | |
| IW2NTF | 2026-09-04 10:30:35 | 44.46296 | 7.72816 | 133° | 55km/h | 9554m | 5.7m/s | -33.3°C | 11.4% | 0hPa | 2.9V | 08:30:00 | 00:54:26 | 00:00:00 | |
| IW2NTF | 2026-09-04 10:30:26 | 44.46383 | 7.72683 | 128° | 53km/h | 9494m | 4.1m/s | -32.7°C | 11% | 0hPa | 2.9V | 08:30:00 | 00:54:16 | 00:00:00 | |
| IW2NTF | 2026-09-04 10:30:16 | 44.46466 | 7.72549 | 133° | 49km/h | 9443m | 5m/s | -32.2°C | 10.8% | 0hPa | 3V | 08:30:00 | 00:54:06 | 00:00:00 | |
| IW2NTF | 2026-09-04 10:30:05 | 44.46558 | 7.72404 | 127° | 53km/h | 9397m | 4m/s | -32.1°C | 12% | 0hPa | 2.9V | 08:30:00 | 00:53:56 | 00:00:00 | |
| IW2NTF | 2026-09-04 10:29:55 | 44.46645 | 7.72263 | 134° | 49km/h | 9342m | 2.6m/s | -31.8°C | 12.9% | 0hPa | 3V | 08:30:00 | 00:53:46 | 00:00:00 | |
| IW2NTF | 2026-09-04 10:29:45 | 44.46721 | 7.72133 | 126° | 49km/h | 9288m | 4.2m/s | -31.5°C | 13.3% | 0hPa | 3V | 08:30:00 | 00:53:36 | 00:00:00 | |
| IW2NTF | 2026-09-04 10:29:35 | 44.46793 | 7.71988 | 131° | 47km/h | 9239m | 6.6m/s | -31.3°C | 13.7% | 0hPa | 3V | 08:30:00 | 00:53:26 | 00:00:00 | |
| IW2NTF | 2026-09-04 10:29:25 | 44.46865 | 7.71856 | 125° | 46km/h | 9183m | 5.2m/s | -30.9°C | 15.3% | 0hPa | 3V | 08:30:00 | 00:53:16 | 00:00:00 | |
| IW2NTF | 2026-09-04 10:29:15 | 44.46937 | 7.71732 | 133° | 44km/h | 9121m | 5.7m/s | -30.5°C | 15.6% | 0hPa | 3V | 08:30:00 | 00:53:06 | 00:00:00 | |
| IW2NTF | 2026-09-04 10:29:05 | 44.47011 | 7.71604 | 126° | 46km/h | 9066m | 4.9m/s | -30.3°C | 18.1% | 0hPa | 3V | 08:30:00 | 00:52:56 | 00:00:00 | |
| IW2NTF | 2026-09-04 10:28:55 | 44.47070 | 7.71488 | 130° | 42km/h | 9018m | 4.4m/s | -29.9°C | 19.4% | 0hPa | 3V | 08:30:00 | 00:52:46 | 00:00:00 | |
| IW2NTF | 2026-09-04 10:28:45 | 44.47129 | 7.71375 | 119° | 38km/h | 8966m | 7m/s | -29.5°C | 18.5% | 0hPa | 3V | 08:30:00 | 00:52:36 | 00:00:00 | |
| IW2NTF | 2026-09-04 10:28:35 | 44.47193 | 7.71277 | 129° | 40km/h | 8909m | 3.7m/s | -29°C | 18.1% | 0hPa | 3V | 08:30:00 | 00:52:26 | 00:00:00 | |
| IW2NTF | 2026-09-04 10:28:24 | 44.47265 | 7.71175 | 127° | 40km/h | 8848m | 7.5m/s | -28.5°C | 16.6% | 0hPa | 3V | 08:30:00 | 00:52:15 | 00:00:00 | |
| IW2NTF | 2026-09-04 10:28:14 | 44.47328 | 7.71058 | 123° | 42km/h | 8795m | 7m/s | -28.1°C | 16.7% | 0hPa | 3V | 08:30:00 | 00:52:05 | 00:00:00 | |
| IW2NTF | 2026-09-04 10:28:04 | 44.47390 | 7.70949 | 130° | 40km/h | 8746m | 6.4m/s | -27.7°C | 16.9% | 0hPa | 3V | 08:30:00 | 00:51:55 | 00:00:00 | |
| IW2NTF | 2026-09-04 10:27:54 | 44.47464 | 7.70833 | 136° | 40km/h | 8689m | 4.8m/s | -27.2°C | 16.9% | 0hPa | 3V | 08:30:00 | 00:51:45 | 00:00:00 | |
| IW2NTF | 2026-09-04 10:27:44 | 44.47534 | 7.70732 | 135° | 42km/h | 8640m | 3.6m/s | -26.7°C | 16.4% | 0hPa | 3V | 08:30:00 | 00:51:35 | 00:00:00 | |
| IW2NTF | 2026-09-04 10:27:34 | 44.47601 | 7.70619 | 126° | 46km/h | 8586m | 4.7m/s | -26.2°C | 16.2% | 0hPa | 3V | 08:30:00 | 00:51:25 | 00:00:00 | |
| IW2NTF | 2026-09-04 10:27:24 | 44.47675 | 7.70493 | 128° | 46km/h | 8535m | 5.9m/s | -25.8°C | 15.8% | 0hPa | 3V | 08:30:00 | 00:51:15 | 00:00:00 | |
| IW2NTF | 2026-09-04 10:27:14 | 44.47742 | 7.70380 | 122° | 49km/h | 8479m | 8.3m/s | -25.4°C | 15.5% | 0hPa | 3V | 08:30:00 | 00:51:05 | 00:00:00 | |
| IW2NTF | 2026-09-04 10:27:04 | 44.47808 | 7.70254 | 138° | 44km/h | 8423m | 7.1m/s | -24.9°C | 15.6% | 0hPa | 3V | 08:30:00 | 00:50:55 | 00:00:00 | |
| IW2NTF | 2026-09-04 10:26:54 | 44.47885 | 7.70149 | 130° | 46km/h | 8366m | 7.6m/s | -24.5°C | 15.5% | 0hPa | 3V | 08:30:00 | 00:50:45 | 00:00:00 | |
| IW2NTF | 2026-09-04 10:26:44 | 44.47962 | 7.70039 | 133° | 49km/h | 8309m | 4.7m/s | -24°C | 15.8% | 0hPa | 3V | 08:30:00 | 00:50:35 | 00:00:00 | |
| IW2NTF | 2026-09-04 10:26:34 | 44.48041 | 7.69940 | 135° | 44km/h | 8261m | 8.3m/s | -23.6°C | 15.1% | 0hPa | 3V | 08:30:00 | 00:50:25 | 00:00:00 | |
| IW2NTF | 2026-09-04 10:26:24 | 44.48120 | 7.69840 | 134° | 42km/h | 8200m | 5.2m/s | -23°C | 14.4% | 0hPa | 3V | 08:30:00 | 00:50:15 | 00:00:00 | |
| IW2NTF | 2026-09-04 10:26:14 | 44.48198 | 7.69722 | 130° | 37km/h | 8145m | 5.6m/s | -22.6°C | 14.2% | 0hPa | 3V | 08:30:00 | 00:50:05 | 00:00:00 | |
| IW2NTF | 2026-09-04 10:26:04 | 44.48262 | 7.69609 | 134° | 46km/h | 8095m | 3.1m/s | -22.3°C | 13.1% | 0hPa | 3V | 08:30:00 | 00:49:55 | 00:00:00 | |
| IW2NTF | 2026-09-04 10:25:54 | 44.48357 | 7.69499 | 129° | 44km/h | 8036m | 7.1m/s | -21.8°C | 12.5% | 0hPa | 3V | 08:30:00 | 00:49:45 | 00:00:00 | |
| IW2NTF | 2026-09-04 10:25:44 | 44.48433 | 7.69402 | 142° | 44km/h | 7972m | 6.2m/s | -21.2°C | 12.5% | 0hPa | 3V | 08:30:00 | 00:49:35 | 00:00:00 | |
| IW2NTF | 2026-09-04 10:25:34 | 44.48515 | 7.69310 | 135° | 38km/h | 7921m | 6.5m/s | -20.8°C | 12.6% | 0hPa | 3V | 08:30:00 | 00:49:25 | 00:00:00 | |
| IW2NTF | 2026-09-04 10:25:24 | 44.48604 | 7.69223 | 148° | 47km/h | 7870m | 5.2m/s | -20.5°C | 11.3% | 0hPa | 3V | 08:30:00 | 00:49:15 | 00:00:00 | |
| IW2NTF | 2026-09-04 10:25:14 | 44.48688 | 7.69137 | 138° | 46km/h | 7815m | 5.7m/s | -20.2°C | 10.9% | 0hPa | 3V | 08:30:00 | 00:49:05 | 00:00:00 | |
| IW2NTF | 2026-09-04 10:25:04 | 44.48772 | 7.69050 | 155° | 44km/h | 7768m | 4m/s | -19.7°C | 10.5% | 0hPa | 3V | 08:30:00 | 00:48:55 | 00:00:00 | |
| IW2NTF | 2026-09-04 10:24:54 | 44.48862 | 7.68972 | 143° | 46km/h | 7724m | 3.2m/s | -19.5°C | 11% | 0hPa | 3V | 08:30:00 | 00:48:45 | 00:00:00 | |
| IW2NTF | 2026-09-04 10:24:44 | 44.48943 | 7.68880 | 134° | 42km/h | 7666m | 5.2m/s | -19.2°C | 12.6% | 0hPa | 3V | 08:30:00 | 00:48:35 | 00:00:00 | |
| IW2NTF | 2026-09-04 10:24:34 | 44.49031 | 7.68804 | 151° | 44km/h | 7615m | 6.2m/s | -19.2°C | 13.8% | 0hPa | 3V | 08:30:00 | 00:48:25 | 00:00:00 | |
| IW2NTF | 2026-09-04 10:24:24 | 44.49129 | 7.68708 | 143° | 49km/h | 7566m | 3.6m/s | -18.9°C | 14.2% | 0hPa | 3V | 08:30:00 | 00:48:15 | 00:00:00 | |
| IW2NTF | 2026-09-04 10:24:14 | 44.49224 | 7.68613 | 140° | 51km/h | 7519m | 6.2m/s | -18.6°C | 14.3% | 0hPa | 3V | 08:30:00 | 00:48:05 | 00:00:00 | |
| IW2NTF | 2026-09-04 10:24:04 | 44.49305 | 7.68530 | 148° | 33km/h | 7467m | 5m/s | -18.2°C | 14.1% | 0hPa | 3V | 08:30:00 | 00:47:55 | 00:00:00 | |
| IW2NTF | 2026-09-04 10:23:54 | 44.49374 | 7.68451 | 129° | 35km/h | 7412m | 5.2m/s | -17.8°C | 14.1% | 0hPa | 3V | 08:30:00 | 00:47:45 | 00:00:00 | |
| IW2NTF | 2026-09-04 10:23:44 | 44.49443 | 7.68349 | 140° | 38km/h | 7361m | 3.6m/s | -17.5°C | 14.8% | 0hPa | 3V | 08:30:00 | 00:47:35 | 00:00:00 | |
| IW2NTF | 2026-09-04 10:23:34 | 44.49500 | 7.68251 | 131° | 42km/h | 7308m | 7.2m/s | -17.2°C | 15.1% | 0hPa | 3V | 08:30:00 | 00:47:25 | 00:00:00 | |
| IW2NTF | 2026-09-04 10:23:25 | 44.49566 | 7.68138 | 131° | 46km/h | 7260m | 4.7m/s | -16.9°C | 15% | 0hPa | 3V | 08:30:00 | 00:47:15 | 00:00:00 | |
| IW2NTF | 2026-09-04 10:23:14 | 44.49626 | 7.68018 | 120° | 35km/h | 7218m | 3.6m/s | -16.6°C | 14.9% | 0hPa | 3V | 08:30:00 | 00:47:05 | 00:00:00 | |
| IW2NTF | 2026-09-04 10:23:04 | 44.49692 | 7.67900 | 127° | 47km/h | 7166m | 7.7m/s | -16.2°C | 14.5% | 0hPa | 3V | 08:30:00 | 00:46:55 | 00:00:00 | |
| IW2NTF | 2026-09-04 10:22:54 | 44.49768 | 7.67779 | 128° | 42km/h | 7103m | 4.8m/s | -15.8°C | 14.4% | 0hPa | 3V | 08:30:00 | 00:46:45 | 00:00:00 | |
| IW2NTF | 2026-09-04 10:22:44 | 44.49840 | 7.67669 | 137° | 40km/h | 7051m | 4.2m/s | -15.5°C | 14.6% | 0hPa | 3V | 08:30:00 | 00:46:35 | 00:00:00 | |
| IW2NTF | 2026-09-04 10:22:34 | 44.49907 | 7.67563 | 132° | 33km/h | 7010m | 4.2m/s | -15.3°C | 14.4% | 0hPa | 3V | 08:30:00 | 00:46:25 | 00:00:00 | |
| IW2NTF | 2026-09-04 10:22:24 | 44.49969 | 7.67453 | 130° | 37km/h | 6967m | 4m/s | -15°C | 14.1% | 0hPa | 3V | 08:30:00 | 00:46:15 | 00:00:00 | |
| IW2NTF | 2026-09-04 10:22:14 | 44.50031 | 7.67354 | 135° | 38km/h | 6926m | 5m/s | -15.2°C | 18.5% | 0hPa | 3V | 08:30:00 | 00:46:05 | 00:00:00 | |
| IW2NTF | 2026-09-04 10:22:04 | 44.50106 | 7.67250 | 127° | 38km/h | 6885m | 4.1m/s | -14.9°C | 18% | 0hPa | 3V | 08:30:00 | 00:45:55 | 00:00:00 | |
| IW2NTF | 2026-09-04 10:21:54 | 44.50179 | 7.67154 | 142° | 42km/h | 6824m | 7m/s | -14.8°C | 21% | 0hPa | 3V | 08:30:00 | 00:45:45 | 00:00:00 | |
| IW2NTF | 2026-09-04 10:21:44 | 44.50275 | 7.67047 | 142° | 53km/h | 6768m | 3.9m/s | -14.5°C | 25.7% | 0hPa | 3V | 08:30:00 | 00:45:35 | 00:00:00 | |
| IW2NTF | 2026-09-04 10:21:34 | 44.50377 | 7.66967 | 157° | 47km/h | 6717m | 5.8m/s | -14.4°C | 32.5% | 0hPa | 3V | 08:30:00 | 00:45:25 | 00:00:00 | |
| IW2NTF | 2026-09-04 10:21:25 | 44.50479 | 7.66881 | 140° | 44km/h | 6654m | 5.4m/s | -13.9°C | 36% | 0hPa | 3V | 08:30:00 | 00:45:15 | 00:00:00 | |
| IW2NTF | 2026-09-04 10:21:14 | 44.50575 | 7.66794 | 145° | 46km/h | 6592m | 5.5m/s | -13.4°C | 37.1% | 0hPa | 3V | 08:30:00 | 00:45:05 | 00:00:00 | |
| IW2NTF | 2026-09-04 10:21:04 | 44.50650 | 7.66705 | 134° | 44km/h | 6535m | 5.9m/s | -13°C | 37.4% | 0hPa | 3V | 08:30:00 | 00:44:55 | 00:00:00 | |
| IW2NTF | 2026-09-04 10:20:54 | 44.50729 | 7.66606 | 144° | 29km/h | 6482m | 6.7m/s | -12.6°C | 37.6% | 0hPa | 3V | 08:30:00 | 00:44:45 | 00:00:00 | |
| IW2NTF | 2026-09-04 10:20:44 | 44.50795 | 7.66524 | 142° | 37km/h | 6426m | 7m/s | -12.2°C | 38.9% | 0hPa | 3V | 08:30:00 | 00:44:35 | 00:00:00 | |
| IW2NTF | 2026-09-04 10:20:34 | 44.50876 | 7.66430 | 132° | 37km/h | 6368m | 7.1m/s | -11.8°C | 39.3% | 0hPa | 3V | 08:30:00 | 00:44:25 | 00:00:00 | |
| IW2NTF | 2026-09-04 10:20:24 | 44.50953 | 7.66354 | 150° | 46km/h | 6311m | 5.5m/s | -11.3°C | 36.4% | 0hPa | 3V | 08:30:00 | 00:44:15 | 00:00:00 | |
| IW2NTF | 2026-09-04 10:20:14 | 44.51025 | 7.66270 | 145° | 42km/h | 6255m | 3.5m/s | -10.9°C | 34.9% | 0hPa | 3V | 08:30:00 | 00:44:05 | 00:00:00 | |
| IW2NTF | 2026-09-04 10:20:04 | 44.51091 | 7.66174 | 133° | 37km/h | 6199m | 6.4m/s | -10.4°C | 34.8% | 0hPa | 3V | 08:30:00 | 00:43:55 | 00:00:00 | |
| IW2NTF | 2026-09-04 10:19:52 | 44.51170 | 7.66062 | 124° | 38km/h | 6139m | 3.2m/s | -9.9°C | 33.7% | 0hPa | 3V | 08:30:00 | 00:43:43 | 00:00:00 | |
| IW2NTF | 2026-09-04 10:19:41 | 44.51236 | 7.65967 | 131° | 38km/h | 6085m | 5.1m/s | -9.5°C | 33.2% | 0hPa | 3V | 08:30:00 | 00:43:32 | 00:00:00 | |
| IW2NTF | 2026-09-04 10:19:31 | 44.51297 | 7.65895 | 134° | 29km/h | 6034m | 3.7m/s | -9.1°C | 33.3% | 0hPa | 3V | 08:30:00 | 00:43:22 | 00:00:00 | |
| IW2NTF | 2026-09-04 10:19:21 | 44.51353 | 7.65810 | 143° | 35km/h | 5983m | 4.2m/s | -8.7°C | 32.8% | 0hPa | 3V | 08:30:00 | 00:43:12 | 00:00:00 | |
| IW2NTF | 2026-09-04 10:19:11 | 44.51411 | 7.65753 | 141° | 27km/h | 5934m | 4m/s | -8.3°C | 32.5% | 0hPa | 3V | 08:30:00 | 00:43:02 | 00:00:00 | |
| IW2NTF | 2026-09-04 10:19:01 | 44.51460 | 7.65685 | 118° | 22km/h | 5890m | 5.5m/s | -8°C | 30.8% | 0hPa | 3V | 08:30:00 | 00:42:52 | 00:00:00 | |
| IW2NTF | 2026-09-04 10:18:52 | 44.51499 | 7.65631 | 139° | 27km/h | 5834m | 5.5m/s | -7.4°C | 28.4% | 0hPa | 3V | 08:30:00 | 00:42:42 | 00:00:00 | |
| IW2NTF | 2026-09-04 10:18:41 | 44.51535 | 7.65555 | 129° | 20km/h | 5786m | 5.9m/s | -7°C | 28.2% | 0hPa | 3V | 08:30:00 | 00:42:32 | 00:00:00 | |
| IW2NTF | 2026-09-04 10:18:31 | 44.51593 | 7.65483 | 132° | 29km/h | 5739m | 5.8m/s | -6.7°C | 29.6% | 0hPa | 3V | 08:30:00 | 00:42:22 | 00:00:00 | |
| IW2NTF | 2026-09-04 10:18:21 | 44.51640 | 7.65423 | 135° | 33km/h | 5684m | 6.2m/s | -6.3°C | 30.4% | 0hPa | 3V | 08:30:00 | 00:42:12 | 00:00:00 | |
| IW2NTF | 2026-09-04 10:18:11 | 44.51688 | 7.65362 | 144° | 33km/h | 5634m | 3.1m/s | -5.9°C | 30% | 0hPa | 3V | 08:30:00 | 00:42:02 | 00:00:00 | |
| IW2NTF | 2026-09-04 10:18:01 | 44.51740 | 7.65293 | 124° | 20km/h | 5592m | 3.7m/s | -5.7°C | 32.3% | 0hPa | 3V | 08:30:00 | 00:41:52 | 00:00:00 | |
| IW2NTF | 2026-09-04 10:17:51 | 44.51781 | 7.65237 | 131° | 26km/h | 5549m | 4.1m/s | -5.4°C | 31.9% | 0hPa | 3V | 08:30:00 | 00:41:42 | 00:00:00 | |
| IW2NTF | 2026-09-04 10:17:41 | 44.51829 | 7.65186 | 150° | 22km/h | 5505m | 5.6m/s | -5.1°C | 30.3% | 0hPa | 3V | 08:30:00 | 00:41:32 | 00:00:00 | |
| IW2NTF | 2026-09-04 10:17:31 | 44.51872 | 7.65128 | 143° | 26km/h | 5460m | 3.4m/s | -4.8°C | 30.3% | 0hPa | 3V | 08:30:00 | 00:41:22 | 00:00:00 | |
| IW2NTF | 2026-09-04 10:17:21 | 44.51913 | 7.65067 | 130° | 18km/h | 5406m | 5.9m/s | -4.5°C | 30.7% | 0hPa | 3V | 08:30:00 | 00:41:12 | 00:00:00 | |
| IW2NTF | 2026-09-04 10:17:12 | 44.51944 | 7.65030 | 144° | 16km/h | 5354m | 6.5m/s | -4.3°C | 32.2% | 0hPa | 3V | 08:30:00 | 00:41:02 | 00:00:00 | |
| IW2NTF | 2026-09-04 10:17:01 | 44.51965 | 7.64975 | 126° | 22km/h | 5305m | 7.3m/s | -3.9°C | 31.9% | 0hPa | 3V | 08:30:00 | 00:40:52 | 00:00:00 | |
| IW2NTF | 2026-09-04 10:16:51 | 44.51989 | 7.64935 | 124° | 11km/h | 5249m | 5.2m/s | -3.5°C | 32.6% | 0hPa | 3V | 08:30:00 | 00:40:42 | 00:00:00 | |
| IW2NTF | 2026-09-04 10:16:41 | 44.52025 | 7.64874 | 133° | 27km/h | 5204m | 7.1m/s | -3.1°C | 32.4% | 0hPa | 3V | 08:30:00 | 00:40:32 | 00:00:00 | |
| IW2NTF | 2026-09-04 10:16:31 | 44.52061 | 7.64823 | 130° | 16km/h | 5147m | 5.1m/s | -2.6°C | 32.5% | 0hPa | 3V | 08:30:00 | 00:40:22 | 00:00:00 | |
| IW2NTF | 2026-09-04 10:16:21 | 44.52114 | 7.64772 | 144° | 31km/h | 5091m | 5.5m/s | -2°C | 33.9% | 0hPa | 3V | 08:30:00 | 00:40:12 | 00:00:00 | |
| IW2NTF | 2026-09-04 10:16:11 | 44.52164 | 7.64699 | 130° | 22km/h | 5037m | 5m/s | -1.7°C | 35% | 0hPa | 3V | 08:30:00 | 00:40:02 | 00:00:00 | |
| IW2NTF | 2026-09-04 10:16:01 | 44.52209 | 7.64644 | 121° | 29km/h | 4996m | 3.8m/s | -1.3°C | 34.4% | 0hPa | 3V | 08:30:00 | 00:39:52 | 00:00:00 | |
| IW2NTF | 2026-09-04 10:15:55 | 44.52239 | 7.64600 | 148° | 24km/h | 4969m | 5.4m/s | -1.1°C | 33.5% | 0hPa | 3V | 08:30:00 | 00:39:46 | 00:00:00 | |
| IW2NTF | 2026-09-04 10:15:49 | 44.52276 | 7.64572 | 148° | 27km/h | 4944m | 4.3m/s | -0.9°C | 33.5% | 0hPa | 3V | 08:30:00 | 00:39:40 | 00:00:00 | |
| IW2NTF | 2026-09-04 10:15:43 | 44.52300 | 7.64545 | 137° | 22km/h | 4915m | 4m/s | -0.7°C | 33.1% | 0hPa | 3V | 08:30:00 | 00:39:34 | 00:00:00 | |
| IW2NTF | 2026-09-04 10:15:37 | 44.52334 | 7.64521 | 162° | 26km/h | 4889m | 4.2m/s | -0.5°C | 32.3% | 0hPa | 3V | 08:30:00 | 00:39:28 | 00:00:00 | |
| IW2NTF | 2026-09-04 10:15:31 | 44.52369 | 7.64500 | 145° | 26km/h | 4858m | 5.7m/s | -0.2°C | 31.3% | 0hPa | 3V | 08:30:00 | 00:39:22 | 00:00:00 | |
| IW2NTF | 2026-09-04 10:15:25 | 44.52398 | 7.64459 | 139° | 24km/h | 4827m | 5.5m/s | 0.1°C | 31% | 0hPa | 3V | 08:30:00 | 00:39:16 | 00:00:00 | |
| IW2NTF | 2026-09-04 10:15:19 | 44.52424 | 7.64428 | 129° | 26km/h | 4797m | 4.3m/s | 0.3°C | 30.6% | 0hPa | 3V | 08:30:00 | 00:39:10 | 00:00:00 | |
| IW2NTF | 2026-09-04 10:15:13 | 44.52443 | 7.64396 | 150° | 18km/h | 4773m | 4.6m/s | 0.5°C | 27% | 0hPa | 3V | 08:30:00 | 00:39:04 | 00:00:00 | |
| IW2NTF | 2026-09-04 10:15:07 | 44.52473 | 7.64369 | 146° | 24km/h | 4749m | 5.2m/s | 0.7°C | 25.7% | 0hPa | 3V | 08:30:00 | 00:38:58 | 00:00:00 | |
| IW2NTF | 2026-09-04 10:15:01 | 44.52497 | 7.64341 | 114° | 15km/h | 4726m | 3.2m/s | 0.8°C | 25.1% | 0hPa | 3V | 08:30:00 | 00:38:52 | 00:00:00 | |
| IW2NTF | 2026-09-04 10:14:55 | 44.52510 | 7.64304 | 138° | 22km/h | 4702m | 5.5m/s | 1°C | 24.9% | 0hPa | 3V | 08:30:00 | 00:38:46 | 00:00:00 | |
| IW2NTF | 2026-09-04 10:14:49 | 44.52539 | 7.64285 | 148° | 18km/h | 4668m | 5.5m/s | 1.2°C | 23.2% | 0hPa | 3V | 08:30:00 | 00:38:40 | 00:00:00 | |
| IW2NTF | 2026-09-04 10:14:43 | 44.52562 | 7.64249 | 130° | 24km/h | 4632m | 6.4m/s | 1.5°C | 20.9% | 0hPa | 3V | 08:30:00 | 00:38:34 | 00:00:00 | |
| IW2NTF | 2026-09-04 10:14:37 | 44.52575 | 7.64218 | 111° | 20km/h | 4601m | 4.3m/s | 1.8°C | 18.5% | 0hPa | 3V | 08:30:00 | 00:38:28 | 00:00:00 | |
| IW2NTF | 2026-09-04 10:14:31 | 44.52589 | 7.64178 | 119° | 20km/h | 4573m | 4.3m/s | 2°C | 17.4% | 0hPa | 3V | 08:30:00 | 00:38:22 | 00:00:00 | |
| IW2NTF | 2026-09-04 10:14:25 | 44.52602 | 7.64132 | 103° | 24km/h | 4542m | 5.2m/s | 2.3°C | 17.1% | 0hPa | 3V | 08:30:00 | 00:38:16 | 00:00:00 | |
| IW2NTF | 2026-09-04 10:14:19 | 44.52617 | 7.64094 | 133° | 16km/h | 4510m | 5.9m/s | 2.6°C | 16.6% | 0hPa | 3V | 08:30:00 | 00:38:10 | 00:00:00 | |
| IW2NTF | 2026-09-04 10:14:13 | 44.52627 | 7.64076 | 131° | 16km/h | 4483m | 3.7m/s | 2.9°C | 16.4% | 0hPa | 3V | 08:30:00 | 00:38:04 | 00:00:00 | |
| IW2NTF | 2026-09-04 10:14:07 | 44.52647 | 7.64032 | 110° | 22km/h | 4453m | 5.3m/s | 3.1°C | 16.6% | 0hPa | 3V | 08:30:00 | 00:37:58 | 00:00:00 | |
| IW2NTF | 2026-09-04 10:14:01 | 44.52658 | 7.63999 | 137° | 20km/h | 4428m | 5.2m/s | 3.3°C | 15.7% | 0hPa | 3V | 08:30:00 | 00:37:52 | 00:00:00 | |
| IW2NTF | 2026-09-04 10:13:55 | 44.52676 | 7.63964 | 113° | 27km/h | 4399m | 5.9m/s | 3.5°C | 15.9% | 0hPa | 3V | 08:30:00 | 00:37:46 | 00:00:00 | |
| IW2NTF | 2026-09-04 10:13:49 | 44.52694 | 7.63912 | 137° | 22km/h | 4374m | 4.5m/s | 3.7°C | 15.7% | 0hPa | 3V | 08:30:00 | 00:37:40 | 00:00:00 | |
| IW2NTF | 2026-09-04 10:13:43 | 44.52716 | 7.63876 | 114° | 24km/h | 4338m | 5.4m/s | 4°C | 15.9% | 0hPa | 3V | 08:30:00 | 00:37:34 | 00:00:00 | |
| IW2NTF | 2026-09-04 10:13:37 | 44.52738 | 7.63843 | 149° | 22km/h | 4310m | 5.4m/s | 4.3°C | 15.7% | 0hPa | 3V | 08:30:00 | 00:37:28 | 00:00:00 | |
| IW2NTF | 2026-09-04 10:13:31 | 44.52761 | 7.63816 | 112° | 22km/h | 4286m | 4.1m/s | 4.5°C | 15.4% | 0hPa | 3V | 08:30:00 | 00:37:22 | 00:00:00 | |
| IW2NTF | 2026-09-04 10:13:25 | 44.52771 | 7.63760 | 106° | 29km/h | 4264m | 6.2m/s | 4.6°C | 15.4% | 0hPa | 3V | 08:30:00 | 00:37:16 | 00:00:00 | |
| IW2NTF | 2026-09-04 10:13:19 | 44.52787 | 7.63724 | 148° | 18km/h | 4229m | 4.9m/s | 4.8°C | 16.2% | 0hPa | 3V | 08:30:00 | 00:37:10 | 00:00:00 | |
| IW2NTF | 2026-09-04 10:13:13 | 44.52816 | 7.63693 | 155° | 24km/h | 4203m | 6.7m/s | 5°C | 16.6% | 0hPa | 3V | 08:30:00 | 00:37:04 | 00:00:00 | |
| IW2NTF | 2026-09-04 10:13:07 | 44.52840 | 7.63674 | 126° | 20km/h | 4170m | 5.7m/s | 5.3°C | 16.4% | 0hPa | 3V | 08:30:00 | 00:36:58 | 00:00:00 | |
| IW2NTF | 2026-09-04 10:13:01 | 44.52861 | 7.63623 | 127° | 31km/h | 4138m | 6.5m/s | 5.6°C | 16.1% | 0hPa | 3V | 08:30:00 | 00:36:52 | 00:00:00 | |
| IW2NTF | 2026-09-04 10:12:55 | 44.52883 | 7.63567 | 117° | 26km/h | 4110m | 4.1m/s | 5.8°C | 16.2% | 0hPa | 3V | 08:30:00 | 00:36:46 | 00:00:00 | |
| IW2NTF | 2026-09-04 10:12:49 | 44.52911 | 7.63525 | 138° | 26km/h | 4079m | 6m/s | 6°C | 15.6% | 0hPa | 3V | 08:30:00 | 00:36:40 | 00:00:00 | |
| IW2NTF | 2026-09-04 10:12:43 | 44.52935 | 7.63484 | 110° | 27km/h | 4041m | 5.4m/s | 6.2°C | 16.4% | 0hPa | 3V | 08:30:00 | 00:36:34 | 00:00:00 | |
| IW2NTF | 2026-09-04 10:12:37 | 44.52954 | 7.63444 | 141° | 16km/h | 4009m | 3.8m/s | 6.4°C | 17.3% | 0hPa | 3V | 08:30:00 | 00:36:28 | 00:00:00 | |
| IW2NTF | 2026-09-04 10:12:31 | 44.52965 | 7.63417 | 104° | 15km/h | 3980m | 7.6m/s | 6.4°C | 20.4% | 0hPa | 3V | 08:30:00 | 00:36:22 | 00:00:00 | |
| IW2NTF | 2026-09-04 10:12:25 | 44.52978 | 7.63375 | 117° | 26km/h | 3944m | 6.8m/s | 6.7°C | 20.7% | 0hPa | 3V | 08:30:00 | 00:36:16 | 00:00:00 | |
| IW2NTF | 2026-09-04 10:12:19 | 44.52987 | 7.63336 | 94° | 15km/h | 3914m | 3.8m/s | 7°C | 20.8% | 0hPa | 3V | 08:30:00 | 00:36:10 | 00:00:00 | |
| IW2NTF | 2026-09-04 10:12:13 | 44.52996 | 7.63300 | 116° | 22km/h | 3884m | 5.7m/s | 7.2°C | 21.2% | 0hPa | 3V | 08:30:00 | 00:36:04 | 00:00:00 | |
| IW2NTF | 2026-09-04 10:12:07 | 44.53017 | 7.63259 | 113° | 27km/h | 3853m | 3.8m/s | 7.5°C | 21.2% | 0hPa | 3V | 08:30:00 | 00:35:58 | 00:00:00 | |
| IW2NTF | 2026-09-04 10:12:01 | 44.53025 | 7.63200 | 95° | 31km/h | 3827m | 5.1m/s | 7.7°C | 20.8% | 0hPa | 3V | 08:30:00 | 00:35:52 | 00:00:00 | |
| IW2NTF | 2026-09-04 10:11:55 | 44.53033 | 7.63149 | 119° | 22km/h | 3796m | 4.5m/s | 8°C | 20.5% | 0hPa | 3V | 08:30:00 | 00:35:46 | 00:00:00 | |
| IW2NTF | 2026-09-04 10:11:49 | 44.53046 | 7.63103 | 87° | 20km/h | 3764m | 3.8m/s | 8.3°C | 20.1% | 0hPa | 3V | 08:30:00 | 00:35:40 | 00:00:00 | |
| IW2NTF | 2026-09-04 10:11:43 | 44.53057 | 7.63059 | 144° | 27km/h | 3738m | 5.8m/s | 8.6°C | 19.9% | 0hPa | 3V | 08:30:00 | 00:35:34 | 00:00:00 | |
| IW2NTF | 2026-09-04 10:11:37 | 44.53080 | 7.63019 | 109° | 26km/h | 3709m | 5m/s | 8.8°C | 19.6% | 0hPa | 3V | 08:30:00 | 00:35:28 | 00:00:00 | |
| IW2NTF | 2026-09-04 10:11:31 | 44.53096 | 7.62981 | 127° | 18km/h | 3679m | 5.9m/s | 9.1°C | 19.2% | 0hPa | 3V | 08:30:00 | 00:35:22 | 00:00:00 | |
| IW2NTF | 2026-09-04 10:11:25 | 44.53110 | 7.62941 | 116° | 26km/h | 3647m | 5.3m/s | 9.4°C | 19.1% | 0hPa | 3V | 08:30:00 | 00:35:16 | 00:00:00 | |
| IW2NTF | 2026-09-04 10:11:19 | 44.53128 | 7.62902 | 126° | 22km/h | 3622m | 4m/s | 9.6°C | 19.1% | 0hPa | 3V | 08:30:00 | 00:35:10 | 00:00:00 | |
| IW2NTF | 2026-09-04 10:11:13 | 44.53145 | 7.62861 | 114° | 26km/h | 3599m | 5.6m/s | 9.8°C | 18.8% | 0hPa | 3V | 08:30:00 | 00:35:04 | 00:00:00 | |
| IW2NTF | 2026-09-04 10:11:07 | 44.53165 | 7.62814 | 126° | 16km/h | 3575m | 4.5m/s | 10.1°C | 18.7% | 0hPa | 3V | 08:30:00 | 00:34:58 | 00:00:00 | |
| IW2NTF | 2026-09-04 10:11:01 | 44.53187 | 7.62791 | 138° | 24km/h | 3551m | 6.4m/s | 10.2°C | 18.8% | 0hPa | 3V | 08:30:00 | 00:34:52 | 00:00:00 | |
| IW2NTF | 2026-09-04 10:10:55 | 44.53213 | 7.62743 | 141° | 24km/h | 3518m | 4.6m/s | 10.2°C | 20.3% | 0hPa | 3V | 08:30:00 | 00:34:46 | 00:00:00 | |
| IW2NTF | 2026-09-04 10:10:49 | 44.53234 | 7.62724 | 137° | 22km/h | 3489m | 4.5m/s | 10.3°C | 22.7% | 0hPa | 3V | 08:30:00 | 00:34:40 | 00:00:00 | |
| IW2NTF | 2026-09-04 10:10:43 | 44.53255 | 7.62675 | 118° | 24km/h | 3458m | 5.3m/s | 10.5°C | 23.3% | 0hPa | 3V | 08:30:00 | 00:34:34 | 00:00:00 | |
| IW2NTF | 2026-09-04 10:10:37 | 44.53281 | 7.62645 | 145° | 20km/h | 3431m | 4.6m/s | 10.7°C | 23.2% | 0hPa | 3V | 08:30:00 | 00:34:28 | 00:00:00 | |
| IW2NTF | 2026-09-04 10:10:31 | 44.53294 | 7.62617 | 125° | 20km/h | 3405m | 3.4m/s | 10.9°C | 23.6% | 0hPa | 3V | 08:30:00 | 00:34:22 | 00:00:00 | |
| IW2NTF | 2026-09-04 10:10:25 | 44.53316 | 7.62582 | 133° | 18km/h | 3372m | 3.7m/s | 11°C | 23.6% | 0hPa | 3V | 08:30:00 | 00:34:16 | 00:00:00 | |
| IW2NTF | 2026-09-04 10:10:19 | 44.53337 | 7.62554 | 119° | 20km/h | 3348m | 3.9m/s | 11.2°C | 22.8% | 0hPa | 3V | 08:30:00 | 00:34:10 | 00:00:00 | |
| IW2NTF | 2026-09-04 10:10:12 | 44.53358 | 7.62516 | 153° | 13km/h | 3322m | 4.5m/s | 11.4°C | 21.9% | 0hPa | 3V | 08:30:00 | 00:34:03 | 00:00:00 | |
| IW2NTF | 2026-09-04 10:10:06 | 44.53373 | 7.62496 | 138° | 18km/h | 3294m | 5.5m/s | 11.5°C | 22.3% | 0hPa | 3V | 08:30:00 | 00:33:57 | 00:00:00 | |
| IW2NTF | 2026-09-04 10:10:00 | 44.53395 | 7.62468 | 130° | 18km/h | 3261m | 6.3m/s | 11.8°C | 22.4% | 0hPa | 3V | 08:30:00 | 00:33:51 | 00:00:00 | |
| IW2NTF | 2026-09-04 10:09:54 | 44.53407 | 7.62438 | 125° | 22km/h | 3235m | 3.7m/s | 12°C | 22.7% | 0hPa | 3V | 08:30:00 | 00:33:45 | 00:00:00 | |
| IW2NTF | 2026-09-04 10:09:48 | 44.53432 | 7.62391 | 126° | 18km/h | 3207m | 4.3m/s | 12.2°C | 22.8% | 0hPa | 3V | 08:30:00 | 00:33:39 | 00:00:00 | |
| IW2NTF | 2026-09-04 10:09:42 | 44.53438 | 7.62357 | 112° | 24km/h | 3177m | 6.6m/s | 12.5°C | 23% | 0hPa | 3V | 08:30:00 | 00:33:33 | 00:00:00 | |
| IW2NTF | 2026-09-04 10:09:36 | 44.53457 | 7.62299 | 118° | 29km/h | 3147m | 3.5m/s | 12.8°C | 23% | 0hPa | 3V | 08:30:00 | 00:33:27 | 00:00:00 | |
| IW2NTF | 2026-09-04 10:09:30 | 44.53482 | 7.62242 | 118° | 33km/h | 3112m | 5.9m/s | 13.1°C | 22.7% | 0hPa | 3V | 08:30:00 | 00:33:21 | 00:00:00 | |
| IW2NTF | 2026-09-04 10:09:24 | 44.53502 | 7.62188 | 111° | 20km/h | 3079m | 4.9m/s | 13.4°C | 22.3% | 0hPa | 3V | 08:30:00 | 00:33:15 | 00:00:00 | |
| IW2NTF | 2026-09-04 10:09:18 | 44.53524 | 7.62142 | 119° | 33km/h | 3053m | 5.2m/s | 13.6°C | 22% | 0hPa | 3V | 08:30:00 | 00:33:09 | 00:00:00 | |
| IW2NTF | 2026-09-04 10:09:12 | 44.53554 | 7.62081 | 128° | 26km/h | 3027m | 4.2m/s | 13.9°C | 21.8% | 0hPa | 3V | 08:30:00 | 00:33:03 | 00:00:00 | |
| IW2NTF | 2026-09-04 10:09:06 | 44.53577 | 7.62031 | 115° | 37km/h | 2992m | 5.9m/s | 14.2°C | 21.4% | 0hPa | 3V | 08:30:00 | 00:32:57 | 00:00:00 | |
| IW2NTF | 2026-09-04 10:09:00 | 44.53602 | 7.61966 | 119° | 27km/h | 2961m | 4.9m/s | 14.5°C | 21.5% | 0hPa | 3V | 08:30:00 | 00:32:51 | 00:00:00 | |
| IW2NTF | 2026-09-04 10:08:54 | 44.53627 | 7.61914 | 126° | 31km/h | 2923m | 7m/s | 14.8°C | 21.4% | 0hPa | 3V | 08:30:00 | 00:32:45 | 00:00:00 | |
| IW2NTF | 2026-09-04 10:08:48 | 44.53643 | 7.61858 | 105° | 29km/h | 2892m | 4.6m/s | 14.9°C | 22.1% | 0hPa | 3V | 08:30:00 | 00:32:39 | 00:00:00 | |
| IW2NTF | 2026-09-04 10:08:42 | 44.53664 | 7.61808 | 130° | 24km/h | 2867m | 4.9m/s | 15.1°C | 22.3% | 0hPa | 3V | 08:30:00 | 00:32:33 | 00:00:00 | |
| IW2NTF | 2026-09-04 10:08:36 | 44.53690 | 7.61781 | 140° | 24km/h | 2843m | 4.5m/s | 15.2°C | 22.6% | 0hPa | 3V | 08:30:00 | 00:32:27 | 00:00:00 | |
| IW2NTF | 2026-09-04 10:08:30 | 44.53709 | 7.61741 | 117° | 27km/h | 2809m | 4.1m/s | 15.4°C | 23.4% | 0hPa | 3V | 08:30:00 | 00:32:21 | 00:00:00 | |
| IW2NTF | 2026-09-04 10:08:24 | 44.53725 | 7.61696 | 101° | 20km/h | 2785m | 4.2m/s | 15.5°C | 22.6% | 0hPa | 3V | 08:30:00 | 00:32:15 | 00:00:00 | |
| IW2NTF | 2026-09-04 10:08:18 | 44.53740 | 7.61658 | 153° | 24km/h | 2760m | 4.5m/s | 15.5°C | 23.3% | 0hPa | 3V | 08:30:00 | 00:32:09 | 00:00:00 | |
| IW2NTF | 2026-09-04 10:08:12 | 44.53777 | 7.61631 | 133° | 27km/h | 2731m | 5.3m/s | 15.5°C | 24.3% | 0hPa | 3V | 08:30:00 | 00:32:03 | 00:00:00 | |
| IW2NTF | 2026-09-04 10:08:06 | 44.53800 | 7.61589 | 131° | 26km/h | 2697m | 6.6m/s | 15.6°C | 24.5% | 0hPa | 3V | 08:30:00 | 00:31:57 | 00:00:00 | |
| IW2NTF | 2026-09-04 10:08:00 | 44.53821 | 7.61540 | 128° | 18km/h | 2664m | 5.6m/s | 15.8°C | 24.8% | 0hPa | 3V | 08:30:00 | 00:31:51 | 00:00:00 | |
| IW2NTF | 2026-09-04 10:07:54 | 44.53831 | 7.61516 | 130° | 18km/h | 2630m | 4.6m/s | 15.9°C | 24.8% | 0hPa | 3V | 08:30:00 | 00:31:45 | 00:00:00 | |
| IW2NTF | 2026-09-04 10:07:48 | 44.53852 | 7.61494 | 124° | 20km/h | 2597m | 7m/s | 16.2°C | 24.3% | 0hPa | 3V | 08:30:00 | 00:31:39 | 00:00:00 | |
| IW2NTF | 2026-09-04 10:07:40 | 44.53849 | 7.61447 | 26° | 9km/h | 2551m | 7.2m/s | 16.6°C | 23.7% | 0hPa | 3V | 08:30:00 | 00:31:31 | 00:00:00 | |
| IW2NTF | 2026-09-04 10:07:34 | 44.53841 | 7.61444 | 82° | 11km/h | 2523m | 5.1m/s | 16.8°C | 23.2% | 0hPa | 3V | 08:30:00 | 00:31:25 | 00:00:00 | |
| IW2NTF | 2026-09-04 10:07:28 | 44.53842 | 7.61407 | 85° | 15km/h | 2501m | 4.5m/s | 17°C | 23% | 0hPa | 3V | 08:30:00 | 00:31:19 | 00:00:00 | |
| IW2NTF | 2026-09-04 10:07:22 | 44.53843 | 7.61389 | 43° | 7km/h | 2460m | 7.4m/s | 17.2°C | 23.2% | 0hPa | 3V | 08:30:00 | 00:31:13 | 00:00:00 | |
| IW2NTF | 2026-09-04 10:07:16 | 44.53827 | 7.61378 | 30° | 7km/h | 2430m | 4.4m/s | 17.4°C | 23.3% | 0hPa | 3V | 08:30:00 | 00:31:07 | 00:00:00 | |
| IW2NTF | 2026-09-04 10:07:10 | 44.53819 | 7.61385 | 15° | 7km/h | 2407m | 4.1m/s | 17.6°C | 23.2% | 0hPa | 3V | 08:30:00 | 00:31:01 | 00:00:00 | |
| IW2NTF | 2026-09-04 10:07:02 | 44.53810 | 7.61379 | 354° | 9km/h | 2369m | 4.5m/s | 17.9°C | 22.8% | 0hPa | 3V | 08:30:00 | 00:30:53 | 00:00:00 | |
| IW2NTF | 2026-09-04 10:06:56 | 44.53803 | 7.61366 | 99° | 4km/h | 2346m | 3.7m/s | 18.1°C | 22.5% | 0hPa | 3V | 08:30:00 | 00:30:47 | 00:00:00 | |
| IW2NTF | 2026-09-04 10:06:50 | 44.53801 | 7.61363 | 46° | 5km/h | 2323m | 4.3m/s | 18.3°C | 22.3% | 0hPa | 3V | 08:30:00 | 00:30:41 | 00:00:00 | |
| IW2NTF | 2026-09-04 10:06:44 | 44.53792 | 7.61359 | 17° | 7km/h | 2298m | 4.4m/s | 18.6°C | 22% | 0hPa | 3V | 08:30:00 | 00:30:35 | 00:00:00 | |
| IW2NTF | 2026-09-04 10:06:38 | 44.53785 | 7.61348 | 74° | 15km/h | 2276m | 3.2m/s | 18.7°C | 21.8% | 0hPa | 3V | 08:30:00 | 00:30:29 | 00:00:00 | |
| IW2NTF | 2026-09-04 10:06:32 | 44.53780 | 7.61325 | 47° | 7km/h | 2250m | 6.9m/s | 18.8°C | 21.5% | 0hPa | 3V | 08:30:00 | 00:30:23 | 00:00:00 | |
| IW2NTF | 2026-09-04 10:06:26 | 44.53773 | 7.61316 | 20° | 9km/h | 2214m | 5.2m/s | 18.7°C | 23.4% | 0hPa | 3V | 08:30:00 | 00:30:17 | 00:00:00 | |
| IW2NTF | 2026-09-04 10:06:20 | 44.53763 | 7.61307 | 61° | 5km/h | 2191m | 4.7m/s | 18.6°C | 27.5% | 0hPa | 3V | 08:30:00 | 00:30:11 | 00:00:00 | |
| IW2NTF | 2026-09-04 10:06:14 | 44.53760 | 7.61301 | 78° | 7km/h | 2169m | 3.4m/s | 18.7°C | 28% | 0hPa | 3V | 08:30:00 | 00:30:05 | 00:00:00 | |
| IW2NTF | 2026-09-04 10:06:08 | 44.53749 | 7.61281 | 62° | 5km/h | 2146m | 3.6m/s | 18.8°C | 28.7% | 0hPa | 3V | 08:30:00 | 00:29:59 | 00:00:00 | |
| IW2NTF | 2026-09-04 10:06:02 | 44.53746 | 7.61283 | 6° | 11km/h | 2118m | 3.5m/s | 19°C | 0% | 0hPa | 3V | 08:30:00 | 00:29:53 | 00:00:00 | |
| IW2NTF | 2026-09-04 10:05:56 | 44.53725 | 7.61274 | 39° | 11km/h | 2088m | 3.3m/s | 0°C | 0% | 0hPa | 3V | 08:30:00 | 00:29:47 | 00:00:00 | |
| IW2NTF | 2026-09-04 10:05:50 | 44.53708 | 7.61285 | 338° | 22km/h | 2056m | 5.2m/s | 0°C | 0% | 0hPa | 3V | 00:00:00 | 00:29:41 | 00:00:00 | |
| IW2NTF | 2026-09-04 10:05:44 | 44.53685 | 7.61282 | 20° | 7km/h | 2024m | 7.3m/s | 0°C | 0% | 0hPa | 3V | 00:00:00 | 00:29:35 | 00:00:00 | |
| IW2NTF | 2026-09-04 10:05:36 | 44.53674 | 7.61291 | 9° | 9km/h | 1993m | 5.1m/s | 0°C | 0% | 0hPa | 3V | 00:00:00 | 00:29:29 | 00:00:00 | |
| IW2NTF | 2026-09-04 10:05:36 | 44.53669 | 7.61290 | 354° | 9km/h | 1981m | 6.9m/s | 0°C | 0% | 0hPa | 3V | 00:00:00 | 00:29:27 | 00:00:00 | |
| IW2NTF | 2026-09-04 10:05:31 | 44.53667 | 7.61293 | 299° | 5km/h | 1970m | 4m/s | 0°C | 0% | 0hPa | 3V | 00:00:00 | 00:29:25 | 00:00:00 | |
| IW2NTF | 2026-09-04 10:05:31 | 44.53666 | 7.61297 | 303° | 4km/h | 1961m | 4.5m/s | 0°C | 0% | 0hPa | 3V | 00:00:00 | 00:29:23 | 00:00:00 | |
| IW2NTF | 2026-09-04 10:05:31 | 44.53663 | 7.61298 | 0° | 9km/h | 1953m | 4.1m/s | 0°C | 0% | 0hPa | 3V | 00:00:00 | 00:29:21 | 00:00:00 | |
| IW2NTF | 2026-09-04 10:05:24 | 44.53657 | 7.61297 | 11° | 11km/h | 1944m | 7.1m/s | 0°C | 0% | 0hPa | 3V | 00:00:00 | 00:29:19 | 00:00:00 | |
| IW2NTF | 2026-09-04 10:05:24 | 44.53652 | 7.61297 | 352° | 7km/h | 1933m | 4.5m/s | 0°C | 0% | 0hPa | 3V | 00:00:00 | 00:29:17 | 00:00:00 | |
| IW2NTF | 2026-09-04 10:05:24 | 44.53649 | 7.61298 | 330° | 7km/h | 1924m | 5.2m/s | 0°C | 0% | 0hPa | 3V | 00:00:00 | 00:29:15 | 00:00:00 | |
| IW2NTF | 2026-09-04 10:05:18 | 44.53647 | 7.61300 | 322° | 4km/h | 1914m | 5m/s | 0°C | 0% | 0hPa | 3V | 00:00:00 | 00:29:13 | 00:00:00 | |
| IW2NTF | 2026-09-04 10:05:18 | 44.53648 | 7.61300 | 206° | 4km/h | 1906m | 3.8m/s | 0°C | 0% | 0hPa | 3V | 00:00:00 | 00:29:11 | 00:00:00 | |
| IW2NTF | 2026-09-04 10:05:18 | 44.53648 | 7.61303 | 293° | 5km/h | 1899m | 3.4m/s | 0°C | 0% | 0hPa | 3V | 00:00:00 | 00:29:09 | 00:00:00 | |
| IW2NTF | 2026-09-04 10:05:12 | 44.53645 | 7.61307 | 319° | 11km/h | 1894m | 4.4m/s | 0°C | 0% | 0hPa | 3V | 00:00:00 | 00:29:07 | 00:00:00 | |
| IW2NTF | 2026-09-04 10:05:12 | 44.53642 | 7.61312 | 313° | 5km/h | 1884m | 5.5m/s | 0°C | 0% | 0hPa | 3V | 00:00:00 | 00:29:05 | 00:00:00 | |
| IW2NTF | 2026-09-04 10:05:12 | 44.53642 | 7.61311 | 121° | 7km/h | 1875m | 4.3m/s | 0°C | 0% | 0hPa | 3V | 00:00:00 | 00:29:03 | 00:00:00 | |
| IW2NTF | 2026-09-04 10:05:06 | 44.53645 | 7.61306 | 126° | 13km/h | 1865m | 4.9m/s | 0°C | 0% | 0hPa | 3V | 00:00:00 | 00:29:01 | 00:00:00 | |
| IW2NTF | 2026-09-04 10:05:06 | 44.53648 | 7.61298 | 128° | 11km/h | 1857m | 3.6m/s | 0°C | 0% | 0hPa | 3V | 00:00:00 | 00:28:59 | 00:00:00 | |
| IW2NTF | 2026-09-04 10:05:06 | 44.53651 | 7.61292 | 122° | 11km/h | 1849m | 4.5m/s | 0°C | 0% | 0hPa | 3V | 00:00:00 | 00:28:57 | 00:00:00 | |
| IW2NTF | 2026-09-04 10:05:01 | 44.53653 | 7.61287 | 103° | 9km/h | 1840m | 5.2m/s | 0°C | 0% | 0hPa | 3V | 00:00:00 | 00:28:55 | 00:00:00 | |
| IW2NTF | 2026-09-04 10:05:01 | 44.53653 | 7.61283 | 14° | 5km/h | 1829m | 6m/s | 0°C | 0% | 0hPa | 3V | 00:00:00 | 00:28:53 | 00:00:00 | |
| IW2NTF | 2026-09-04 10:05:01 | 44.53648 | 7.61286 | 320° | 13km/h | 1818m | 5m/s | 0°C | 0% | 0hPa | 3V | 00:00:00 | 00:28:51 | 00:00:00 | |
| IW2NTF | 2026-09-04 10:04:54 | 44.53643 | 7.61292 | 325° | 15km/h | 1808m | 5.3m/s | 0°C | 0% | 0hPa | 3V | 00:00:00 | 00:28:49 | 00:00:00 | |
| IW2NTF | 2026-09-04 10:04:54 | 44.53628 | 7.61302 | 338° | 11km/h | 1793m | 5.9m/s | 0°C | 0% | 0hPa | 3V | 00:00:00 | 00:28:45 | 00:00:00 | |
| IW2NTF | 2026-09-04 10:04:48 | 44.53624 | 7.61302 | 46° | 5km/h | 1782m | 5.6m/s | 0°C | 0% | 0hPa | 3V | 00:00:00 | 00:28:43 | 00:00:00 | |
| IW2NTF | 2026-09-04 10:04:48 | 44.53622 | 7.61295 | 75° | 16km/h | 1771m | 6.1m/s | 0°C | 0% | 0hPa | 3V | 00:00:00 | 00:28:41 | 00:00:00 | |
| IW2NTF | 2026-09-04 10:04:48 | 44.53619 | 7.61284 | 73° | 18km/h | 1761m | 5.6m/s | 0°C | 0% | 0hPa | 3V | 00:00:00 | 00:28:39 | 00:00:00 | |
| IW2NTF | 2026-09-04 10:04:42 | 44.53617 | 7.61271 | 82° | 18km/h | 1750m | 6.2m/s | 0°C | 0% | 0hPa | 3V | 00:00:00 | 00:28:37 | 00:00:00 | |
| IW2NTF | 2026-09-04 10:04:42 | 44.53616 | 7.61259 | 86° | 18km/h | 1741m | 4.8m/s | 0°C | 0% | 0hPa | 3V | 00:00:00 | 00:28:35 | 00:00:00 | |
| IW2NTF | 2026-09-04 10:04:42 | 44.53616 | 7.61245 | 76° | 20km/h | 1733m | 3.8m/s | 0°C | 0% | 0hPa | 3V | 00:00:00 | 00:28:33 | 00:00:00 | |
| IW2NTF | 2026-09-04 10:04:36 | 44.53612 | 7.61231 | 62° | 20km/h | 1725m | 5.4m/s | 0°C | 0% | 0hPa | 3V | 00:00:00 | 00:28:31 | 00:00:00 | |
| IW2NTF | 2026-09-04 10:04:36 | 44.53606 | 7.61222 | 38° | 15km/h | 1715m | 5.3m/s | 0°C | 0% | 0hPa | 3V | 00:00:00 | 00:28:29 | 00:00:00 | |
| IW2NTF | 2026-09-04 10:04:36 | 44.53602 | 7.61220 | 338° | 5km/h | 1705m | 4.9m/s | 0°C | 0% | 0hPa | 3V | 00:00:00 | 00:28:27 | 00:00:00 | |
| IW2NTF | 2026-09-04 10:04:30 | 44.53601 | 7.61223 | 276° | 4km/h | 1695m | 5.2m/s | 0°C | 0% | 0hPa | 3V | 00:00:00 | 00:28:25 | 00:00:00 | |
| IW2NTF | 2026-09-04 10:04:30 | 44.53599 | 7.61225 | 339° | 9km/h | 1685m | 5.7m/s | 0°C | 0% | 0hPa | 3V | 00:00:00 | 00:28:23 | 00:00:00 | |
| IW2NTF | 2026-09-04 10:04:30 | 44.53593 | 7.61225 | 7° | 15km/h | 1675m | 5.3m/s | 0°C | 0% | 0hPa | 3V | 00:00:00 | 00:28:21 | 00:00:00 | |
| IW2NTF | 2026-09-04 10:04:24 | 44.53587 | 7.61221 | 42° | 16km/h | 1667m | 3.9m/s | 0°C | 0% | 0hPa | 3V | 00:00:00 | 00:28:19 | 00:00:00 | |
| IW2NTF | 2026-09-04 10:04:24 | 44.53582 | 7.61212 | 70° | 16km/h | 1659m | 3.9m/s | 0°C | 0% | 0hPa | 3V | 00:00:00 | 00:28:17 | 00:00:00 | |
| IW2NTF | 2026-09-04 10:04:24 | 44.53582 | 7.61203 | 120° | 11km/h | 1650m | 4.8m/s | 0°C | 0% | 0hPa | 3V | 00:00:00 | 00:28:15 | 00:00:00 |